Time,TemperatureF,DewpointF,PressureIn,WindDirection,WindDirectionDegrees,WindSpeedMPH,WindSpeedGustMPH,Humidity,HourlyPrecipIn,Conditions,Clouds,dailyrainin,SolarRadiationWatts/m^2,SoftwareType,DateUTC
2013-11-23 00:00:00,62.7,60.0,29.99,WSW,256,1.0,5.0,91,0.01,,,0.02,0.00,VWS V14.01,2013-11-23 05:00:00,
2013-11-23 00:01:00,62.7,60.0,29.99,WSW,255,0.0,3.0,91,0.01,,,0.02,0.00,VWS V14.01,2013-11-23 05:01:00,
2013-11-23 00:02:00,62.6,59.9,29.99,WSW,255,0.0,0.0,91,0.01,,,0.02,0.00,VWS V14.01,2013-11-23 05:02:00,
2013-11-23 00:03:00,62.6,59.9,29.98,WSW,250,0.0,5.0,91,0.01,,,0.00,0.00,VWS V14.01,2013-11-23 05:03:00,
2013-11-23 00:04:00,62.6,59.9,29.98,WSW,250,0.0,0.0,91,0.01,,,0.00,0.00,VWS V14.01,2013-11-23 05:04:00,
2013-11-23 00:05:00,62.6,60.2,29.98,WSW,250,0.0,0.0,92,0.01,,,0.00,0.00,VWS V14.01,2013-11-23 05:05:00,
2013-11-23 00:06:00,62.6,60.2,29.98,WSW,253,3.0,4.0,92,0.01,,,0.00,0.00,VWS V14.01,2013-11-23 05:06:00,
2013-11-23 00:07:00,62.6,59.9,29.98,WSW,257,1.0,4.0,91,0.01,,,0.02,0.00,VWS V14.01,2013-11-23 05:07:00,
2013-11-23 00:08:00,62.6,60.2,29.98,WSW,251,3.0,6.0,92,0.01,,,0.00,0.00,VWS V14.01,2013-11-23 05:08:00,
2013-11-23 00:09:00,62.6,60.2,29.98,WSW,251,4.0,4.0,92,0.01,,,0.00,0.00,VWS V14.01,2013-11-23 05:09:00,
2013-11-23 00:10:00,62.6,60.2,29.98,WSW,248,3.0,5.0,92,0.01,,,0.00,0.00,VWS V14.01,2013-11-23 05:10:00,
2013-11-23 00:11:00,62.6,60.2,29.98,WSW,248,0.0,3.0,92,0.01,,,0.00,0.00,VWS V14.01,2013-11-23 05:11:00,
2013-11-23 00:12:00,62.6,60.2,29.98,WSW,250,0.0,0.0,92,0.01,,,0.00,0.00,VWS V14.01,2013-11-23 05:12:00,
2013-11-23 00:13:00,62.6,60.2,29.98,WSW,249,2.0,4.0,92,0.01,,,0.00,0.00,VWS V14.01,2013-11-23 05:13:00,
2013-11-23 00:14:00,62.6,60.2,29.98,WSW,249,0.0,2.0,92,0.01,,,0.00,0.00,VWS V14.01,2013-11-23 05:14:00,
2013-11-23 00:15:00,62.4,60.0,29.98,WSW,249,0.0,0.0,92,0.01,,,0.00,0.00,VWS V14.01,2013-11-23 05:15:00,
2013-11-23 00:16:00,62.4,60.0,29.98,WSW,249,4.0,4.0,92,0.00,,,0.00,0.00,VWS V14.01,2013-11-23 05:16:00,
2013-11-23 00:17:00,62.6,60.2,29.98,WSW,250,3.0,4.0,92,0.01,,,0.00,0.00,VWS V14.01,2013-11-23 05:17:00,
2013-11-23 00:18:00,62.4,60.0,29.98,WSW,249,4.0,4.0,92,0.00,,,0.00,0.00,VWS V14.01,2013-11-23 05:18:00,
2013-11-23 00:19:00,62.4,60.0,29.98,WSW,249,0.0,4.0,92,0.00,,,0.00,0.00,VWS V14.01,2013-11-23 05:19:00,
2013-11-23 00:20:00,62.4,60.0,29.98,WSW,249,0.0,0.0,92,0.00,,,0.00,0.00,VWS V14.01,2013-11-23 05:20:00,
2013-11-23 00:21:00,62.4,60.0,29.98,WSW,249,0.0,0.0,92,0.00,,,0.00,0.00,VWS V14.01,2013-11-23 05:21:00,
2013-11-23 00:22:00,62.4,60.0,29.98,WSW,249,0.0,0.0,92,0.01,,,0.00,0.00,VWS V14.01,2013-11-23 05:22:00,
2013-11-23 00:23:00,62.4,60.0,29.98,WSW,249,0.0,0.0,92,0.00,,,0.00,0.00,VWS V14.01,2013-11-23 05:23:00,
2013-11-23 00:24:00,62.4,60.0,29.98,WSW,249,0.0,0.0,92,0.00,,,0.00,0.00,VWS V14.01,2013-11-23 05:24:00,
2013-11-23 00:25:00,62.4,60.0,29.98,WSW,249,0.0,0.0,92,0.00,,,0.00,0.00,VWS V14.01,2013-11-23 05:25:00,
2013-11-23 00:26:00,62.4,60.0,29.98,WSW,249,3.0,4.0,92,0.00,,,0.00,0.00,VWS V14.01,2013-11-23 05:26:00,
2013-11-23 00:27:00,62.4,60.0,29.98,WSW,249,0.0,0.0,92,0.00,,,0.00,0.00,VWS V14.01,2013-11-23 05:27:00,
2013-11-23 00:28:00,62.4,60.0,29.98,WSW,249,1.0,3.0,92,0.00,,,0.00,0.00,VWS V14.01,2013-11-23 05:28:00,
2013-11-23 00:29:00,62.3,60.0,29.98,WSW,249,0.0,1.0,92,0.00,,,0.00,0.00,VWS V14.01,2013-11-23 05:29:00,
2013-11-23 00:30:00,62.3,60.0,29.97,WSW,249,0.0,0.0,92,0.00,,,0.00,0.00,VWS V14.01,2013-11-23 05:30:00,
2013-11-23 00:31:00,62.3,60.0,29.97,WSW,249,2.0,3.0,92,0.00,,,0.00,0.00,VWS V14.01,2013-11-23 05:31:00,
2013-11-23 00:32:00,62.4,60.0,29.98,WSW,249,0.0,0.0,92,0.00,,,0.00,0.00,VWS V14.01,2013-11-23 05:32:00,
2013-11-23 00:33:00,62.3,60.0,29.97,WSW,249,3.0,3.0,92,0.00,,,0.00,0.00,VWS V14.01,2013-11-23 05:33:00,
2013-11-23 00:34:00,62.3,60.0,29.97,WSW,249,0.0,3.0,92,0.00,,,0.00,0.00,VWS V14.01,2013-11-23 05:34:00,
2013-11-23 00:35:00,62.3,60.0,29.97,WSW,249,0.0,0.0,92,0.00,,,0.00,0.00,VWS V14.01,2013-11-23 05:35:00,
2013-11-23 00:36:00,62.3,60.0,29.97,WSW,249,0.0,0.0,92,0.00,,,0.00,0.00,VWS V14.01,2013-11-23 05:36:00,
2013-11-23 00:37:00,62.3,60.0,29.97,WSW,249,0.0,0.0,92,0.00,,,0.00,0.00,VWS V14.01,2013-11-23 05:37:00,
2013-11-23 00:38:00,62.3,60.0,29.97,WSW,249,0.0,0.0,92,0.00,,,0.00,0.00,VWS V14.01,2013-11-23 05:38:00,
2013-11-23 00:39:00,62.3,60.0,29.97,WSW,249,0.0,0.0,92,0.00,,,0.00,0.00,VWS V14.01,2013-11-23 05:39:00,
2013-11-23 00:40:00,62.3,60.0,29.97,WSW,249,0.0,0.0,92,0.00,,,0.00,0.00,VWS V14.01,2013-11-23 05:40:00,
2013-11-23 00:41:00,62.3,60.0,29.97,WSW,249,0.0,0.0,92,0.00,,,0.00,0.00,VWS V14.01,2013-11-23 05:41:00,
2013-11-23 00:42:00,62.3,60.0,29.97,WSW,249,0.0,0.0,92,0.00,,,0.00,0.00,VWS V14.01,2013-11-23 05:42:00,
2013-11-23 00:43:00,62.3,60.0,29.97,WSW,249,3.0,3.0,92,0.00,,,0.00,0.00,VWS V14.01,2013-11-23 05:43:00,
2013-11-23 00:44:00,62.3,60.0,29.97,WSW,249,2.0,3.0,92,0.00,,,0.00,0.00,VWS V14.01,2013-11-23 05:44:00,
2013-11-23 00:45:00,62.3,60.0,29.97,WSW,249,0.0,2.0,92,0.00,,,0.00,0.00,VWS V14.01,2013-11-23 05:45:00,
2013-11-23 00:46:00,62.3,60.0,29.97,WSW,249,0.0,0.0,92,0.00,,,0.00,0.00,VWS V14.01,2013-11-23 05:46:00,
2013-11-23 00:47:00,62.3,60.0,29.97,WSW,249,0.0,0.0,92,0.00,,,0.00,0.00,VWS V14.01,2013-11-23 05:47:00,
2013-11-23 00:48:00,62.3,60.0,29.97,WSW,249,0.0,0.0,92,0.00,,,0.00,0.00,VWS V14.01,2013-11-23 05:48:00,
2013-11-23 00:49:00,62.3,60.0,29.97,WSW,249,2.0,2.0,92,0.00,,,0.00,0.00,VWS V14.01,2013-11-23 05:49:00,
2013-11-23 00:50:00,62.1,59.8,29.97,WSW,249,0.0,2.0,92,0.00,,,0.00,0.00,VWS V14.01,2013-11-23 05:50:00,
2013-11-23 00:51:00,62.3,60.0,29.97,WSW,249,1.0,2.0,92,0.00,,,0.00,0.00,VWS V14.01,2013-11-23 05:51:00,
2013-11-23 00:52:00,62.1,59.8,29.97,WSW,249,0.0,0.0,92,0.00,,,0.00,0.00,VWS V14.01,2013-11-23 05:52:00,
2013-11-23 00:53:00,62.1,59.8,29.97,WSW,249,0.0,0.0,92,0.00,,,0.00,0.00,VWS V14.01,2013-11-23 05:53:00,
2013-11-23 00:54:00,62.1,59.8,29.97,WSW,249,0.0,0.0,92,0.00,,,0.00,0.00,VWS V14.01,2013-11-23 05:54:00,
2013-11-23 00:55:00,62.1,59.8,29.97,WSW,249,0.0,0.0,92,0.00,,,0.00,0.00,VWS V14.01,2013-11-23 05:55:00,
2013-11-23 00:56:00,62.3,60.0,29.97,WSW,249,1.0,2.0,92,0.00,,,0.00,0.00,VWS V14.01,2013-11-23 05:56:00,
2013-11-23 00:57:00,62.1,59.8,29.97,WSW,249,0.0,0.0,92,0.00,,,0.00,0.00,VWS V14.01,2013-11-23 05:57:00,
2013-11-23 00:58:00,62.1,59.8,29.97,WSW,249,3.0,3.0,92,0.00,,,0.00,0.00,VWS V14.01,2013-11-23 05:58:00,
2013-11-23 00:59:00,62.1,59.8,29.97,WSW,249,0.0,4.0,92,0.00,,,0.00,0.00,VWS V14.01,2013-11-23 05:59:00,
2013-11-23 01:00:00,62.1,59.8,29.96,WSW,249,0.0,0.0,92,0.00,,,0.00,0.00,VWS V14.01,2013-11-23 06:00:00,
2013-11-23 01:01:00,62.1,59.8,29.97,WSW,249,0.0,0.0,92,0.00,,,0.00,0.00,VWS V14.01,2013-11-23 06:01:00,
2013-11-23 01:02:00,62.1,59.8,29.96,WSW,249,0.0,0.0,92,0.00,,,0.00,0.00,VWS V14.01,2013-11-23 06:02:00,
2013-11-23 01:03:00,62.1,59.8,29.96,WSW,249,0.0,0.0,92,0.00,,,0.00,0.00,VWS V14.01,2013-11-23 06:03:00,
2013-11-23 01:04:00,62.1,59.8,29.96,WSW,249,0.0,0.0,92,0.00,,,0.00,0.00,VWS V14.01,2013-11-23 06:04:00,
2013-11-23 01:05:00,62.1,59.8,29.96,WSW,249,0.0,1.0,92,0.00,,,0.00,0.00,VWS V14.01,2013-11-23 06:05:00,
2013-11-23 01:06:00,62.1,59.8,29.96,WSW,249,0.0,0.0,92,0.00,,,0.00,0.00,VWS V14.01,2013-11-23 06:06:00,
2013-11-23 01:07:00,62.1,59.8,29.96,WSW,249,0.0,2.0,92,0.00,,,0.00,0.00,VWS V14.01,2013-11-23 06:07:00,
2013-11-23 01:08:00,62.1,59.8,29.96,WSW,249,3.0,3.0,92,0.00,,,0.00,0.00,VWS V14.01,2013-11-23 06:08:00,
2013-11-23 01:09:00,62.1,59.8,29.96,WSW,249,2.0,3.0,92,0.00,,,0.00,0.00,VWS V14.01,2013-11-23 06:09:00,
2013-11-23 01:10:00,62.1,59.8,29.96,WSW,249,0.0,2.0,92,0.00,,,0.00,0.00,VWS V14.01,2013-11-23 06:10:00,
2013-11-23 01:11:00,62.1,60.1,29.96,WSW,249,0.0,4.0,93,0.00,,,0.00,0.00,VWS V14.01,2013-11-23 06:11:00,
2013-11-23 01:12:00,62.1,59.8,29.96,WSW,249,1.0,1.0,92,0.00,,,0.00,0.00,VWS V14.01,2013-11-23 06:12:00,
2013-11-23 01:13:00,62.0,59.7,29.96,WSW,249,2.0,3.0,92,0.00,,,0.00,0.00,VWS V14.01,2013-11-23 06:13:00,
2013-11-23 01:14:00,62.0,60.0,29.96,WSW,249,0.0,2.0,93,0.00,,,0.00,0.00,VWS V14.01,2013-11-23 06:14:00,
2013-11-23 01:15:00,62.0,59.7,29.96,WSW,249,1.0,2.0,92,0.00,,,0.00,0.00,VWS V14.01,2013-11-23 06:15:00,
2013-11-23 01:16:00,62.0,60.0,29.96,WSW,249,0.0,3.0,93,0.00,,,0.00,0.00,VWS V14.01,2013-11-23 06:16:00,
2013-11-23 01:17:00,62.1,59.8,29.96,WSW,249,0.0,2.0,92,0.00,,,0.00,0.00,VWS V14.01,2013-11-23 06:17:00,
2013-11-23 01:18:00,62.0,60.0,29.96,WSW,248,1.0,4.0,93,0.00,,,0.00,0.00,VWS V14.01,2013-11-23 06:18:00,
2013-11-23 01:19:00,62.0,60.0,29.96,WSW,248,2.0,3.0,93,0.00,,,0.00,0.00,VWS V14.01,2013-11-23 06:19:00,
2013-11-23 01:20:00,62.0,60.0,29.96,WSW,249,1.0,3.0,93,0.00,,,0.00,0.00,VWS V14.01,2013-11-23 06:20:00,
2013-11-23 01:21:00,62.0,60.0,29.96,WSW,248,1.0,6.0,93,0.00,,,0.00,0.00,VWS V14.01,2013-11-23 06:21:00,
2013-11-23 01:22:00,62.0,60.0,29.96,WSW,249,0.0,0.0,93,0.00,,,0.00,0.00,VWS V14.01,2013-11-23 06:22:00,
2013-11-23 01:23:00,62.0,60.0,29.96,WSW,248,2.0,3.0,93,0.00,,,0.00,0.00,VWS V14.01,2013-11-23 06:23:00,
2013-11-23 01:24:00,62.0,60.0,29.96,WSW,248,0.0,2.0,93,0.00,,,0.00,0.00,VWS V14.01,2013-11-23 06:24:00,
2013-11-23 01:25:00,62.0,60.0,29.96,WSW,248,0.0,0.0,93,0.01,,,0.01,0.00,VWS V14.01,2013-11-23 06:25:00,
2013-11-23 01:26:00,62.0,60.0,29.96,WSW,248,2.0,4.0,93,0.01,,,0.01,0.00,VWS V14.01,2013-11-23 06:26:00,
2013-11-23 01:27:00,62.0,60.0,29.96,WSW,249,2.0,2.0,93,0.00,,,0.00,0.00,VWS V14.01,2013-11-23 06:27:00,
2013-11-23 01:28:00,62.0,60.0,29.96,WSW,248,0.0,0.0,93,0.01,,,0.01,0.00,VWS V14.01,2013-11-23 06:28:00,
2013-11-23 01:29:00,62.0,60.0,29.96,WSW,248,0.0,0.0,93,0.01,,,0.01,0.00,VWS V14.01,2013-11-23 06:29:00,
2013-11-23 01:30:00,62.0,60.0,29.96,WSW,248,5.0,5.0,93,0.01,,,0.01,0.00,VWS V14.01,2013-11-23 06:30:00,
2013-11-23 01:31:00,62.0,60.0,29.96,WSW,248,0.0,5.0,93,0.01,,,0.01,0.00,VWS V14.01,2013-11-23 06:31:00,
2013-11-23 01:32:00,62.0,60.0,29.96,WSW,248,0.0,0.0,93,0.01,,,0.01,0.00,VWS V14.01,2013-11-23 06:32:00,
2013-11-23 01:33:00,62.0,60.0,29.96,WSW,248,0.0,4.0,93,0.01,,,0.01,0.00,VWS V14.01,2013-11-23 06:33:00,
2013-11-23 01:34:00,62.0,60.0,29.96,WSW,249,5.0,5.0,93,0.01,,,0.01,0.00,VWS V14.01,2013-11-23 06:34:00,
2013-11-23 01:35:00,62.0,60.0,29.96,WSW,249,3.0,5.0,93,0.01,,,0.01,0.00,VWS V14.01,2013-11-23 06:35:00,
2013-11-23 01:36:00,62.0,60.0,29.96,WSW,248,0.0,0.0,93,0.01,,,0.01,0.00,VWS V14.01,2013-11-23 06:36:00,
2013-11-23 01:37:00,62.0,60.0,29.96,WSW,249,0.0,0.0,93,0.01,,,0.01,0.00,VWS V14.01,2013-11-23 06:37:00,
2013-11-23 01:38:00,62.0,60.0,29.96,WSW,249,0.0,0.0,93,0.01,,,0.01,0.00,VWS V14.01,2013-11-23 06:38:00,
2013-11-23 01:39:00,62.0,60.0,29.96,WSW,249,0.0,3.0,93,0.01,,,0.01,0.00,VWS V14.01,2013-11-23 06:39:00,
2013-11-23 01:40:00,62.0,60.0,29.96,WSW,249,0.0,9.0,93,0.01,,,0.01,0.00,VWS V14.01,2013-11-23 06:40:00,
2013-11-23 01:41:00,62.0,60.0,29.96,WSW,249,4.0,5.0,93,0.01,,,0.01,0.00,VWS V14.01,2013-11-23 06:41:00,
2013-11-23 01:42:00,62.0,60.0,29.96,WNW,290,0.0,3.0,93,0.01,,,0.01,0.00,VWS V14.01,2013-11-23 06:42:00,
2013-11-23 01:43:00,62.0,60.0,29.96,WNW,284,0.0,2.0,93,0.01,,,0.01,0.00,VWS V14.01,2013-11-23 06:43:00,
2013-11-23 01:44:00,62.0,60.0,29.96,WNW,284,2.0,3.0,93,0.01,,,0.01,0.00,VWS V14.01,2013-11-23 06:44:00,
2013-11-23 01:45:00,62.0,60.0,29.96,WNW,284,0.0,3.0,93,0.01,,,0.01,0.00,VWS V14.01,2013-11-23 06:45:00,
2013-11-23 01:46:00,62.0,60.0,29.96,WSW,249,0.0,0.0,93,0.01,,,0.01,0.00,VWS V14.01,2013-11-23 06:46:00,
2013-11-23 01:47:00,62.0,60.0,29.96,WNW,284,0.0,1.0,93,0.01,,,0.01,0.00,VWS V14.01,2013-11-23 06:47:00,
2013-11-23 01:48:00,62.0,60.0,29.96,WNW,284,0.0,0.0,93,0.01,,,0.01,0.00,VWS V14.01,2013-11-23 06:48:00,
2013-11-23 01:49:00,62.0,60.0,29.96,WNW,284,0.0,0.0,93,0.01,,,0.01,0.00,VWS V14.01,2013-11-23 06:49:00,
2013-11-23 01:50:00,61.8,59.8,29.96,West,276,2.0,4.0,93,0.01,,,0.01,0.00,VWS V14.01,2013-11-23 06:50:00,
2013-11-23 01:51:00,62.0,60.0,29.96,WNW,284,3.0,3.0,93,0.01,,,0.01,0.00,VWS V14.01,2013-11-23 06:51:00,
2013-11-23 01:52:00,61.8,59.8,29.96,West,276,2.0,3.0,93,0.01,,,0.01,0.00,VWS V14.01,2013-11-23 06:52:00,
2013-11-23 01:53:00,61.8,59.8,29.96,West,276,2.0,2.0,93,0.01,,,0.01,0.00,VWS V14.01,2013-11-23 06:53:00,
2013-11-23 01:54:00,61.8,59.8,29.96,West,276,0.0,3.0,93,0.01,,,0.01,0.00,VWS V14.01,2013-11-23 06:54:00,
2013-11-23 01:55:00,61.8,59.8,29.96,West,276,0.0,2.0,93,0.01,,,0.01,0.00,VWS V14.01,2013-11-23 06:55:00,
2013-11-23 01:56:00,61.8,59.8,29.96,West,276,0.0,0.0,93,0.01,,,0.01,0.00,VWS V14.01,2013-11-23 06:56:00,
2013-11-23 01:57:00,61.8,59.8,29.96,WNW,283,2.0,2.0,93,0.01,,,0.01,0.00,VWS V14.01,2013-11-23 06:57:00,
2013-11-23 01:58:00,61.8,59.8,29.96,West,276,0.0,0.0,93,0.01,,,0.01,0.00,VWS V14.01,2013-11-23 06:58:00,
2013-11-23 01:59:00,61.8,59.8,29.96,West,276,0.0,0.0,93,0.01,,,0.01,0.00,VWS V14.01,2013-11-23 06:59:00,
2013-11-23 02:00:00,61.8,59.8,29.96,West,275,2.0,3.0,93,0.01,,,0.01,0.00,VWS V14.01,2013-11-23 07:00:00,
2013-11-23 02:01:00,61.8,59.8,29.96,West,275,1.0,3.0,93,0.01,,,0.01,0.00,VWS V14.01,2013-11-23 07:01:00,
2013-11-23 02:02:00,61.8,59.8,29.96,West,276,2.0,2.0,93,0.01,,,0.01,0.00,VWS V14.01,2013-11-23 07:02:00,
2013-11-23 02:03:00,61.8,59.8,29.96,West,275,2.0,4.0,93,0.01,,,0.01,0.00,VWS V14.01,2013-11-23 07:03:00,
2013-11-23 02:04:00,61.8,59.8,29.96,West,275,0.0,2.0,93,0.01,,,0.01,0.00,VWS V14.01,2013-11-23 07:04:00,
2013-11-23 02:05:00,61.8,59.8,29.96,West,275,3.0,3.0,93,0.01,,,0.01,0.00,VWS V14.01,2013-11-23 07:05:00,
2013-11-23 02:06:00,61.8,59.8,29.96,West,276,0.0,0.0,93,0.01,,,0.01,0.00,VWS V14.01,2013-11-23 07:06:00,
2013-11-23 02:07:00,61.8,59.8,29.96,West,275,0.0,0.0,93,0.01,,,0.01,0.00,VWS V14.01,2013-11-23 07:07:00,
2013-11-23 02:08:00,61.8,59.8,29.96,West,275,0.0,2.0,93,0.01,,,0.01,0.00,VWS V14.01,2013-11-23 07:08:00,
2013-11-23 02:09:00,61.8,59.8,29.96,West,275,0.0,0.0,93,0.01,,,0.01,0.00,VWS V14.01,2013-11-23 07:09:00,
2013-11-23 02:10:00,61.8,59.8,29.96,West,276,0.0,0.0,93,0.01,,,0.01,0.00,VWS V14.01,2013-11-23 07:10:00,
2013-11-23 02:11:00,61.8,59.8,29.96,West,275,1.0,1.0,93,0.01,,,0.01,0.00,VWS V14.01,2013-11-23 07:11:00,
2013-11-23 02:12:00,61.8,59.8,29.96,West,276,0.0,0.0,93,0.01,,,0.01,0.00,VWS V14.01,2013-11-23 07:12:00,
2013-11-23 02:13:00,61.8,59.8,29.96,West,276,0.0,0.0,93,0.01,,,0.01,0.00,VWS V14.01,2013-11-23 07:13:00,
2013-11-23 02:14:00,61.8,59.8,29.96,West,276,0.0,0.0,93,0.01,,,0.01,0.00,VWS V14.01,2013-11-23 07:14:00,
2013-11-23 02:15:00,61.8,59.8,29.97,West,276,0.0,0.0,93,0.01,,,0.01,0.00,VWS V14.01,2013-11-23 07:15:00,
2013-11-23 02:16:00,61.8,59.8,29.96,West,276,0.0,0.0,93,0.01,,,0.01,0.00,VWS V14.01,2013-11-23 07:16:00,
2013-11-23 02:17:00,61.8,59.8,29.97,West,276,0.0,0.0,93,0.01,,,0.01,0.00,VWS V14.01,2013-11-23 07:17:00,
2013-11-23 02:18:00,61.8,59.8,29.97,West,276,0.0,0.0,93,0.01,,,0.01,0.00,VWS V14.01,2013-11-23 07:18:00,
2013-11-23 02:19:00,61.8,59.8,29.97,West,266,3.0,4.0,93,0.01,,,0.01,0.00,VWS V14.01,2013-11-23 07:19:00,
2013-11-23 02:20:00,61.8,59.8,29.97,West,267,3.0,4.0,93,0.01,,,0.01,0.00,VWS V14.01,2013-11-23 07:20:00,
2013-11-23 02:21:00,61.8,59.8,29.97,West,276,0.0,0.0,93,0.01,,,0.01,0.00,VWS V14.01,2013-11-23 07:21:00,
2013-11-23 02:22:00,61.8,59.8,29.97,West,278,4.0,4.0,93,0.01,,,0.01,0.00,VWS V14.01,2013-11-23 07:22:00,
2013-11-23 02:23:00,61.8,59.8,29.97,West,278,0.0,4.0,93,0.01,,,0.01,0.00,VWS V14.01,2013-11-23 07:23:00,
2013-11-23 02:24:00,61.8,59.8,29.97,West,278,3.0,3.0,93,0.01,,,0.01,0.00,VWS V14.01,2013-11-23 07:24:00,
2013-11-23 02:25:00,61.8,59.8,29.97,West,278,0.0,3.0,93,0.01,,,0.01,0.00,VWS V14.01,2013-11-23 07:25:00,
2013-11-23 02:26:00,61.8,59.8,29.97,West,266,3.0,3.0,93,0.01,,,0.01,0.00,VWS V14.01,2013-11-23 07:26:00,
2013-11-23 02:27:00,61.8,59.8,29.97,West,269,0.0,4.0,93,0.00,,,0.01,0.00,VWS V14.01,2013-11-23 07:27:00,
2013-11-23 02:28:00,61.8,59.8,29.97,West,269,0.0,0.0,93,0.00,,,0.01,0.00,VWS V14.01,2013-11-23 07:28:00,
2013-11-23 02:29:00,61.8,59.8,29.97,West,269,0.0,0.0,93,0.00,,,0.01,0.00,VWS V14.01,2013-11-23 07:29:00,
2013-11-23 02:30:00,61.8,59.8,29.97,West,269,2.0,3.0,93,0.00,,,0.01,0.00,VWS V14.01,2013-11-23 07:30:00,
2013-11-23 02:31:00,61.8,59.8,29.97,West,278,0.0,3.0,93,0.01,,,0.01,0.00,VWS V14.01,2013-11-23 07:31:00,
2013-11-23 02:32:00,61.8,59.8,29.97,West,269,0.0,0.0,93,0.00,,,0.01,0.00,VWS V14.01,2013-11-23 07:32:00,
2013-11-23 02:33:00,61.8,59.8,29.97,West,269,0.0,0.0,93,0.00,,,0.01,0.00,VWS V14.01,2013-11-23 07:33:00,
2013-11-23 02:34:00,61.8,59.8,29.97,West,269,0.0,0.0,93,0.00,,,0.01,0.00,VWS V14.01,2013-11-23 07:34:00,
2013-11-23 02:35:00,61.6,59.6,29.97,West,269,0.0,0.0,93,0.00,,,0.01,0.00,VWS V14.01,2013-11-23 07:35:00,
2013-11-23 02:36:00,61.8,59.8,29.97,West,269,3.0,3.0,93,0.00,,,0.01,0.00,VWS V14.01,2013-11-23 07:36:00,
2013-11-23 02:37:00,61.6,59.6,29.97,West,269,0.0,0.0,93,0.00,,,0.01,0.00,VWS V14.01,2013-11-23 07:37:00,
2013-11-23 02:38:00,61.6,59.6,29.97,West,269,0.0,0.0,93,0.00,,,0.01,0.00,VWS V14.01,2013-11-23 07:38:00,
2013-11-23 02:39:00,61.6,59.6,29.97,West,269,0.0,1.0,93,0.00,,,0.01,0.00,VWS V14.01,2013-11-23 07:39:00,
2013-11-23 02:40:00,61.6,59.6,29.97,West,269,0.0,0.0,93,0.00,,,0.01,0.00,VWS V14.01,2013-11-23 07:40:00,
2013-11-23 02:41:00,61.8,59.8,29.97,West,269,0.0,0.0,93,0.00,,,0.01,0.00,VWS V14.01,2013-11-23 07:41:00,
2013-11-23 02:42:00,61.6,59.6,29.97,West,269,2.0,4.0,93,0.00,,,0.01,0.00,VWS V14.01,2013-11-23 07:42:00,
2013-11-23 02:43:00,61.6,59.6,29.97,West,269,2.0,3.0,93,0.00,,,0.01,0.00,VWS V14.01,2013-11-23 07:43:00,
2013-11-23 02:44:00,61.6,59.6,29.97,West,269,0.0,2.0,93,0.00,,,0.01,0.00,VWS V14.01,2013-11-23 07:44:00,
2013-11-23 02:45:00,61.6,59.6,29.96,West,269,0.0,0.0,93,0.00,,,0.01,0.00,VWS V14.01,2013-11-23 07:45:00,
2013-11-23 02:46:00,61.6,59.6,29.97,West,269,0.0,0.0,93,0.00,,,0.01,0.00,VWS V14.01,2013-11-23 07:46:00,
2013-11-23 02:47:00,61.5,59.5,29.96,West,269,0.0,0.0,93,0.00,,,0.01,0.00,VWS V14.01,2013-11-23 07:47:00,
2013-11-23 02:48:00,61.5,59.5,29.96,West,269,0.0,0.0,93,0.00,,,0.01,0.00,VWS V14.01,2013-11-23 07:48:00,
2013-11-23 02:49:00,61.5,59.5,29.96,West,269,0.0,0.0,93,0.00,,,0.01,0.00,VWS V14.01,2013-11-23 07:49:00,
2013-11-23 02:50:00,61.5,59.5,29.96,West,269,2.0,2.0,93,0.00,,,0.01,0.00,VWS V14.01,2013-11-23 07:50:00,
2013-11-23 02:51:00,61.6,59.6,29.96,West,269,0.0,0.0,93,0.00,,,0.01,0.00,VWS V14.01,2013-11-23 07:51:00,
2013-11-23 02:52:00,61.5,59.5,29.96,West,269,2.0,2.0,93,0.00,,,0.01,0.00,VWS V14.01,2013-11-23 07:52:00,
2013-11-23 02:53:00,61.5,59.5,29.96,West,269,2.0,2.0,93,0.00,,,0.01,0.00,VWS V14.01,2013-11-23 07:53:00,
2013-11-23 02:54:00,61.5,59.5,29.96,West,269,0.0,2.0,93,0.00,,,0.01,0.00,VWS V14.01,2013-11-23 07:54:00,
2013-11-23 02:55:00,61.5,59.5,29.96,West,269,0.0,2.0,93,0.00,,,0.01,0.00,VWS V14.01,2013-11-23 07:55:00,
2013-11-23 02:56:00,61.5,59.5,29.96,West,269,0.0,0.0,93,0.00,,,0.01,0.00,VWS V14.01,2013-11-23 07:56:00,
2013-11-23 02:57:00,61.5,59.5,29.96,West,269,0.0,0.0,93,0.00,,,0.01,0.00,VWS V14.01,2013-11-23 07:57:00,
2013-11-23 02:58:00,61.5,59.5,29.96,West,269,0.0,0.0,93,0.00,,,0.01,0.00,VWS V14.01,2013-11-23 07:58:00,
2013-11-23 02:59:00,61.5,59.5,29.96,West,269,0.0,0.0,93,0.00,,,0.01,0.00,VWS V14.01,2013-11-23 07:59:00,
2013-11-23 03:00:00,61.5,59.5,29.96,West,269,0.0,0.0,93,0.00,,,0.01,0.00,VWS V14.01,2013-11-23 08:00:00,
2013-11-23 03:01:00,61.5,59.5,29.96,West,269,0.0,0.0,93,0.00,,,0.01,0.00,VWS V14.01,2013-11-23 08:01:00,
2013-11-23 03:02:00,61.5,59.5,29.96,West,269,0.0,0.0,93,0.00,,,0.01,0.00,VWS V14.01,2013-11-23 08:02:00,
2013-11-23 03:03:00,61.5,59.5,29.96,West,269,0.0,0.0,93,0.00,,,0.01,0.00,VWS V14.01,2013-11-23 08:03:00,
2013-11-23 03:04:00,61.3,59.3,29.96,West,269,0.0,0.0,93,0.00,,,0.01,0.00,VWS V14.01,2013-11-23 08:04:00,
2013-11-23 03:05:00,61.3,59.3,29.96,West,269,0.0,0.0,93,0.00,,,0.01,0.00,VWS V14.01,2013-11-23 08:05:00,
2013-11-23 03:06:00,61.5,59.5,29.96,West,269,0.0,0.0,93,0.00,,,0.01,0.00,VWS V14.01,2013-11-23 08:06:00,
2013-11-23 03:07:00,61.3,59.3,29.96,West,269,0.0,0.0,93,0.00,,,0.01,0.00,VWS V14.01,2013-11-23 08:07:00,
2013-11-23 03:08:00,61.3,59.3,29.96,West,269,0.0,0.0,93,0.00,,,0.01,0.00,VWS V14.01,2013-11-23 08:08:00,
2013-11-23 03:09:00,61.3,59.3,29.96,West,269,0.0,0.0,93,0.00,,,0.01,0.00,VWS V14.01,2013-11-23 08:09:00,
2013-11-23 03:10:00,61.3,59.3,29.96,West,269,0.0,0.0,93,0.00,,,0.01,0.00,VWS V14.01,2013-11-23 08:10:00,
2013-11-23 03:11:00,61.3,59.3,29.96,West,269,0.0,0.0,93,0.00,,,0.01,0.00,VWS V14.01,2013-11-23 08:11:00,
2013-11-23 03:12:00,61.3,59.3,29.96,West,269,0.0,0.0,93,0.00,,,0.01,0.00,VWS V14.01,2013-11-23 08:12:00,
2013-11-23 03:13:00,61.3,59.3,29.96,West,269,0.0,0.0,93,0.00,,,0.01,0.00,VWS V14.01,2013-11-23 08:13:00,
2013-11-23 03:14:00,61.2,59.2,29.96,West,269,0.0,0.0,93,0.00,,,0.01,0.00,VWS V14.01,2013-11-23 08:14:00,
2013-11-23 03:15:00,61.2,59.2,29.96,West,269,0.0,0.0,93,0.00,,,0.01,0.00,VWS V14.01,2013-11-23 08:15:00,
2013-11-23 03:16:00,61.3,59.3,29.96,West,269,0.0,0.0,93,0.00,,,0.01,0.00,VWS V14.01,2013-11-23 08:16:00,
2013-11-23 03:17:00,61.2,59.2,29.96,West,269,0.0,0.0,93,0.00,,,0.01,0.00,VWS V14.01,2013-11-23 08:17:00,
2013-11-23 03:18:00,61.2,59.2,29.96,West,269,0.0,0.0,93,0.00,,,0.01,0.00,VWS V14.01,2013-11-23 08:18:00,
2013-11-23 03:19:00,61.2,59.2,29.96,West,269,0.0,0.0,93,0.00,,,0.01,0.00,VWS V14.01,2013-11-23 08:19:00,
2013-11-23 03:20:00,61.2,59.2,29.96,West,269,0.0,0.0,93,0.00,,,0.01,0.00,VWS V14.01,2013-11-23 08:20:00,
2013-11-23 03:21:00,61.2,59.2,29.96,West,269,0.0,0.0,93,0.00,,,0.01,0.00,VWS V14.01,2013-11-23 08:21:00,
2013-11-23 03:22:00,61.2,59.2,29.96,West,269,0.0,0.0,93,0.00,,,0.01,0.00,VWS V14.01,2013-11-23 08:22:00,
2013-11-23 03:24:00,61.2,59.2,29.96,West,269,0.0,0.0,93,0.00,,,0.01,0.00,VWS V14.01,2013-11-23 08:24:00,
2013-11-23 03:25:00,61.0,59.0,29.96,West,269,0.0,0.0,93,0.00,,,0.01,0.00,VWS V14.01,2013-11-23 08:25:00,
2013-11-23 03:26:00,61.2,59.2,29.96,West,269,0.0,0.0,93,0.00,,,0.01,0.00,VWS V14.01,2013-11-23 08:26:00,
2013-11-23 03:27:00,61.0,59.0,29.96,West,269,0.0,1.0,93,0.00,,,0.01,0.00,VWS V14.01,2013-11-23 08:27:00,
2013-11-23 03:28:00,61.0,59.0,29.96,West,269,3.0,3.0,93,0.00,,,0.01,0.00,VWS V14.01,2013-11-23 08:28:00,
2013-11-23 03:29:00,61.0,59.0,29.96,West,269,0.0,3.0,93,0.00,,,0.01,0.00,VWS V14.01,2013-11-23 08:29:00,
2013-11-23 03:30:00,61.0,59.0,29.95,West,269,0.0,0.0,93,0.00,,,0.01,0.00,VWS V14.01,2013-11-23 08:30:00,
2013-11-23 03:31:00,61.2,59.2,29.96,West,269,0.0,0.0,93,0.00,,,0.01,0.00,VWS V14.01,2013-11-23 08:31:00,
2013-11-23 03:32:00,61.0,59.0,29.95,West,269,0.0,0.0,93,0.00,,,0.01,0.00,VWS V14.01,2013-11-23 08:32:00,
2013-11-23 03:33:00,61.0,59.0,29.95,West,269,0.0,0.0,93,0.00,,,0.01,0.00,VWS V14.01,2013-11-23 08:33:00,
2013-11-23 03:34:00,61.0,59.0,29.95,West,269,0.0,0.0,93,0.00,,,0.01,0.00,VWS V14.01,2013-11-23 08:34:00,
2013-11-23 03:35:00,61.0,59.0,29.95,West,269,0.0,0.0,93,0.00,,,0.01,0.00,VWS V14.01,2013-11-23 08:35:00,
2013-11-23 03:36:00,61.0,59.0,29.95,West,269,0.0,0.0,93,0.00,,,0.01,0.00,VWS V14.01,2013-11-23 08:36:00,
2013-11-23 03:37:00,61.0,59.0,29.95,West,269,0.0,0.0,93,0.00,,,0.01,0.00,VWS V14.01,2013-11-23 08:37:00,
2013-11-23 03:38:00,61.0,59.0,29.95,West,269,0.0,0.0,93,0.00,,,0.01,0.00,VWS V14.01,2013-11-23 08:38:00,
2013-11-23 03:39:00,61.0,59.0,29.95,West,269,0.0,0.0,93,0.00,,,0.01,0.00,VWS V14.01,2013-11-23 08:39:00,
2013-11-23 03:40:00,61.0,59.0,29.95,West,269,0.0,0.0,93,0.00,,,0.01,0.00,VWS V14.01,2013-11-23 08:40:00,
2013-11-23 03:41:00,61.0,59.0,29.95,West,269,0.0,0.0,93,0.00,,,0.01,0.00,VWS V14.01,2013-11-23 08:41:00,
2013-11-23 03:42:00,61.0,59.0,29.95,West,269,0.0,0.0,93,0.00,,,0.01,0.00,VWS V14.01,2013-11-23 08:42:00,
2013-11-23 03:43:00,61.0,59.0,29.95,West,269,0.0,0.0,93,0.00,,,0.01,0.00,VWS V14.01,2013-11-23 08:43:00,
2013-11-23 03:44:00,60.9,58.9,29.95,West,269,0.0,0.0,93,0.00,,,0.01,0.00,VWS V14.01,2013-11-23 08:44:00,
2013-11-23 03:45:00,60.9,59.2,29.95,West,269,0.0,0.0,94,0.00,,,0.01,0.00,VWS V14.01,2013-11-23 08:45:00,
2013-11-23 03:46:00,61.0,59.0,29.95,West,269,0.0,0.0,93,0.00,,,0.01,0.00,VWS V14.01,2013-11-23 08:46:00,
2013-11-23 03:47:00,60.9,59.2,29.95,West,269,0.0,0.0,94,0.00,,,0.01,0.00,VWS V14.01,2013-11-23 08:47:00,
2013-11-23 03:48:00,60.9,59.2,29.95,West,269,0.0,2.0,94,0.00,,,0.01,0.00,VWS V14.01,2013-11-23 08:48:00,
2013-11-23 03:49:00,60.9,59.2,29.95,West,269,0.0,0.0,94,0.00,,,0.01,0.00,VWS V14.01,2013-11-23 08:49:00,
2013-11-23 03:50:00,60.9,59.2,29.95,West,269,0.0,0.0,94,0.00,,,0.01,0.00,VWS V14.01,2013-11-23 08:50:00,
2013-11-23 03:51:00,60.9,58.9,29.95,West,269,0.0,0.0,93,0.00,,,0.01,0.00,VWS V14.01,2013-11-23 08:51:00,
2013-11-23 03:52:00,60.9,59.2,29.95,West,269,0.0,1.0,94,0.00,,,0.01,0.00,VWS V14.01,2013-11-23 08:52:00,
2013-11-23 03:53:00,60.9,59.2,29.95,West,269,2.0,3.0,94,0.00,,,0.01,0.00,VWS V14.01,2013-11-23 08:53:00,
2013-11-23 03:54:00,60.9,59.2,29.95,West,269,0.0,2.0,94,0.00,,,0.01,0.00,VWS V14.01,2013-11-23 08:54:00,
2013-11-23 03:55:00,60.9,59.2,29.95,West,269,0.0,1.0,94,0.00,,,0.01,0.00,VWS V14.01,2013-11-23 08:55:00,
2013-11-23 03:56:00,60.9,59.2,29.95,West,269,0.0,0.0,94,0.00,,,0.01,0.00,VWS V14.01,2013-11-23 08:56:00,
2013-11-23 03:57:00,60.9,59.2,29.95,West,269,0.0,0.0,94,0.00,,,0.01,0.00,VWS V14.01,2013-11-23 08:57:00,
2013-11-23 03:58:00,60.9,59.2,29.95,West,269,0.0,0.0,94,0.00,,,0.01,0.00,VWS V14.01,2013-11-23 08:58:00,
2013-11-23 03:59:00,60.9,59.2,29.95,West,269,2.0,3.0,94,0.00,,,0.01,0.00,VWS V14.01,2013-11-23 08:59:00,
2013-11-23 04:00:00,60.9,59.2,29.95,West,269,0.0,2.0,94,0.00,,,0.01,0.00,VWS V14.01,2013-11-23 09:00:00,
2013-11-23 04:01:00,60.9,59.2,29.95,West,269,0.0,0.0,94,0.00,,,0.01,0.00,VWS V14.01,2013-11-23 09:01:00,
2013-11-23 04:02:00,60.9,59.2,29.95,West,269,0.0,0.0,94,0.00,,,0.01,0.00,VWS V14.01,2013-11-23 09:02:00,
2013-11-23 04:03:00,60.9,59.2,29.95,West,269,0.0,0.0,94,0.00,,,0.01,0.00,VWS V14.01,2013-11-23 09:03:00,
2013-11-23 04:04:00,60.9,59.2,29.95,West,269,0.0,0.0,94,0.00,,,0.01,0.00,VWS V14.01,2013-11-23 09:04:00,
2013-11-23 04:05:00,60.9,59.2,29.95,West,269,0.0,0.0,94,0.00,,,0.01,0.00,VWS V14.01,2013-11-23 09:05:00,
2013-11-23 04:06:00,60.9,59.2,29.95,West,269,2.0,2.0,94,0.00,,,0.01,0.00,VWS V14.01,2013-11-23 09:06:00,
2013-11-23 04:07:00,60.7,59.0,29.95,West,269,0.0,0.0,94,0.00,,,0.01,0.00,VWS V14.01,2013-11-23 09:07:00,
2013-11-23 04:08:00,60.7,59.0,29.95,West,269,0.0,0.0,94,0.00,,,0.01,0.00,VWS V14.01,2013-11-23 09:08:00,
2013-11-23 04:09:00,60.7,59.0,29.95,West,269,0.0,0.0,94,0.00,,,0.01,0.00,VWS V14.01,2013-11-23 09:09:00,
2013-11-23 04:10:00,60.7,59.0,29.95,West,269,0.0,0.0,94,0.00,,,0.01,0.00,VWS V14.01,2013-11-23 09:10:00,
2013-11-23 04:11:00,60.9,59.2,29.95,West,269,0.0,0.0,94,0.00,,,0.01,0.00,VWS V14.01,2013-11-23 09:11:00,
2013-11-23 04:12:00,60.7,59.0,29.95,West,269,0.0,0.0,94,0.00,,,0.01,0.00,VWS V14.01,2013-11-23 09:12:00,
2013-11-23 04:13:00,60.7,59.0,29.95,West,269,0.0,0.0,94,0.00,,,0.01,0.00,VWS V14.01,2013-11-23 09:13:00,
2013-11-23 04:14:00,60.7,59.0,29.95,West,269,2.0,3.0,94,0.00,,,0.01,0.00,VWS V14.01,2013-11-23 09:14:00,
2013-11-23 04:15:00,60.7,59.0,29.96,West,269,0.0,2.0,94,0.00,,,0.01,0.00,VWS V14.01,2013-11-23 09:15:00,
2013-11-23 04:16:00,60.7,59.0,29.95,West,269,0.0,0.0,94,0.00,,,0.01,0.00,VWS V14.01,2013-11-23 09:16:00,
2013-11-23 04:17:00,60.7,59.0,29.96,West,269,0.0,0.0,94,0.00,,,0.01,0.00,VWS V14.01,2013-11-23 09:17:00,
2013-11-23 04:18:00,60.7,59.0,29.96,West,269,0.0,1.0,94,0.00,,,0.01,0.00,VWS V14.01,2013-11-23 09:18:00,
2013-11-23 04:19:00,60.7,59.0,29.96,WNW,285,3.0,4.0,94,0.00,,,0.01,0.00,VWS V14.01,2013-11-23 09:19:00,
2013-11-23 04:20:00,60.7,59.0,29.96,NW,305,2.0,4.0,94,0.00,,,0.01,0.00,VWS V14.01,2013-11-23 09:20:00,
2013-11-23 04:21:00,60.7,59.0,29.95,West,269,2.0,3.0,94,0.00,,,0.01,0.00,VWS V14.01,2013-11-23 09:21:00,
2013-11-23 04:22:00,60.7,59.0,29.96,NW,306,0.0,3.0,94,0.00,,,0.01,0.00,VWS V14.01,2013-11-23 09:22:00,
2013-11-23 04:23:00,60.7,59.0,29.96,NW,306,0.0,2.0,94,0.00,,,0.01,0.00,VWS V14.01,2013-11-23 09:23:00,
2013-11-23 04:24:00,60.7,59.0,29.96,NW,306,0.0,0.0,94,0.00,,,0.01,0.00,VWS V14.01,2013-11-23 09:24:00,
2013-11-23 04:25:00,60.7,59.0,29.96,NW,306,0.0,0.0,94,0.00,,,0.01,0.00,VWS V14.01,2013-11-23 09:25:00,
2013-11-23 04:26:00,60.7,59.0,29.96,WNW,285,3.0,4.0,94,0.00,,,0.01,0.00,VWS V14.01,2013-11-23 09:26:00,
2013-11-23 04:27:00,60.7,59.0,29.96,NW,306,0.0,0.0,94,0.00,,,0.01,0.00,VWS V14.01,2013-11-23 09:27:00,
2013-11-23 04:28:00,60.5,58.8,29.96,NW,306,0.0,1.0,94,0.00,,,0.01,0.00,VWS V14.01,2013-11-23 09:28:00,
2013-11-23 04:29:00,60.5,58.8,29.96,NW,306,2.0,3.0,94,0.00,,,0.01,0.00,VWS V14.01,2013-11-23 09:29:00,
2013-11-23 04:30:00,60.5,58.8,29.96,NW,306,0.0,2.0,94,0.00,,,0.01,0.00,VWS V14.01,2013-11-23 09:30:00,
2013-11-23 04:31:00,60.7,59.0,29.96,NW,306,0.0,0.0,94,0.00,,,0.01,0.00,VWS V14.01,2013-11-23 09:31:00,
2013-11-23 04:32:00,60.5,58.8,29.96,NW,306,0.0,0.0,94,0.00,,,0.01,0.00,VWS V14.01,2013-11-23 09:32:00,
2013-11-23 04:33:00,60.5,58.8,29.96,NW,306,0.0,0.0,94,0.00,,,0.01,0.00,VWS V14.01,2013-11-23 09:33:00,
2013-11-23 04:34:00,60.5,58.8,29.96,NW,306,2.0,2.0,94,0.00,,,0.01,0.00,VWS V14.01,2013-11-23 09:34:00,
2013-11-23 04:35:00,60.5,58.8,29.96,NW,306,0.0,2.0,94,0.00,,,0.01,0.00,VWS V14.01,2013-11-23 09:35:00,
2013-11-23 04:36:00,60.5,58.8,29.96,NW,306,2.0,3.0,94,0.00,,,0.01,0.00,VWS V14.01,2013-11-23 09:36:00,
2013-11-23 04:37:00,60.5,58.8,29.96,NW,306,0.0,0.0,94,0.00,,,0.01,0.00,VWS V14.01,2013-11-23 09:37:00,
2013-11-23 04:38:00,60.5,58.8,29.96,NW,306,0.0,0.0,94,0.00,,,0.01,0.00,VWS V14.01,2013-11-23 09:38:00,
2013-11-23 04:39:00,60.5,58.8,29.96,NW,306,0.0,0.0,94,0.00,,,0.01,0.00,VWS V14.01,2013-11-23 09:39:00,
2013-11-23 04:40:00,60.5,58.8,29.96,NW,306,0.0,0.0,94,0.00,,,0.01,0.00,VWS V14.01,2013-11-23 09:40:00,
2013-11-23 04:41:00,60.5,58.8,29.96,NW,306,2.0,2.0,94,0.00,,,0.01,0.00,VWS V14.01,2013-11-23 09:41:00,
2013-11-23 04:42:00,60.4,58.7,29.96,NW,306,0.0,0.0,94,0.00,,,0.01,0.00,VWS V14.01,2013-11-23 09:42:00,
2013-11-23 04:43:00,60.4,58.7,29.96,NW,306,0.0,0.0,94,0.00,,,0.01,0.00,VWS V14.01,2013-11-23 09:43:00,
2013-11-23 04:44:00,60.4,58.7,29.96,NW,306,0.0,0.0,94,0.00,,,0.01,0.00,VWS V14.01,2013-11-23 09:44:00,
2013-11-23 04:45:00,60.4,58.7,29.96,NW,306,0.0,0.0,94,0.00,,,0.01,0.00,VWS V14.01,2013-11-23 09:45:00,
2013-11-23 04:46:00,60.5,58.8,29.96,NW,306,0.0,0.0,94,0.00,,,0.01,0.00,VWS V14.01,2013-11-23 09:46:00,
2013-11-23 04:47:00,60.4,58.7,29.96,NW,306,0.0,0.0,94,0.00,,,0.01,0.00,VWS V14.01,2013-11-23 09:47:00,
2013-11-23 04:48:00,60.4,58.7,29.96,NW,306,0.0,0.0,94,0.00,,,0.01,0.00,VWS V14.01,2013-11-23 09:48:00,
2013-11-23 04:49:00,60.2,58.5,29.96,NW,306,0.0,0.0,94,0.00,,,0.01,0.00,VWS V14.01,2013-11-23 09:49:00,
2013-11-23 04:50:00,60.2,58.5,29.96,NW,306,0.0,0.0,94,0.00,,,0.01,0.00,VWS V14.01,2013-11-23 09:50:00,
2013-11-23 04:51:00,60.4,58.7,29.96,NW,306,0.0,0.0,94,0.00,,,0.01,0.00,VWS V14.01,2013-11-23 09:51:00,
2013-11-23 04:53:00,60.2,58.5,29.96,NW,306,0.0,0.0,94,0.00,,,0.01,0.00,VWS V14.01,2013-11-23 09:53:00,
2013-11-23 04:54:00,60.1,58.4,29.96,NW,306,0.0,0.0,94,0.00,,,0.01,0.00,VWS V14.01,2013-11-23 09:54:00,
2013-11-23 04:55:00,60.1,58.4,29.96,NW,306,0.0,0.0,94,0.00,,,0.01,0.00,VWS V14.01,2013-11-23 09:55:00,
2013-11-23 04:56:00,60.2,58.5,29.96,NW,306,0.0,0.0,94,0.00,,,0.01,0.00,VWS V14.01,2013-11-23 09:56:00,
2013-11-23 04:57:00,60.1,58.4,29.96,NW,306,0.0,0.0,94,0.00,,,0.01,0.00,VWS V14.01,2013-11-23 09:57:00,
2013-11-23 04:58:00,60.1,58.4,29.96,NW,306,0.0,0.0,94,0.00,,,0.01,0.00,VWS V14.01,2013-11-23 09:58:00,
2013-11-23 04:59:00,59.9,58.2,29.96,NW,306,0.0,0.0,94,0.00,,,0.01,0.00,VWS V14.01,2013-11-23 09:59:00,
2013-11-23 05:00:00,59.9,58.2,29.96,NW,306,0.0,0.0,94,0.00,,,0.01,0.00,VWS V14.01,2013-11-23 10:00:00,
2013-11-23 05:01:00,60.1,58.4,29.96,NW,306,0.0,0.0,94,0.00,,,0.01,0.00,VWS V14.01,2013-11-23 10:01:00,
2013-11-23 05:02:00,59.9,58.2,29.96,NW,306,0.0,0.0,94,0.00,,,0.01,0.00,VWS V14.01,2013-11-23 10:02:00,
2013-11-23 05:03:00,59.9,58.2,29.96,NW,306,0.0,0.0,94,0.00,,,0.01,0.00,VWS V14.01,2013-11-23 10:03:00,
2013-11-23 05:04:00,59.8,58.1,29.96,NW,306,0.0,0.0,94,0.00,,,0.01,0.00,VWS V14.01,2013-11-23 10:04:00,
2013-11-23 05:05:00,59.8,58.1,29.96,NW,306,0.0,0.0,94,0.00,,,0.01,0.00,VWS V14.01,2013-11-23 10:05:00,
2013-11-23 05:06:00,59.9,58.2,29.96,NW,306,0.0,0.0,94,0.00,,,0.01,0.00,VWS V14.01,2013-11-23 10:06:00,
2013-11-23 05:07:00,59.8,58.1,29.96,NW,306,0.0,0.0,94,0.00,,,0.01,0.00,VWS V14.01,2013-11-23 10:07:00,
2013-11-23 05:08:00,59.8,58.1,29.96,NW,306,0.0,0.0,94,0.00,,,0.01,0.00,VWS V14.01,2013-11-23 10:08:00,
2013-11-23 05:09:00,59.8,58.1,29.96,NW,307,0.0,0.0,94,0.00,,,0.01,0.00,VWS V14.01,2013-11-23 10:09:00,
2013-11-23 05:10:00,59.8,58.1,29.96,NW,306,0.0,0.0,94,0.00,,,0.01,0.00,VWS V14.01,2013-11-23 10:10:00,
2013-11-23 05:11:00,59.9,58.2,29.96,NW,306,0.0,0.0,94,0.00,,,0.01,0.00,VWS V14.01,2013-11-23 10:11:00,
2013-11-23 05:12:00,59.8,58.1,29.96,NW,306,0.0,0.0,94,0.00,,,0.01,0.00,VWS V14.01,2013-11-23 10:12:00,
2013-11-23 05:13:00,59.6,57.9,29.96,NW,306,0.0,0.0,94,0.00,,,0.01,0.00,VWS V14.01,2013-11-23 10:13:00,
2013-11-23 05:14:00,59.6,57.9,29.96,NW,306,2.0,3.0,94,0.00,,,0.01,0.00,VWS V14.01,2013-11-23 10:14:00,
2013-11-23 05:15:00,59.6,57.9,29.96,NW,306,0.0,2.0,94,0.00,,,0.01,0.00,VWS V14.01,2013-11-23 10:15:00,
2013-11-23 05:16:00,59.8,58.1,29.96,NW,306,0.0,0.0,94,0.00,,,0.01,0.00,VWS V14.01,2013-11-23 10:16:00,
2013-11-23 05:17:00,59.5,57.8,29.96,NW,306,0.0,0.0,94,0.00,,,0.01,0.00,VWS V14.01,2013-11-23 10:17:00,
2013-11-23 05:18:00,59.5,57.8,29.96,NW,306,0.0,0.0,94,0.00,,,0.01,0.00,VWS V14.01,2013-11-23 10:18:00,
2013-11-23 05:19:00,59.5,57.8,29.96,NW,306,0.0,0.0,94,0.00,,,0.01,0.00,VWS V14.01,2013-11-23 10:19:00,
2013-11-23 05:20:00,59.3,57.6,29.96,NW,306,0.0,0.0,94,0.00,,,0.01,0.00,VWS V14.01,2013-11-23 10:20:00,
2013-11-23 05:21:00,59.6,57.9,29.96,NW,306,1.0,3.0,94,0.00,,,0.01,0.00,VWS V14.01,2013-11-23 10:21:00,
2013-11-23 05:22:00,59.3,57.6,29.96,NW,306,1.0,2.0,94,0.00,,,0.01,0.00,VWS V14.01,2013-11-23 10:22:00,
2013-11-23 05:23:00,59.3,57.6,29.96,NW,306,0.0,1.0,94,0.00,,,0.01,0.00,VWS V14.01,2013-11-23 10:23:00,
2013-11-23 05:24:00,59.2,57.5,29.96,NW,306,1.0,2.0,94,0.00,,,0.01,0.00,VWS V14.01,2013-11-23 10:24:00,
2013-11-23 05:25:00,59.2,57.5,29.96,NW,306,0.0,1.0,94,0.00,,,0.01,0.00,VWS V14.01,2013-11-23 10:25:00,
2013-11-23 05:26:00,59.5,57.8,29.96,NW,306,0.0,0.0,94,0.00,,,0.01,0.00,VWS V14.01,2013-11-23 10:26:00,
2013-11-23 05:27:00,59.0,57.3,29.96,NW,306,0.0,0.0,94,0.00,,,0.01,0.00,VWS V14.01,2013-11-23 10:27:00,
2013-11-23 05:28:00,59.0,57.3,29.96,NW,306,0.0,0.0,94,0.00,,,0.01,0.00,VWS V14.01,2013-11-23 10:28:00,
2013-11-23 05:29:00,58.9,57.2,29.96,NW,306,1.0,1.0,94,0.00,,,0.01,0.00,VWS V14.01,2013-11-23 10:29:00,
2013-11-23 05:30:00,58.9,57.2,29.96,NW,315,1.0,3.0,94,0.00,,,0.01,0.00,VWS V14.01,2013-11-23 10:30:00,
2013-11-23 05:31:00,59.2,57.5,29.96,NW,306,2.0,2.0,94,0.00,,,0.01,0.00,VWS V14.01,2013-11-23 10:31:00,
2013-11-23 05:32:00,58.9,57.2,29.96,NW,315,1.0,2.0,94,0.00,,,0.01,0.00,VWS V14.01,2013-11-23 10:32:00,
2013-11-23 05:34:00,58.7,57.0,29.96,NW,306,0.0,1.0,94,0.00,,,0.01,0.00,VWS V14.01,2013-11-23 10:34:00,
2013-11-23 05:35:00,58.7,57.0,29.96,NW,306,0.0,0.0,94,0.00,,,0.01,0.00,VWS V14.01,2013-11-23 10:35:00,
2013-11-23 05:36:00,59.0,57.3,29.96,NW,306,0.0,0.0,94,0.00,,,0.01,0.00,VWS V14.01,2013-11-23 10:36:00,
2013-11-23 05:37:00,58.7,57.0,29.96,NW,306,0.0,0.0,94,0.00,,,0.01,0.00,VWS V14.01,2013-11-23 10:37:00,
2013-11-23 05:38:00,58.6,56.9,29.96,NW,306,0.0,0.0,94,0.00,,,0.01,0.00,VWS V14.01,2013-11-23 10:38:00,
2013-11-23 05:39:00,58.6,56.9,29.96,NW,306,0.0,0.0,94,0.00,,,0.01,0.00,VWS V14.01,2013-11-23 10:39:00,
2013-11-23 05:40:00,58.4,56.7,29.96,NW,306,0.0,0.0,94,0.00,,,0.01,0.00,VWS V14.01,2013-11-23 10:40:00,
2013-11-23 05:41:00,58.9,57.2,29.96,NW,315,1.0,2.0,94,0.00,,,0.01,0.00,VWS V14.01,2013-11-23 10:41:00,
2013-11-23 05:42:00,58.4,56.7,29.96,NW,306,0.0,0.0,94,0.00,,,0.01,0.00,VWS V14.01,2013-11-23 10:42:00,
2013-11-23 05:43:00,58.3,56.6,29.96,NW,306,0.0,0.0,94,0.00,,,0.01,0.00,VWS V14.01,2013-11-23 10:43:00,
2013-11-23 05:44:00,58.3,56.6,29.96,NW,306,0.0,0.0,94,0.00,,,0.01,0.00,VWS V14.01,2013-11-23 10:44:00,
2013-11-23 05:45:00,58.3,56.6,29.97,NW,306,0.0,0.0,94,0.00,,,0.01,0.00,VWS V14.01,2013-11-23 10:45:00,
2013-11-23 05:46:00,58.6,56.9,29.96,NW,306,0.0,0.0,94,0.00,,,0.01,0.00,VWS V14.01,2013-11-23 10:46:00,
2013-11-23 05:47:00,58.1,56.4,29.97,NW,306,0.0,0.0,94,0.00,,,0.01,0.00,VWS V14.01,2013-11-23 10:47:00,
2013-11-23 05:48:00,58.1,56.4,29.97,NW,306,0.0,0.0,94,0.00,,,0.01,0.00,VWS V14.01,2013-11-23 10:48:00,
2013-11-23 05:49:00,58.0,56.3,29.97,NW,306,0.0,0.0,94,0.00,,,0.01,0.00,VWS V14.01,2013-11-23 10:49:00,
2013-11-23 05:50:00,58.0,56.3,29.97,NW,306,0.0,0.0,94,0.00,,,0.01,0.00,VWS V14.01,2013-11-23 10:50:00,
2013-11-23 05:51:00,58.3,56.6,29.97,NW,306,0.0,0.0,94,0.00,,,0.01,0.00,VWS V14.01,2013-11-23 10:51:00,
2013-11-23 05:52:00,57.8,56.1,29.97,NW,306,0.0,0.0,94,0.00,,,0.01,0.00,VWS V14.01,2013-11-23 10:52:00,
2013-11-23 05:53:00,57.8,56.1,29.97,NW,306,0.0,0.0,94,0.00,,,0.01,0.00,VWS V14.01,2013-11-23 10:53:00,
2013-11-23 05:54:00,57.6,55.9,29.97,NW,306,0.0,0.0,94,0.00,,,0.01,0.00,VWS V14.01,2013-11-23 10:54:00,
2013-11-23 05:55:00,57.6,55.9,29.97,NW,306,0.0,0.0,94,0.00,,,0.01,0.00,VWS V14.01,2013-11-23 10:55:00,
2013-11-23 05:56:00,58.0,56.3,29.97,NW,306,0.0,0.0,94,0.00,,,0.01,0.00,VWS V14.01,2013-11-23 10:56:00,
2013-11-23 05:57:00,57.5,55.8,29.97,NW,306,0.0,0.0,94,0.00,,,0.01,0.00,VWS V14.01,2013-11-23 10:57:00,
2013-11-23 05:58:00,57.3,55.6,29.97,NW,306,0.0,0.0,94,0.00,,,0.01,0.00,VWS V14.01,2013-11-23 10:58:00,
2013-11-23 05:59:00,57.3,55.6,29.97,NW,306,0.0,0.0,94,0.00,,,0.01,0.00,VWS V14.01,2013-11-23 10:59:00,
2013-11-23 06:00:00,57.2,55.5,29.96,NW,306,0.0,0.0,94,0.00,,,0.01,0.00,VWS V14.01,2013-11-23 11:00:00,
2013-11-23 06:01:00,57.6,55.9,29.97,NW,306,0.0,0.0,94,0.00,,,0.01,0.00,VWS V14.01,2013-11-23 11:01:00,
2013-11-23 06:02:00,57.2,55.5,29.96,NW,307,0.0,0.0,94,0.00,,,0.01,0.00,VWS V14.01,2013-11-23 11:02:00,
2013-11-23 06:03:00,57.0,55.3,29.96,NW,306,0.0,0.0,94,0.00,,,0.01,0.00,VWS V14.01,2013-11-23 11:03:00,
2013-11-23 06:04:00,57.0,55.3,29.96,NW,306,0.0,0.0,94,0.00,,,0.01,0.00,VWS V14.01,2013-11-23 11:04:00,
2013-11-23 06:05:00,57.0,55.3,29.96,NW,306,0.0,0.0,94,0.00,,,0.01,0.00,VWS V14.01,2013-11-23 11:05:00,
2013-11-23 06:06:00,57.3,55.6,29.96,NW,306,0.0,0.0,94,0.00,,,0.01,0.00,VWS V14.01,2013-11-23 11:06:00,
2013-11-23 06:07:00,56.9,55.2,29.96,NW,306,0.0,2.0,94,0.00,,,0.01,0.00,VWS V14.01,2013-11-23 11:07:00,
2013-11-23 06:08:00,56.9,55.2,29.96,NW,306,0.0,0.0,94,0.00,,,0.01,0.00,VWS V14.01,2013-11-23 11:08:00,
2013-11-23 06:09:00,56.9,55.2,29.96,NW,306,0.0,0.0,94,0.00,,,0.01,0.00,VWS V14.01,2013-11-23 11:09:00,
2013-11-23 06:10:00,56.7,55.0,29.96,NW,306,0.0,0.0,94,0.00,,,0.01,0.00,VWS V14.01,2013-11-23 11:10:00,
2013-11-23 06:11:00,57.0,55.3,29.96,NW,306,0.0,0.0,94,0.00,,,0.01,0.00,VWS V14.01,2013-11-23 11:11:00,
2013-11-23 06:12:00,56.7,55.0,29.96,NW,306,0.0,0.0,94,0.00,,,0.01,0.00,VWS V14.01,2013-11-23 11:12:00,
2013-11-23 06:13:00,56.7,55.0,29.96,NW,306,0.0,0.0,94,0.00,,,0.01,0.00,VWS V14.01,2013-11-23 11:13:00,
2013-11-23 06:14:00,56.6,54.9,29.96,NW,306,0.0,0.0,94,0.00,,,0.01,0.00,VWS V14.01,2013-11-23 11:14:00,
2013-11-23 06:15:00,56.6,54.9,29.97,NW,306,0.0,0.0,94,0.00,,,0.01,0.00,VWS V14.01,2013-11-23 11:15:00,
2013-11-23 06:16:00,56.9,55.2,29.96,NW,307,0.0,0.0,94,0.00,,,0.01,0.00,VWS V14.01,2013-11-23 11:16:00,
2013-11-23 06:17:00,56.6,54.9,29.97,NW,306,0.0,3.0,94,0.00,,,0.01,0.00,VWS V14.01,2013-11-23 11:17:00,
2013-11-23 06:18:00,56.6,54.9,29.97,NW,306,0.0,0.0,94,0.00,,,0.01,0.00,VWS V14.01,2013-11-23 11:18:00,
2013-11-23 06:19:00,56.5,54.8,29.97,NW,306,0.0,1.0,94,0.00,,,0.01,0.00,VWS V14.01,2013-11-23 11:19:00,
2013-11-23 06:20:00,56.5,54.8,29.97,NNW,336,2.0,3.0,94,0.00,,,0.01,0.00,VWS V14.01,2013-11-23 11:20:00,
2013-11-23 06:21:00,56.6,54.9,29.97,NW,306,0.0,0.0,94,0.00,,,0.01,0.00,VWS V14.01,2013-11-23 11:21:00,
2013-11-23 06:22:00,56.6,54.9,29.97,NNW,340,1.0,1.0,94,0.00,,,0.01,0.00,VWS V14.01,2013-11-23 11:22:00,
2013-11-23 06:23:00,56.6,54.9,29.97,NNE,20,0.0,4.0,94,0.00,,,0.01,0.00,VWS V14.01,2013-11-23 11:23:00,
2013-11-23 06:24:00,56.6,54.9,29.97,NNE,20,3.0,3.0,94,0.00,,,0.01,0.00,VWS V14.01,2013-11-23 11:24:00,
2013-11-23 06:25:00,56.6,54.9,29.97,NNW,335,1.0,4.0,94,0.00,,,0.01,0.00,VWS V14.01,2013-11-23 11:25:00,
2013-11-23 06:26:00,56.5,54.8,29.97,NW,306,0.0,0.0,94,0.00,,,0.01,0.00,VWS V14.01,2013-11-23 11:26:00,
2013-11-23 06:27:00,56.7,55.3,29.97,North,0,4.0,7.0,95,0.01,,,0.02,0.00,VWS V14.01,2013-11-23 11:27:00,
2013-11-23 06:28:00,56.9,55.5,29.97,North,10,3.0,4.0,95,0.01,,,0.02,0.00,VWS V14.01,2013-11-23 11:28:00,
2013-11-23 06:29:00,56.9,55.5,29.97,North,10,2.0,5.0,95,0.01,,,0.02,0.00,VWS V14.01,2013-11-23 11:29:00,
2013-11-23 06:30:00,56.9,55.5,29.98,North,11,4.0,5.0,95,0.01,,,0.02,0.00,VWS V14.01,2013-11-23 11:30:00,
2013-11-23 06:31:00,56.6,54.9,29.97,North,10,4.0,4.0,94,0.00,,,0.01,0.00,VWS V14.01,2013-11-23 11:31:00,
2013-11-23 06:32:00,56.9,55.2,29.98,North,0,0.0,3.0,94,0.01,,,0.02,0.00,VWS V14.01,2013-11-23 11:32:00,
2013-11-23 06:33:00,56.9,55.2,29.98,North,0,0.0,0.0,94,0.01,,,0.02,0.00,VWS V14.01,2013-11-23 11:33:00,
2013-11-23 06:34:00,56.9,55.2,29.98,North,0,0.0,4.0,94,0.01,,,0.02,0.00,VWS V14.01,2013-11-23 11:34:00,
2013-11-23 06:35:00,56.7,55.0,29.98,NNE,18,5.0,5.0,94,0.01,,,0.02,0.00,VWS V14.01,2013-11-23 11:35:00,
2013-11-23 06:36:00,56.9,55.5,29.98,North,10,1.0,2.0,95,0.01,,,0.02,0.00,VWS V14.01,2013-11-23 11:36:00,
2013-11-23 06:37:00,56.7,55.0,29.98,North,4,3.0,4.0,94,0.01,,,0.02,0.00,VWS V14.01,2013-11-23 11:37:00,
2013-11-23 06:38:00,56.7,55.0,29.98,North,4,3.0,4.0,94,0.01,,,0.02,0.00,VWS V14.01,2013-11-23 11:38:00,
2013-11-23 06:39:00,56.6,54.9,29.98,North,5,1.0,4.0,94,0.01,,,0.02,0.00,VWS V14.01,2013-11-23 11:39:00,
2013-11-23 06:40:00,56.6,54.9,29.98,North,11,0.0,4.0,94,0.01,,,0.02,0.00,VWS V14.01,2013-11-23 11:40:00,
2013-11-23 06:41:00,56.9,55.2,29.98,North,0,0.0,0.0,94,0.01,,,0.02,0.00,VWS V14.01,2013-11-23 11:41:00,
2013-11-23 06:42:00,56.5,54.8,29.98,North,11,0.0,3.0,94,0.01,,,0.02,0.00,VWS V14.01,2013-11-23 11:42:00,
2013-11-23 06:43:00,56.5,54.8,29.98,North,11,0.0,0.0,94,0.01,,,0.02,0.00,VWS V14.01,2013-11-23 11:43:00,
2013-11-23 06:44:00,56.5,54.8,29.98,North,11,0.0,0.0,94,0.01,,,0.02,0.00,VWS V14.01,2013-11-23 11:44:00,
2013-11-23 06:45:00,56.3,54.6,29.98,North,11,0.0,3.0,94,0.01,,,0.02,0.00,VWS V14.01,2013-11-23 11:45:00,
2013-11-23 06:46:00,56.6,54.9,29.98,North,6,0.0,1.0,94,0.01,,,0.02,0.00,VWS V14.01,2013-11-23 11:46:00,
2013-11-23 06:47:00,56.3,54.6,29.98,North,11,0.0,0.0,94,0.01,,,0.02,0.00,VWS V14.01,2013-11-23 11:47:00,
2013-11-23 06:48:00,56.2,54.5,29.98,North,11,0.0,0.0,94,0.01,,,0.02,0.00,VWS V14.01,2013-11-23 11:48:00,
2013-11-23 06:49:00,56.2,54.5,29.98,North,11,0.0,0.0,94,0.01,,,0.02,0.00,VWS V14.01,2013-11-23 11:49:00,
2013-11-23 06:50:00,56.2,54.5,29.98,North,11,0.0,0.0,94,0.01,,,0.02,0.00,VWS V14.01,2013-11-23 11:50:00,
2013-11-23 06:51:00,56.5,54.8,29.98,North,11,3.0,3.0,94,0.01,,,0.02,0.00,VWS V14.01,2013-11-23 11:51:00,
2013-11-23 06:52:00,56.0,54.3,29.98,North,11,0.0,0.0,94,0.01,,,0.02,0.00,VWS V14.01,2013-11-23 11:52:00,
2013-11-23 06:53:00,56.0,54.3,29.98,North,11,0.0,0.0,94,0.01,,,0.02,0.00,VWS V14.01,2013-11-23 11:53:00,
2013-11-23 06:54:00,56.0,54.3,29.98,North,11,0.0,0.0,94,0.01,,,0.02,0.00,VWS V14.01,2013-11-23 11:54:00,
2013-11-23 06:55:00,55.9,54.2,29.98,North,11,0.0,0.0,94,0.01,,,0.02,0.00,VWS V14.01,2013-11-23 11:55:00,
2013-11-23 06:56:00,56.2,54.5,29.98,North,11,0.0,0.0,94,0.01,,,0.02,0.00,VWS V14.01,2013-11-23 11:56:00,
2013-11-23 06:57:00,55.9,53.9,29.98,North,11,0.0,0.0,93,0.01,,,0.02,5.00,VWS V14.01,2013-11-23 11:57:00,
2013-11-23 06:58:00,55.7,53.7,29.98,North,11,0.0,0.0,93,0.01,,,0.02,5.00,VWS V14.01,2013-11-23 11:58:00,
2013-11-23 06:59:00,55.7,53.7,29.98,North,11,0.0,0.0,93,0.01,,,0.02,5.00,VWS V14.01,2013-11-23 11:59:00,
2013-11-23 07:00:00,55.6,53.6,29.99,North,11,0.0,0.0,93,0.01,,,0.02,5.00,VWS V14.01,2013-11-23 12:00:00,
2013-11-23 07:01:00,56.0,54.3,29.98,North,11,0.0,0.0,94,0.01,,,0.02,0.00,VWS V14.01,2013-11-23 12:01:00,
2013-11-23 07:02:00,55.6,53.6,29.99,North,11,0.0,0.0,93,0.01,,,0.02,5.00,VWS V14.01,2013-11-23 12:02:00,
2013-11-23 07:03:00,55.4,53.4,29.99,North,11,0.0,0.0,93,0.01,,,0.02,7.00,VWS V14.01,2013-11-23 12:03:00,
2013-11-23 07:04:00,55.4,53.4,29.99,North,11,0.0,0.0,93,0.01,,,0.02,7.00,VWS V14.01,2013-11-23 12:04:00,
2013-11-23 07:05:00,55.3,53.3,29.99,North,11,0.0,1.0,93,0.01,,,0.02,7.00,VWS V14.01,2013-11-23 12:05:00,
2013-11-23 07:06:00,55.7,53.7,29.99,North,11,0.0,0.0,93,0.01,,,0.02,5.00,VWS V14.01,2013-11-23 12:06:00,
2013-11-23 07:07:00,55.3,53.3,29.99,North,11,0.0,0.0,93,0.01,,,0.02,7.00,VWS V14.01,2013-11-23 12:07:00,
2013-11-23 07:08:00,55.3,53.3,29.99,North,11,0.0,0.0,93,0.01,,,0.02,7.00,VWS V14.01,2013-11-23 12:08:00,
2013-11-23 07:09:00,55.1,53.1,29.99,North,11,0.0,0.0,93,0.01,,,0.02,9.00,VWS V14.01,2013-11-23 12:09:00,
2013-11-23 07:10:00,55.1,53.4,29.99,North,1,5.0,5.0,94,0.01,,,0.02,9.00,VWS V14.01,2013-11-23 12:10:00,
2013-11-23 07:11:00,55.4,53.4,29.99,North,11,0.0,0.0,93,0.01,,,0.02,7.00,VWS V14.01,2013-11-23 12:11:00,
2013-11-23 07:12:00,55.1,53.4,29.99,North,4,3.0,4.0,94,0.01,,,0.02,9.00,VWS V14.01,2013-11-23 12:12:00,
2013-11-23 07:13:00,55.3,53.6,29.99,WNW,298,7.0,9.0,94,0.01,,,0.02,9.00,VWS V14.01,2013-11-23 12:13:00,
2013-11-23 07:14:00,55.3,53.6,29.99,NNW,345,7.0,8.0,94,0.01,,,0.02,9.00,VWS V14.01,2013-11-23 12:14:00,
2013-11-23 07:15:00,55.1,53.1,29.99,NNE,28,3.0,7.0,93,0.01,,,0.02,11.00,VWS V14.01,2013-11-23 12:15:00,
2013-11-23 07:16:00,55.1,53.1,29.99,North,11,2.0,2.0,93,0.01,,,0.02,9.00,VWS V14.01,2013-11-23 12:16:00,
2013-11-23 07:17:00,55.1,53.1,29.99,North,0,3.0,3.0,93,0.01,,,0.02,11.00,VWS V14.01,2013-11-23 12:17:00,
2013-11-23 07:18:00,55.1,53.1,29.99,North,0,0.0,3.0,93,0.01,,,0.02,12.00,VWS V14.01,2013-11-23 12:18:00,
2013-11-23 07:19:00,55.1,53.1,29.99,North,0,0.0,10.0,93,0.01,,,0.02,12.00,VWS V14.01,2013-11-23 12:19:00,
2013-11-23 07:20:00,55.0,53.0,29.99,North,358,3.0,10.0,93,0.01,,,0.02,12.00,VWS V14.01,2013-11-23 12:20:00,
2013-11-23 07:21:00,55.3,53.6,29.99,NW,326,5.0,7.0,94,0.01,,,0.02,11.00,VWS V14.01,2013-11-23 12:21:00,
2013-11-23 07:22:00,55.0,53.0,29.99,NW,307,0.0,5.0,93,0.01,,,0.02,12.00,VWS V14.01,2013-11-23 12:22:00,
2013-11-23 07:23:00,55.0,53.0,29.99,North,11,7.0,10.0,93,0.01,,,0.02,12.00,VWS V14.01,2013-11-23 12:23:00,
2013-11-23 07:24:00,54.8,52.5,29.99,NNE,15,2.0,7.0,92,0.01,,,0.02,14.00,VWS V14.01,2013-11-23 12:24:00,
2013-11-23 07:25:00,54.8,52.5,29.99,North,354,0.0,5.0,92,0.01,,,0.02,14.00,VWS V14.01,2013-11-23 12:25:00,
2013-11-23 07:26:00,55.1,53.1,29.99,North,0,0.0,0.0,93,0.01,,,0.02,12.00,VWS V14.01,2013-11-23 12:26:00,
2013-11-23 07:27:00,54.7,52.4,29.99,NNW,343,6.0,6.0,92,0.01,,,0.02,18.00,VWS V14.01,2013-11-23 12:27:00,
2013-11-23 07:28:00,54.7,52.4,29.99,North,358,0.0,6.0,92,0.00,,,0.02,19.00,VWS V14.01,2013-11-23 12:28:00,
2013-11-23 07:29:00,54.7,52.1,29.99,NNW,333,5.0,5.0,91,0.00,,,0.02,19.00,VWS V14.01,2013-11-23 12:29:00,
2013-11-23 07:30:00,54.7,52.1,30.00,NW,325,0.0,5.0,91,0.00,,,0.02,21.00,VWS V14.01,2013-11-23 12:30:00,
2013-11-23 07:31:00,54.8,52.5,29.99,NNE,15,2.0,7.0,92,0.01,,,0.02,14.00,VWS V14.01,2013-11-23 12:31:00,
2013-11-23 07:32:00,54.7,51.8,30.00,North,358,4.0,6.0,90,0.00,,,0.02,21.00,VWS V14.01,2013-11-23 12:32:00,
2013-11-23 07:33:00,54.5,51.6,30.00,NNE,29,9.0,9.0,90,0.00,,,0.02,19.00,VWS V14.01,2013-11-23 12:33:00,
2013-11-23 07:34:00,54.5,51.3,30.00,North,358,2.0,9.0,89,0.00,,,0.02,19.00,VWS V14.01,2013-11-23 12:34:00,
2013-11-23 07:35:00,54.5,51.3,30.00,NNW,340,1.0,4.0,89,0.00,,,0.02,19.00,VWS V14.01,2013-11-23 12:35:00,
2013-11-23 07:36:00,54.7,52.1,30.00,NW,326,3.0,5.0,91,0.00,,,0.02,19.00,VWS V14.01,2013-11-23 12:36:00,
2013-11-23 07:37:00,54.5,51.0,30.00,NNE,20,0.0,3.0,88,0.00,,,0.02,21.00,VWS V14.01,2013-11-23 12:37:00,
2013-11-23 07:38:00,54.5,51.0,30.00,North,358,2.0,4.0,88,0.00,,,0.02,21.00,VWS V14.01,2013-11-23 12:38:00,
2013-11-23 07:39:00,54.5,51.0,30.00,North,358,0.0,2.0,88,0.00,,,0.02,21.00,VWS V14.01,2013-11-23 12:39:00,
2013-11-23 07:40:00,54.5,51.0,30.00,North,358,0.0,0.0,88,0.00,,,0.02,21.00,VWS V14.01,2013-11-23 12:40:00,
2013-11-23 07:41:00,54.5,51.3,30.00,North,358,3.0,3.0,89,0.00,,,0.02,19.00,VWS V14.01,2013-11-23 12:41:00,
2013-11-23 07:42:00,54.5,50.7,30.00,NW,319,0.0,4.0,87,0.00,,,0.02,23.00,VWS V14.01,2013-11-23 12:42:00,
2013-11-23 07:44:00,54.7,50.9,30.00,NW,323,2.0,3.0,87,0.00,,,0.02,25.00,VWS V14.01,2013-11-23 12:44:00,
2013-11-23 07:45:00,54.7,50.6,30.01,NW,323,0.0,2.0,86,0.00,,,0.02,25.00,VWS V14.01,2013-11-23 12:45:00,
2013-11-23 07:46:00,54.5,51.0,30.00,North,358,0.0,0.0,88,0.00,,,0.02,21.00,VWS V14.01,2013-11-23 12:46:00,
2013-11-23 07:47:00,54.7,50.6,30.01,North,358,0.0,0.0,86,0.00,,,0.02,25.00,VWS V14.01,2013-11-23 12:47:00,
2013-11-23 07:48:00,54.7,50.6,30.01,North,358,0.0,2.0,86,0.00,,,0.02,25.00,VWS V14.01,2013-11-23 12:48:00,
2013-11-23 07:49:00,54.7,50.6,30.01,North,358,0.0,0.0,86,0.00,,,0.02,26.00,VWS V14.01,2013-11-23 12:49:00,
2013-11-23 07:50:00,54.7,50.6,30.01,North,358,0.0,0.0,86,0.00,,,0.02,25.00,VWS V14.01,2013-11-23 12:50:00,
2013-11-23 07:51:00,54.7,50.9,30.01,NW,323,2.0,2.0,87,0.00,,,0.02,25.00,VWS V14.01,2013-11-23 12:51:00,
2013-11-23 07:52:00,54.8,50.7,30.01,NW,310,0.0,3.0,86,0.00,,,0.02,28.00,VWS V14.01,2013-11-23 12:52:00,
2013-11-23 07:53:00,54.8,50.7,30.01,NW,311,0.0,3.0,86,0.00,,,0.02,28.00,VWS V14.01,2013-11-23 12:53:00,
2013-11-23 07:54:00,54.8,50.7,30.01,NNE,13,5.0,5.0,86,0.00,,,0.02,30.00,VWS V14.01,2013-11-23 12:54:00,
2013-11-23 07:55:00,54.8,50.4,30.01,North,1,0.0,5.0,85,0.00,,,0.02,32.00,VWS V14.01,2013-11-23 12:55:00,
2013-11-23 07:56:00,54.7,50.6,30.01,North,358,0.0,0.0,86,0.00,,,0.02,26.00,VWS V14.01,2013-11-23 12:56:00,
2013-11-23 07:57:00,54.8,50.4,30.01,NNE,13,0.0,1.0,85,0.00,,,0.02,33.00,VWS V14.01,2013-11-23 12:57:00,
2013-11-23 07:58:00,54.8,50.4,30.01,NNE,16,0.0,4.0,85,0.00,,,0.02,37.00,VWS V14.01,2013-11-23 12:58:00,
2013-11-23 07:59:00,54.8,50.1,30.01,North,6,0.0,1.0,84,0.00,,,0.02,42.00,VWS V14.01,2013-11-23 12:59:00,
2013-11-23 08:00:00,55.0,50.3,30.01,North,8,0.0,0.0,84,0.00,,,0.02,53.00,VWS V14.01,2013-11-23 13:00:00,
2013-11-23 08:01:00,54.8,50.4,30.01,North,1,2.0,5.0,85,0.00,,,0.02,32.00,VWS V14.01,2013-11-23 13:01:00,
2013-11-23 08:02:00,55.0,50.3,30.01,North,5,2.0,3.0,84,0.00,,,0.02,76.00,VWS V14.01,2013-11-23 13:02:00,
2013-11-23 08:03:00,55.1,50.4,30.01,North,4,4.0,4.0,84,0.00,,,0.02,76.00,VWS V14.01,2013-11-23 13:03:00,
2013-11-23 08:04:00,55.1,50.4,30.01,NNW,347,0.0,4.0,84,0.00,,,0.02,107.00,VWS V14.01,2013-11-23 13:04:00,
2013-11-23 08:05:00,55.1,50.0,30.01,NNW,347,0.0,0.0,83,0.00,,,0.02,95.00,VWS V14.01,2013-11-23 13:05:00,
2013-11-23 08:06:00,54.8,50.1,30.01,North,8,0.0,0.0,84,0.00,,,0.02,42.00,VWS V14.01,2013-11-23 13:06:00,
2013-11-23 08:07:00,55.3,49.9,30.01,NNW,338,4.0,5.0,82,0.00,,,0.02,144.00,VWS V14.01,2013-11-23 13:07:00,
2013-11-23 08:08:00,55.4,50.0,30.01,NNW,332,1.0,5.0,82,0.00,,,0.02,214.00,VWS V14.01,2013-11-23 13:08:00,
2013-11-23 08:09:00,55.6,49.9,30.01,North,357,2.0,10.0,81,0.00,,,0.02,250.00,VWS V14.01,2013-11-23 13:09:00,
2013-11-23 08:10:00,55.6,49.5,30.01,North,357,0.0,2.0,80,0.00,,,0.02,250.00,VWS V14.01,2013-11-23 13:10:00,
2013-11-23 08:11:00,55.1,50.4,30.01,NNW,347,0.0,0.0,84,0.00,,,0.02,107.00,VWS V14.01,2013-11-23 13:11:00,
2013-11-23 08:12:00,55.7,49.6,30.01,North,0,3.0,3.0,80,0.00,,,0.02,97.00,VWS V14.01,2013-11-23 13:12:00,
2013-11-23 08:13:00,55.9,49.8,30.01,NW,316,4.0,4.0,80,0.00,,,0.02,105.00,VWS V14.01,2013-11-23 13:13:00,
2013-11-23 08:14:00,55.9,49.5,30.01,North,2,5.0,6.0,79,0.00,,,0.02,167.00,VWS V14.01,2013-11-23 13:14:00,
2013-11-23 08:15:00,56.0,49.6,30.01,North,358,5.0,5.0,79,0.00,,,0.02,195.00,VWS V14.01,2013-11-23 13:15:00,
2013-11-23 08:16:00,55.6,49.9,30.01,North,357,0.0,2.0,81,0.00,,,0.02,250.00,VWS V14.01,2013-11-23 13:16:00,
2013-11-23 08:17:00,56.0,50.9,30.01,NNW,348,5.0,6.0,83,0.00,,,0.02,204.00,VWS V14.01,2013-11-23 13:17:00,
2013-11-23 08:18:00,56.0,48.5,30.01,NNE,28,10.0,10.0,76,0.00,,,0.02,223.00,VWS V14.01,2013-11-23 13:18:00,
2013-11-23 08:19:00,56.2,48.8,30.01,North,4,8.0,10.0,76,0.00,,,0.02,181.00,VWS V14.01,2013-11-23 13:19:00,
2013-11-23 08:20:00,56.2,48.4,30.01,North,358,5.0,9.0,75,0.00,,,0.02,151.00,VWS V14.01,2013-11-23 13:20:00,
2013-11-23 08:21:00,55.9,49.5,30.01,North,3,2.0,5.0,79,0.00,,,0.02,167.00,VWS V14.01,2013-11-23 13:21:00,
2013-11-23 08:22:00,56.3,48.5,30.01,NNE,18,0.0,2.0,75,0.00,,,0.02,200.00,VWS V14.01,2013-11-23 13:22:00,
2013-11-23 08:23:00,56.3,48.5,30.01,North,358,0.0,0.0,75,0.00,,,0.02,188.00,VWS V14.01,2013-11-23 13:23:00,
2013-11-23 08:24:00,56.5,48.7,30.01,NNW,333,0.0,4.0,75,0.00,,,0.02,174.00,VWS V14.01,2013-11-23 13:24:00,
2013-11-23 08:25:00,56.5,48.3,30.01,North,353,0.0,5.0,74,0.00,,,0.02,134.00,VWS V14.01,2013-11-23 13:25:00,
2013-11-23 08:26:00,56.2,48.8,30.01,North,8,8.0,8.0,76,0.00,,,0.02,167.00,VWS V14.01,2013-11-23 13:26:00,
2013-11-23 08:27:00,56.6,48.4,30.01,NNW,335,5.0,11.0,74,0.00,,,0.02,113.00,VWS V14.01,2013-11-23 13:27:00,
2013-11-23 08:28:00,56.6,48.4,30.01,NW,313,2.0,6.0,74,0.00,,,0.02,91.00,VWS V14.01,2013-11-23 13:28:00,
2013-11-23 08:29:00,56.6,48.1,30.01,NNW,343,7.0,16.0,73,0.00,,,0.02,69.00,VWS V14.01,2013-11-23 13:29:00,
2013-11-23 08:30:00,56.6,47.7,30.01,North,3,2.0,16.0,72,0.00,,,0.02,54.00,VWS V14.01,2013-11-23 13:30:00,
2013-11-23 08:31:00,56.5,48.7,30.01,North,0,4.0,4.0,75,0.00,,,0.02,148.00,VWS V14.01,2013-11-23 13:31:00,
2013-11-23 08:32:00,56.6,47.7,30.01,North,0,4.0,8.0,72,0.00,,,0.02,44.00,VWS V14.01,2013-11-23 13:32:00,
2013-11-23 08:33:00,56.6,47.7,30.01,North,0,0.0,7.0,72,0.00,,,0.02,44.00,VWS V14.01,2013-11-23 13:33:00,
2013-11-23 08:34:00,56.6,47.7,30.01,North,1,12.0,12.0,72,0.00,,,0.02,44.00,VWS V14.01,2013-11-23 13:34:00,
2013-11-23 08:35:00,56.6,47.7,30.01,North,0,4.0,14.0,72,0.00,,,0.02,49.00,VWS V14.01,2013-11-23 13:35:00,
2013-11-23 08:36:00,56.6,48.1,30.01,NNW,346,14.0,14.0,73,0.00,,,0.02,69.00,VWS V14.01,2013-11-23 13:36:00,
2013-11-23 08:37:00,56.5,47.6,30.01,NE,37,4.0,5.0,72,0.00,,,0.02,54.00,VWS V14.01,2013-11-23 13:37:00,
2013-11-23 08:38:00,56.5,47.2,30.01,NNE,30,4.0,5.0,71,0.00,,,0.02,53.00,VWS V14.01,2013-11-23 13:38:00,
2013-11-23 08:39:00,56.5,47.2,30.01,North,352,8.0,8.0,71,0.00,,,0.02,49.00,VWS V14.01,2013-11-23 13:39:00,
2013-11-23 08:40:00,56.3,46.7,30.01,North,3,5.0,10.0,70,0.00,,,0.02,49.00,VWS V14.01,2013-11-23 13:40:00,
2013-11-23 08:41:00,56.6,47.7,30.01,North,0,11.0,12.0,72,0.00,,,0.02,44.00,VWS V14.01,2013-11-23 13:41:00,
2013-11-23 08:42:00,56.3,46.7,30.01,North,1,5.0,5.0,70,0.00,,,0.02,63.00,VWS V14.01,2013-11-23 13:42:00,
2013-11-23 08:43:00,56.3,46.7,30.01,North,352,7.0,8.0,70,0.00,,,0.02,72.00,VWS V14.01,2013-11-23 13:43:00,
2013-11-23 08:44:00,56.3,46.7,30.01,North,0,3.0,7.0,70,0.00,,,0.02,74.00,VWS V14.01,2013-11-23 13:44:00,
2013-11-23 08:45:00,56.3,46.3,30.01,North,1,3.0,3.0,69,0.00,,,0.02,77.00,VWS V14.01,2013-11-23 13:45:00,
2013-11-23 08:46:00,56.5,47.2,30.01,North,0,10.0,10.0,71,0.00,,,0.02,49.00,VWS V14.01,2013-11-23 13:46:00,
2013-11-23 08:47:00,56.3,46.3,30.01,NW,319,0.0,7.0,69,0.00,,,0.02,79.00,VWS V14.01,2013-11-23 13:47:00,
2013-11-23 08:48:00,56.3,46.3,30.01,North,356,1.0,5.0,69,0.00,,,0.02,79.00,VWS V14.01,2013-11-23 13:48:00,
2013-11-23 08:49:00,56.5,46.5,30.01,North,356,0.0,1.0,69,0.00,,,0.02,83.00,VWS V14.01,2013-11-23 13:49:00,
2013-11-23 08:50:00,56.5,46.8,30.01,North,356,0.0,0.0,70,0.00,,,0.02,81.00,VWS V14.01,2013-11-23 13:50:00,
2013-11-23 08:51:00,56.3,46.7,30.01,North,11,3.0,3.0,70,0.00,,,0.02,74.00,VWS V14.01,2013-11-23 13:51:00,
2013-11-23 08:52:00,56.5,46.8,30.01,North,9,0.0,6.0,70,0.00,,,0.02,79.00,VWS V14.01,2013-11-23 13:52:00,
2013-11-23 08:53:00,56.5,46.8,30.01,North,0,8.0,12.0,70,0.00,,,0.02,81.00,VWS V14.01,2013-11-23 13:53:00,
2013-11-23 08:54:00,56.5,46.5,30.01,North,356,3.0,8.0,69,0.00,,,0.02,90.00,VWS V14.01,2013-11-23 13:54:00,
2013-11-23 08:55:00,56.5,46.5,30.01,North,5,3.0,7.0,69,0.00,,,0.02,90.00,VWS V14.01,2013-11-23 13:55:00,
2013-11-23 08:56:00,56.5,46.5,30.01,North,356,0.0,0.0,69,0.00,,,0.02,83.00,VWS V14.01,2013-11-23 13:56:00,
2013-11-23 08:57:00,56.5,46.5,30.01,North,4,0.0,4.0,69,0.00,,,0.02,84.00,VWS V14.01,2013-11-23 13:57:00,
2013-11-23 08:58:00,56.5,46.5,30.01,North,7,4.0,9.0,69,0.00,,,0.02,84.00,VWS V14.01,2013-11-23 13:58:00,
2013-11-23 08:59:00,56.5,46.5,30.01,NW,307,4.0,6.0,69,0.00,,,0.02,90.00,VWS V14.01,2013-11-23 13:59:00,
2013-11-23 09:00:00,56.5,46.1,30.02,North,0,7.0,9.0,68,0.00,,,0.02,97.00,VWS V14.01,2013-11-23 14:00:00,
2013-11-23 09:01:00,56.5,46.5,30.01,North,356,4.0,4.0,69,0.00,,,0.02,90.00,VWS V14.01,2013-11-23 14:01:00,
2013-11-23 09:02:00,56.6,46.6,30.02,North,9,4.0,10.0,69,0.00,,,0.02,128.00,VWS V14.01,2013-11-23 14:02:00,
2013-11-23 09:03:00,56.6,46.6,30.02,North,0,1.0,5.0,69,0.00,,,0.02,137.00,VWS V14.01,2013-11-23 14:03:00,
2013-11-23 09:04:00,56.6,46.2,30.02,North,352,0.0,1.0,68,0.00,,,0.02,144.00,VWS V14.01,2013-11-23 14:04:00,
2013-11-23 09:05:00,56.6,46.2,30.02,North,358,0.0,0.0,68,0.00,,,0.02,146.00,VWS V14.01,2013-11-23 14:05:00,
2013-11-23 09:06:00,56.5,46.5,30.02,NW,307,0.0,4.0,69,0.00,,,0.02,97.00,VWS V14.01,2013-11-23 14:06:00,
2013-11-23 09:07:00,56.7,46.3,30.02,North,358,5.0,9.0,68,0.00,,,0.02,144.00,VWS V14.01,2013-11-23 14:07:00,
2013-11-23 09:08:00,56.7,46.3,30.02,North,1,5.0,5.0,68,0.00,,,0.02,135.00,VWS V14.01,2013-11-23 14:08:00,
2013-11-23 09:09:00,56.7,46.3,30.02,NNE,21,1.0,5.0,68,0.00,,,0.02,125.00,VWS V14.01,2013-11-23 14:09:00,
2013-11-23 09:10:00,56.9,46.5,30.02,North,1,4.0,5.0,68,0.00,,,0.02,118.00,VWS V14.01,2013-11-23 14:10:00,
2013-11-23 09:11:00,56.6,46.2,30.02,North,352,0.0,0.0,68,0.00,,,0.02,144.00,VWS V14.01,2013-11-23 14:11:00,
2013-11-23 09:12:00,56.9,46.5,30.02,North,352,0.0,5.0,68,0.00,,,0.02,130.00,VWS V14.01,2013-11-23 14:12:00,
2013-11-23 09:13:00,56.9,46.5,30.02,North,352,2.0,2.0,68,0.00,,,0.02,141.00,VWS V14.01,2013-11-23 14:13:00,
2013-11-23 09:14:00,57.0,46.6,30.02,North,356,5.0,9.0,68,0.00,,,0.02,148.00,VWS V14.01,2013-11-23 14:14:00,
2013-11-23 09:15:00,57.0,46.2,30.02,North,354,2.0,9.0,67,0.00,,,0.02,146.00,VWS V14.01,2013-11-23 14:15:00,
2013-11-23 09:16:00,56.7,46.3,30.02,NNE,21,0.0,1.0,68,0.00,,,0.02,125.00,VWS V14.01,2013-11-23 14:16:00,
2013-11-23 09:17:00,57.0,46.2,30.02,NNE,15,7.0,10.0,67,0.00,,,0.02,135.00,VWS V14.01,2013-11-23 14:17:00,
2013-11-23 09:18:00,57.0,46.2,30.02,NNE,18,2.0,7.0,67,0.00,,,0.02,125.00,VWS V14.01,2013-11-23 14:18:00,
2013-11-23 09:19:00,57.2,46.0,30.02,North,10,5.0,12.0,66,0.00,,,0.02,123.00,VWS V14.01,2013-11-23 14:19:00,
2013-11-23 09:20:00,57.2,46.0,30.02,NNE,21,4.0,7.0,66,0.00,,,0.02,120.00,VWS V14.01,2013-11-23 14:20:00,
2013-11-23 09:21:00,57.0,46.6,30.02,North,0,5.0,5.0,68,0.00,,,0.02,148.00,VWS V14.01,2013-11-23 14:21:00,
2013-11-23 09:22:00,57.2,46.0,30.02,NW,317,7.0,9.0,66,0.00,,,0.02,116.00,VWS V14.01,2013-11-23 14:22:00,
2013-11-23 09:23:00,57.2,45.6,30.02,North,1,6.0,9.0,65,0.00,,,0.02,118.00,VWS V14.01,2013-11-23 14:23:00,
2013-11-23 09:24:00,57.2,45.6,30.02,North,354,5.0,10.0,65,0.00,,,0.02,120.00,VWS V14.01,2013-11-23 14:24:00,
2013-11-23 09:25:00,57.2,45.6,30.02,North,0,13.0,13.0,65,0.00,,,0.02,120.00,VWS V14.01,2013-11-23 14:25:00,
2013-11-23 09:26:00,57.2,46.0,30.02,NNE,13,3.0,5.0,66,0.00,,,0.02,123.00,VWS V14.01,2013-11-23 14:26:00,
2013-11-23 09:27:00,57.3,45.2,30.02,NNW,345,3.0,6.0,64,0.00,,,0.02,123.00,VWS V14.01,2013-11-23 14:27:00,
2013-11-23 09:28:00,57.3,45.2,30.02,North,0,4.0,7.0,64,0.00,,,0.02,125.00,VWS V14.01,2013-11-23 14:28:00,
2013-11-23 09:29:00,57.3,45.2,30.02,North,11,0.0,5.0,64,0.00,,,0.02,120.00,VWS V14.01,2013-11-23 14:29:00,
2013-11-23 09:30:00,57.3,45.2,30.03,North,1,0.0,0.0,64,0.00,,,0.02,118.00,VWS V14.01,2013-11-23 14:30:00,
2013-11-23 09:31:00,57.2,45.6,30.02,North,0,8.0,8.0,65,0.00,,,0.02,120.00,VWS V14.01,2013-11-23 14:31:00,
2013-11-23 09:32:00,57.3,45.7,30.03,North,354,0.0,0.0,65,0.00,,,0.02,125.00,VWS V14.01,2013-11-23 14:32:00,
2013-11-23 09:33:00,57.5,45.8,30.03,NW,307,6.0,6.0,65,0.00,,,0.02,127.00,VWS V14.01,2013-11-23 14:33:00,
2013-11-23 09:34:00,57.5,45.8,30.03,NNW,342,1.0,6.0,65,0.00,,,0.02,130.00,VWS V14.01,2013-11-23 14:34:00,
2013-11-23 09:35:00,57.5,45.8,30.03,North,350,0.0,1.0,65,0.00,,,0.02,128.00,VWS V14.01,2013-11-23 14:35:00,
2013-11-23 09:36:00,57.3,45.2,30.03,North,0,0.0,0.0,64,0.00,,,0.02,114.00,VWS V14.01,2013-11-23 14:36:00,
2013-11-23 09:37:00,57.5,45.4,30.03,NNW,340,12.0,12.0,64,0.00,,,0.02,123.00,VWS V14.01,2013-11-23 14:37:00,
2013-11-23 09:38:00,57.5,45.4,30.03,NW,326,4.0,12.0,64,0.00,,,0.02,116.00,VWS V14.01,2013-11-23 14:38:00,
2013-11-23 09:39:00,57.5,45.4,30.03,North,1,12.0,12.0,64,0.00,,,0.02,109.00,VWS V14.01,2013-11-23 14:39:00,
2013-11-23 09:40:00,57.5,45.4,30.03,NNW,332,0.0,12.0,64,0.00,,,0.02,104.00,VWS V14.01,2013-11-23 14:40:00,
2013-11-23 09:41:00,57.5,45.8,30.03,NNW,343,0.0,1.0,65,0.00,,,0.02,130.00,VWS V14.01,2013-11-23 14:41:00,
2013-11-23 09:42:00,57.5,45.4,30.03,North,356,11.0,12.0,64,0.00,,,0.02,100.00,VWS V14.01,2013-11-23 14:42:00,
2013-11-23 09:43:00,57.5,45.0,30.03,North,4,4.0,11.0,63,0.00,,,0.02,102.00,VWS V14.01,2013-11-23 14:43:00,
2013-11-23 09:44:00,57.5,45.0,30.03,North,5,1.0,4.0,63,0.00,,,0.02,102.00,VWS V14.01,2013-11-23 14:44:00,
2013-11-23 09:45:00,57.5,45.0,30.04,North,8,1.0,7.0,63,0.00,,,0.02,104.00,VWS V14.01,2013-11-23 14:45:00,
2013-11-23 09:46:00,57.5,45.4,30.03,WNW,300,8.0,12.0,64,0.00,,,0.02,109.00,VWS V14.01,2013-11-23 14:46:00,
2013-11-23 09:47:00,57.5,45.0,30.04,North,4,0.0,4.0,63,0.00,,,0.02,105.00,VWS V14.01,2013-11-23 14:47:00,
2013-11-23 09:48:00,57.6,45.1,30.04,North,354,0.0,1.0,63,0.00,,,0.02,107.00,VWS V14.01,2013-11-23 14:48:00,
2013-11-23 09:49:00,57.6,45.5,30.04,NNE,18,11.0,11.0,64,0.00,,,0.02,111.00,VWS V14.01,2013-11-23 14:49:00,
2013-11-23 09:50:00,57.6,45.5,30.04,NW,314,4.0,11.0,64,0.00,,,0.02,113.00,VWS V14.01,2013-11-23 14:50:00,
2013-11-23 09:51:00,57.5,45.0,30.04,North,5,1.0,1.0,63,0.00,,,0.02,102.00,VWS V14.01,2013-11-23 14:51:00,
2013-11-23 09:52:00,57.6,45.5,30.04,NNE,21,6.0,6.0,64,0.00,,,0.02,118.00,VWS V14.01,2013-11-23 14:52:00,
2013-11-23 09:53:00,57.6,45.5,30.04,North,0,0.0,6.0,64,0.00,,,0.02,123.00,VWS V14.01,2013-11-23 14:53:00,
2013-11-23 09:54:00,57.6,45.5,30.04,North,0,0.0,0.0,64,0.00,,,0.02,127.00,VWS V14.01,2013-11-23 14:54:00,
2013-11-23 09:55:00,57.6,45.5,30.04,North,0,0.0,0.0,64,0.00,,,0.02,130.00,VWS V14.01,2013-11-23 14:55:00,
2013-11-23 09:56:00,57.6,45.5,30.04,NNE,18,11.0,11.0,64,0.00,,,0.02,111.00,VWS V14.01,2013-11-23 14:56:00,
2013-11-23 09:57:00,57.6,45.5,30.04,North,6,6.0,9.0,64,0.00,,,0.02,132.00,VWS V14.01,2013-11-23 14:57:00,
2013-11-23 09:58:00,57.6,45.5,30.04,North,354,2.0,9.0,64,0.00,,,0.02,130.00,VWS V14.01,2013-11-23 14:58:00,
2013-11-23 09:59:00,57.8,45.3,30.04,North,354,1.0,2.0,63,0.00,,,0.02,130.00,VWS V14.01,2013-11-23 14:59:00,
2013-11-23 10:00:00,57.8,45.7,30.03,North,354,0.0,1.0,64,0.00,,,0.02,134.00,VWS V14.01,2013-11-23 15:00:00,
2013-11-23 10:01:00,57.6,45.5,30.04,North,0,0.0,0.0,64,0.00,,,0.02,127.00,VWS V14.01,2013-11-23 15:01:00,
2013-11-23 10:02:00,57.8,45.7,30.03,NNE,28,0.0,5.0,64,0.00,,,0.02,135.00,VWS V14.01,2013-11-23 15:02:00,
2013-11-23 10:03:00,57.8,45.3,30.03,North,11,9.0,9.0,63,0.00,,,0.02,146.00,VWS V14.01,2013-11-23 15:03:00,
2013-11-23 10:04:00,57.8,45.3,30.03,NW,316,0.0,9.0,63,0.00,,,0.02,160.00,VWS V14.01,2013-11-23 15:04:00,
2013-11-23 10:05:00,58.0,45.5,30.03,North,8,4.0,6.0,63,0.00,,,0.02,179.00,VWS V14.01,2013-11-23 15:05:00,
2013-11-23 10:06:00,57.8,45.3,30.03,North,354,0.0,1.0,63,0.00,,,0.02,130.00,VWS V14.01,2013-11-23 15:06:00,
2013-11-23 10:07:00,58.0,45.5,30.03,WNW,302,6.0,10.0,63,0.00,,,0.02,190.00,VWS V14.01,2013-11-23 15:07:00,
2013-11-23 10:08:00,58.0,45.5,30.03,NNE,17,4.0,7.0,63,0.00,,,0.02,188.00,VWS V14.01,2013-11-23 15:08:00,
2013-11-23 10:09:00,58.0,45.5,30.03,North,0,4.0,10.0,63,0.00,,,0.02,185.00,VWS V14.01,2013-11-23 15:09:00,
2013-11-23 10:10:00,58.0,45.1,30.03,NNE,18,1.0,7.0,62,0.00,,,0.02,185.00,VWS V14.01,2013-11-23 15:10:00,
2013-11-23 10:11:00,57.8,45.3,30.03,NW,316,0.0,0.0,63,0.00,,,0.02,171.00,VWS V14.01,2013-11-23 15:11:00,
2013-11-23 10:13:00,58.1,45.6,30.03,NNE,22,5.0,5.0,63,0.00,,,0.02,183.00,VWS V14.01,2013-11-23 15:13:00,
2013-11-23 10:14:00,58.1,45.6,30.03,North,0,5.0,7.0,63,0.00,,,0.02,183.00,VWS V14.01,2013-11-23 15:14:00,
2013-11-23 10:16:00,58.0,45.1,30.03,North,0,4.0,4.0,62,0.00,,,0.02,185.00,VWS V14.01,2013-11-23 15:16:00,
2013-11-23 10:17:00,58.3,45.3,30.02,NNE,18,0.0,4.0,62,0.00,,,0.02,167.00,VWS V14.01,2013-11-23 15:17:00,
2013-11-23 10:19:00,58.4,45.5,30.02,North,0,0.0,0.0,62,0.00,,,0.02,172.00,VWS V14.01,2013-11-23 15:19:00,
2013-11-23 10:20:00,58.4,45.9,30.02,North,0,0.0,0.0,63,0.00,,,0.02,176.00,VWS V14.01,2013-11-23 15:20:00,
2013-11-23 10:21:00,58.1,45.6,30.02,NW,319,7.0,7.0,63,0.00,,,0.02,183.00,VWS V14.01,2013-11-23 15:21:00,
2013-11-23 10:22:00,58.4,45.0,30.02,NNE,29,0.0,10.0,61,0.00,,,0.02,167.00,VWS V14.01,2013-11-23 15:22:00,
2013-11-23 10:23:00,58.6,45.2,30.02,North,0,6.0,6.0,61,0.00,,,0.02,171.00,VWS V14.01,2013-11-23 15:23:00,
2013-11-23 10:24:00,58.6,45.2,30.02,NNW,346,4.0,7.0,61,0.00,,,0.02,167.00,VWS V14.01,2013-11-23 15:24:00,
2013-11-23 10:25:00,58.6,45.2,30.02,NNW,342,1.0,5.0,61,0.00,,,0.02,163.00,VWS V14.01,2013-11-23 15:25:00,
2013-11-23 10:26:00,58.4,45.5,30.02,North,0,0.0,0.0,62,0.00,,,0.02,172.00,VWS V14.01,2013-11-23 15:26:00,
2013-11-23 10:28:00,58.6,45.2,30.02,ENE,67,3.0,5.0,61,0.00,,,0.02,156.00,VWS V14.01,2013-11-23 15:28:00,
2013-11-23 10:29:00,58.6,45.2,30.02,NNE,32,7.0,7.0,61,0.00,,,0.02,156.00,VWS V14.01,2013-11-23 15:29:00,
2013-11-23 10:30:00,58.7,45.3,30.02,NNE,22,4.0,10.0,61,0.00,,,0.02,162.00,VWS V14.01,2013-11-23 15:30:00,
2013-11-23 10:31:00,58.6,45.2,30.02,NNW,346,3.0,4.0,61,0.00,,,0.02,167.00,VWS V14.01,2013-11-23 15:31:00,
2013-11-23 10:32:00,58.7,44.9,30.02,NNE,15,6.0,8.0,60,0.00,,,0.02,169.00,VWS V14.01,2013-11-23 15:32:00,
2013-11-23 10:33:00,58.7,44.9,30.02,North,11,0.0,6.0,60,0.00,,,0.02,155.00,VWS V14.01,2013-11-23 15:33:00,
2013-11-23 10:34:00,58.7,44.9,30.02,NNE,20,0.0,0.0,60,0.00,,,0.02,128.00,VWS V14.01,2013-11-23 15:34:00,
2013-11-23 10:35:00,58.7,45.3,30.02,NNE,25,4.0,4.0,61,0.00,,,0.02,128.00,VWS V14.01,2013-11-23 15:35:00,
2013-11-23 10:36:00,58.6,45.2,30.02,NNE,32,7.0,7.0,61,0.00,,,0.02,156.00,VWS V14.01,2013-11-23 15:36:00,
2013-11-23 10:37:00,58.7,44.9,30.02,ENE,60,4.0,6.0,60,0.00,,,0.02,121.00,VWS V14.01,2013-11-23 15:37:00,
2013-11-23 10:38:00,58.7,44.9,30.02,NE,44,4.0,6.0,60,0.00,,,0.02,118.00,VWS V14.01,2013-11-23 15:38:00,
2013-11-23 10:39:00,58.7,44.9,30.02,NE,49,5.0,7.0,60,0.00,,,0.02,118.00,VWS V14.01,2013-11-23 15:39:00,
2013-11-23 10:40:00,58.7,44.4,30.02,NNE,30,2.0,6.0,59,0.00,,,0.02,116.00,VWS V14.01,2013-11-23 15:40:00,
2013-11-23 10:41:00,58.7,44.9,30.02,NNE,20,0.0,0.0,60,0.00,,,0.02,128.00,VWS V14.01,2013-11-23 15:41:00,
2013-11-23 10:42:00,58.7,44.4,30.02,North,4,4.0,7.0,59,0.00,,,0.02,109.00,VWS V14.01,2013-11-23 15:42:00,
2013-11-23 10:43:00,58.7,44.9,30.02,NNE,15,6.0,10.0,60,0.00,,,0.02,107.00,VWS V14.01,2013-11-23 15:43:00,
2013-11-23 10:44:00,58.7,44.4,30.02,North,2,4.0,10.0,59,0.00,,,0.02,107.00,VWS V14.01,2013-11-23 15:44:00,
2013-11-23 10:45:00,58.6,44.3,30.02,NNW,330,0.0,7.0,59,0.00,,,0.02,105.00,VWS V14.01,2013-11-23 15:45:00,
2013-11-23 10:46:00,58.7,44.9,30.02,NE,38,3.0,5.0,60,0.00,,,0.02,118.00,VWS V14.01,2013-11-23 15:46:00,
2013-11-23 10:47:00,58.6,44.3,30.02,North,11,6.0,10.0,59,0.00,,,0.02,114.00,VWS V14.01,2013-11-23 15:47:00,
2013-11-23 10:48:00,58.6,44.3,30.02,NNE,12,4.0,6.0,59,0.00,,,0.02,120.00,VWS V14.01,2013-11-23 15:48:00,
2013-11-23 10:49:00,58.6,43.9,30.02,North,7,0.0,4.0,58,0.00,,,0.02,123.00,VWS V14.01,2013-11-23 15:49:00,
2013-11-23 10:50:00,58.6,44.3,30.02,North,4,2.0,4.0,59,0.00,,,0.02,118.00,VWS V14.01,2013-11-23 15:50:00,
2013-11-23 10:51:00,58.7,44.4,30.02,North,352,7.0,7.0,59,0.00,,,0.02,107.00,VWS V14.01,2013-11-23 15:51:00,
2013-11-23 10:52:00,58.6,44.3,30.02,North,358,0.0,3.0,59,0.00,,,0.02,97.00,VWS V14.01,2013-11-23 15:52:00,
2013-11-23 10:53:00,58.6,44.3,30.02,NE,47,5.0,6.0,59,0.00,,,0.02,97.00,VWS V14.01,2013-11-23 15:53:00,
2013-11-23 10:54:00,58.6,44.3,30.02,North,4,5.0,10.0,59,0.00,,,0.02,100.00,VWS V14.01,2013-11-23 15:54:00,
2013-11-23 10:55:00,58.6,43.9,30.02,NE,47,3.0,6.0,58,0.00,,,0.02,111.00,VWS V14.01,2013-11-23 15:55:00,
2013-11-23 10:56:00,58.6,43.9,30.02,North,6,0.0,0.0,58,0.00,,,0.02,123.00,VWS V14.01,2013-11-23 15:56:00,
2013-11-23 10:57:00,58.4,43.2,30.02,NE,52,5.0,6.0,57,0.00,,,0.02,128.00,VWS V14.01,2013-11-23 15:57:00,
2013-11-23 10:58:00,58.4,43.2,30.02,NNE,17,3.0,5.0,57,0.00,,,0.02,125.00,VWS V14.01,2013-11-23 15:58:00,
2013-11-23 10:59:00,58.4,43.7,30.02,North,0,1.0,3.0,58,0.00,,,0.02,118.00,VWS V14.01,2013-11-23 15:59:00,
2013-11-23 11:00:00,58.4,43.7,30.02,North,2,0.0,6.0,58,0.00,,,0.02,114.00,VWS V14.01,2013-11-23 16:00:00,
2013-11-23 11:01:00,58.6,44.3,30.02,North,4,5.0,10.0,59,0.00,,,0.02,100.00,VWS V14.01,2013-11-23 16:01:00,
2013-11-23 11:02:00,58.4,44.1,30.02,NE,37,8.0,8.0,59,0.00,,,0.02,130.00,VWS V14.01,2013-11-23 16:02:00,
2013-11-23 11:03:00,58.4,43.7,30.02,NNE,25,0.0,8.0,58,0.00,,,0.02,139.00,VWS V14.01,2013-11-23 16:03:00,
2013-11-23 11:04:00,58.6,43.9,30.02,North,0,1.0,4.0,58,0.00,,,0.02,134.00,VWS V14.01,2013-11-23 16:04:00,
2013-11-23 11:05:00,58.6,43.9,30.02,North,0,0.0,3.0,58,0.00,,,0.02,114.00,VWS V14.01,2013-11-23 16:05:00,
2013-11-23 11:06:00,58.4,43.7,30.02,North,357,5.0,5.0,58,0.00,,,0.02,118.00,VWS V14.01,2013-11-23 16:06:00,
2013-11-23 11:07:00,58.6,43.9,30.02,North,0,5.0,8.0,58,0.00,,,0.02,118.00,VWS V14.01,2013-11-23 16:07:00,
2013-11-23 11:08:00,58.6,43.9,30.02,NNW,335,0.0,5.0,58,0.00,,,0.02,142.00,VWS V14.01,2013-11-23 16:08:00,
2013-11-23 11:09:00,58.6,43.9,30.02,NNE,13,0.0,4.0,58,0.00,,,0.02,135.00,VWS V14.01,2013-11-23 16:09:00,
2013-11-23 11:10:00,58.6,43.9,30.02,NNE,31,0.0,8.0,58,0.00,,,0.02,130.00,VWS V14.01,2013-11-23 16:10:00,
2013-11-23 11:11:00,58.6,43.9,30.02,North,0,1.0,4.0,58,0.00,,,0.02,134.00,VWS V14.01,2013-11-23 16:11:00,
2013-11-23 11:12:00,58.6,43.9,30.02,NE,55,0.0,4.0,58,0.00,,,0.02,153.00,VWS V14.01,2013-11-23 16:12:00,
2013-11-23 11:13:00,58.6,43.9,30.02,ENE,65,0.0,2.0,58,0.00,,,0.02,156.00,VWS V14.01,2013-11-23 16:13:00,
2013-11-23 11:14:00,58.7,44.0,30.02,ENE,65,0.0,0.0,58,0.00,,,0.02,156.00,VWS V14.01,2013-11-23 16:14:00,
2013-11-23 11:15:00,58.7,44.0,30.01,North,0,3.0,6.0,58,0.00,,,0.02,174.00,VWS V14.01,2013-11-23 16:15:00,
2013-11-23 11:16:00,58.6,43.9,30.02,NNE,20,5.0,5.0,58,0.00,,,0.02,135.00,VWS V14.01,2013-11-23 16:16:00,
2013-11-23 11:17:00,58.7,44.0,30.01,North,0,3.0,6.0,58,0.00,,,0.02,190.00,VWS V14.01,2013-11-23 16:17:00,
2013-11-23 11:18:00,58.7,44.0,30.01,North,0,0.0,4.0,58,0.00,,,0.02,176.00,VWS V14.01,2013-11-23 16:18:00,
2013-11-23 11:19:00,58.7,43.5,30.01,East,80,0.0,1.0,57,0.00,,,0.02,165.00,VWS V14.01,2013-11-23 16:19:00,
2013-11-23 11:20:00,58.7,43.5,30.01,ENE,74,0.0,0.0,57,0.00,,,0.02,165.00,VWS V14.01,2013-11-23 16:20:00,
2013-11-23 11:21:00,58.7,44.0,30.02,ENE,65,0.0,0.0,58,0.00,,,0.02,156.00,VWS V14.01,2013-11-23 16:21:00,
2013-11-23 11:22:00,58.9,44.2,30.01,NE,36,5.0,5.0,58,0.00,,,0.02,199.00,VWS V14.01,2013-11-23 16:22:00,
2013-11-23 11:23:00,58.9,43.7,30.01,NNE,29,0.0,5.0,57,0.00,,,0.02,200.00,VWS V14.01,2013-11-23 16:23:00,
2013-11-23 11:24:00,59.0,44.3,30.01,NNE,30,0.0,0.0,58,0.00,,,0.02,188.00,VWS V14.01,2013-11-23 16:24:00,
2013-11-23 11:25:00,59.0,43.8,30.01,NE,53,5.0,6.0,57,0.00,,,0.02,162.00,VWS V14.01,2013-11-23 16:25:00,
2013-11-23 11:26:00,58.7,43.5,30.01,East,80,0.0,0.0,57,0.00,,,0.02,165.00,VWS V14.01,2013-11-23 16:26:00,
2013-11-23 11:27:00,59.0,43.8,30.01,NNE,30,0.0,4.0,57,0.00,,,0.02,121.00,VWS V14.01,2013-11-23 16:27:00,
2013-11-23 11:28:00,59.0,43.8,30.01,NE,40,2.0,6.0,57,0.00,,,0.02,113.00,VWS V14.01,2013-11-23 16:28:00,
2013-11-23 11:29:00,59.0,43.8,30.01,NNW,345,1.0,5.0,57,0.00,,,0.02,100.00,VWS V14.01,2013-11-23 16:29:00,
2013-11-23 11:30:00,59.0,43.8,30.00,North,0,2.0,5.0,57,0.00,,,0.02,93.00,VWS V14.01,2013-11-23 16:30:00,
2013-11-23 11:31:00,59.0,44.3,30.01,NNE,30,0.0,0.0,58,0.00,,,0.02,188.00,VWS V14.01,2013-11-23 16:31:00,
2013-11-23 11:32:00,59.2,44.0,30.00,NNE,25,3.0,3.0,57,0.00,,,0.02,83.00,VWS V14.01,2013-11-23 16:32:00,
2013-11-23 11:33:00,59.0,44.3,30.00,North,352,6.0,6.0,58,0.00,,,0.02,81.00,VWS V14.01,2013-11-23 16:33:00,
2013-11-23 11:34:00,59.0,43.8,30.00,NNE,23,3.0,6.0,57,0.00,,,0.02,81.00,VWS V14.01,2013-11-23 16:34:00,
2013-11-23 11:35:00,59.0,43.8,30.00,NE,34,1.0,3.0,57,0.00,,,0.02,77.00,VWS V14.01,2013-11-23 16:35:00,
2013-11-23 11:36:00,59.0,43.8,30.01,NNW,345,1.0,5.0,57,0.00,,,0.02,100.00,VWS V14.01,2013-11-23 16:36:00,
2013-11-23 11:37:00,59.0,43.8,30.00,North,358,0.0,0.0,57,0.00,,,0.02,70.00,VWS V14.01,2013-11-23 16:37:00,
2013-11-23 11:38:00,59.0,43.8,30.00,North,358,0.0,0.0,57,0.00,,,0.02,83.00,VWS V14.01,2013-11-23 16:38:00,
2013-11-23 11:39:00,58.9,43.7,30.00,North,358,0.0,0.0,57,0.00,,,0.02,83.00,VWS V14.01,2013-11-23 16:39:00,
2013-11-23 11:40:00,58.9,43.7,30.00,North,358,1.0,3.0,57,0.00,,,0.02,102.00,VWS V14.01,2013-11-23 16:40:00,
2013-11-23 11:41:00,59.0,43.8,30.00,NNE,20,4.0,6.0,57,0.00,,,0.02,81.00,VWS V14.01,2013-11-23 16:41:00,
2013-11-23 11:42:00,58.9,43.7,30.00,North,358,0.0,0.0,57,0.00,,,0.02,128.00,VWS V14.01,2013-11-23 16:42:00,
2013-11-23 11:43:00,58.9,44.2,30.00,North,358,0.0,4.0,58,0.00,,,0.02,132.00,VWS V14.01,2013-11-23 16:43:00,
2013-11-23 11:44:00,58.9,43.7,30.00,North,0,0.0,1.0,57,0.00,,,0.02,137.00,VWS V14.01,2013-11-23 16:44:00,
2013-11-23 11:45:00,58.9,44.2,29.99,North,0,4.0,4.0,58,0.00,,,0.02,135.00,VWS V14.01,2013-11-23 16:45:00,
2013-11-23 11:46:00,58.9,43.7,30.00,North,358,0.0,0.0,57,0.00,,,0.02,83.00,VWS V14.01,2013-11-23 16:46:00,
2013-11-23 11:47:00,58.9,43.7,29.99,North,0,0.0,1.0,57,0.00,,,0.02,125.00,VWS V14.01,2013-11-23 16:47:00,
2013-11-23 11:48:00,58.9,44.2,29.99,North,0,0.0,0.0,58,0.00,,,0.02,123.00,VWS V14.01,2013-11-23 16:48:00,
2013-11-23 11:49:00,58.9,44.2,29.99,North,6,4.0,4.0,58,0.00,,,0.02,123.00,VWS V14.01,2013-11-23 16:49:00,
2013-11-23 11:50:00,58.9,44.2,29.99,North,8,0.0,4.0,58,0.00,,,0.02,114.00,VWS V14.01,2013-11-23 16:50:00,
2013-11-23 11:51:00,58.9,43.7,30.00,North,0,0.0,1.0,57,0.00,,,0.02,135.00,VWS V14.01,2013-11-23 16:51:00,
2013-11-23 11:52:00,58.9,44.2,29.99,North,358,0.0,3.0,58,0.00,,,0.02,97.00,VWS V14.01,2013-11-23 16:52:00,
2013-11-23 11:53:00,58.9,44.2,29.99,North,357,0.0,3.0,58,0.00,,,0.02,111.00,VWS V14.01,2013-11-23 16:53:00,
2013-11-23 11:54:00,59.0,44.3,29.99,North,350,0.0,3.0,58,0.00,,,0.02,139.00,VWS V14.01,2013-11-23 16:54:00,
2013-11-23 11:55:00,59.0,44.3,29.99,North,350,0.0,0.0,58,0.00,,,0.02,151.00,VWS V14.01,2013-11-23 16:55:00,
2013-11-23 11:56:00,58.9,44.2,29.99,North,6,4.0,4.0,58,0.00,,,0.02,123.00,VWS V14.01,2013-11-23 16:56:00,
2013-11-23 11:57:00,59.0,44.3,29.99,NNE,13,4.0,7.0,58,0.00,,,0.02,165.00,VWS V14.01,2013-11-23 16:57:00,
2013-11-23 11:58:00,59.0,43.8,29.99,North,0,3.0,4.0,57,0.00,,,0.02,156.00,VWS V14.01,2013-11-23 16:58:00,
2013-11-23 11:59:00,59.0,44.3,29.99,NNW,341,4.0,4.0,58,0.00,,,0.02,137.00,VWS V14.01,2013-11-23 16:59:00,
2013-11-23 12:00:00,59.0,43.8,29.99,North,0,0.0,4.0,57,0.00,,,0.02,135.00,VWS V14.01,2013-11-23 17:00:00,
2013-11-23 12:01:00,59.0,44.3,29.99,North,350,0.0,3.0,58,0.00,,,0.02,139.00,VWS V14.01,2013-11-23 17:01:00,
2013-11-23 12:02:00,59.0,44.3,29.99,North,0,0.0,0.0,58,0.00,,,0.02,111.00,VWS V14.01,2013-11-23 17:02:00,
2013-11-23 12:03:00,59.2,44.5,29.99,North,0,0.0,4.0,58,0.00,,,0.02,127.00,VWS V14.01,2013-11-23 17:03:00,
2013-11-23 12:04:00,59.0,44.3,29.99,North,0,5.0,8.0,58,0.00,,,0.02,142.00,VWS V14.01,2013-11-23 17:04:00,
2013-11-23 12:05:00,59.0,43.8,29.99,North,9,5.0,5.0,57,0.00,,,0.02,146.00,VWS V14.01,2013-11-23 17:05:00,
2013-11-23 12:06:00,59.0,44.3,29.99,NNW,341,4.0,4.0,58,0.00,,,0.02,137.00,VWS V14.01,2013-11-23 17:06:00,
2013-11-23 12:07:00,59.0,43.3,29.99,NE,44,3.0,3.0,56,0.00,,,0.02,144.00,VWS V14.01,2013-11-23 17:07:00,
2013-11-23 12:08:00,59.0,43.8,29.99,NNE,32,4.0,4.0,57,0.00,,,0.02,156.00,VWS V14.01,2013-11-23 17:08:00,
2013-11-23 12:09:00,59.0,43.8,29.99,NNE,32,0.0,4.0,57,0.00,,,0.02,135.00,VWS V14.01,2013-11-23 17:09:00,
2013-11-23 12:10:00,59.0,43.8,29.99,NNE,31,0.0,0.0,57,0.00,,,0.02,111.00,VWS V14.01,2013-11-23 17:10:00,
2013-11-23 12:11:00,59.0,44.3,29.99,North,0,5.0,8.0,58,0.00,,,0.02,142.00,VWS V14.01,2013-11-23 17:11:00,
2013-11-23 12:12:00,59.0,43.3,29.99,North,7,0.0,1.0,56,0.00,,,0.02,121.00,VWS V14.01,2013-11-23 17:12:00,
2013-11-23 12:13:00,59.0,43.3,29.99,NNE,25,0.0,0.0,56,0.00,,,0.02,165.00,VWS V14.01,2013-11-23 17:13:00,
2013-11-23 12:14:00,59.0,43.8,29.99,NNE,25,0.0,0.0,57,0.00,,,0.02,167.00,VWS V14.01,2013-11-23 17:14:00,
2013-11-23 12:15:00,59.2,44.0,29.98,North,358,0.0,1.0,57,0.00,,,0.02,163.00,VWS V14.01,2013-11-23 17:15:00,
2013-11-23 12:16:00,59.0,43.8,29.99,NNE,32,0.0,4.0,57,0.00,,,0.02,135.00,VWS V14.01,2013-11-23 17:16:00,
2013-11-23 12:17:00,59.2,44.0,29.98,North,358,0.0,0.0,57,0.00,,,0.02,165.00,VWS V14.01,2013-11-23 17:17:00,
2013-11-23 12:18:00,59.2,43.5,29.98,North,358,0.0,0.0,56,0.00,,,0.02,167.00,VWS V14.01,2013-11-23 17:18:00,
2013-11-23 12:19:00,59.2,43.5,29.98,North,358,0.0,0.0,56,0.00,,,0.02,181.00,VWS V14.01,2013-11-23 17:19:00,
2013-11-23 12:20:00,59.2,43.5,29.98,North,358,0.0,0.0,56,0.00,,,0.02,188.00,VWS V14.01,2013-11-23 17:20:00,
2013-11-23 12:21:00,59.0,43.8,29.99,NNE,25,0.0,0.0,57,0.00,,,0.02,167.00,VWS V14.01,2013-11-23 17:21:00,
2013-11-23 12:22:00,59.3,44.1,29.98,North,358,3.0,4.0,57,0.00,,,0.02,202.00,VWS V14.01,2013-11-23 17:22:00,
2013-11-23 12:23:00,59.3,43.6,29.98,North,0,6.0,7.0,56,0.00,,,0.02,216.00,VWS V14.01,2013-11-23 17:23:00,
2013-11-23 12:24:00,59.5,43.8,29.98,North,0,7.0,10.0,56,0.00,,,0.02,237.00,VWS V14.01,2013-11-23 17:24:00,
2013-11-23 12:25:00,59.5,43.3,29.98,NNE,32,5.0,8.0,55,0.00,,,0.02,243.00,VWS V14.01,2013-11-23 17:25:00,
2013-11-23 12:26:00,59.2,43.5,29.98,North,358,0.0,0.0,56,0.00,,,0.02,172.00,VWS V14.01,2013-11-23 17:26:00,
2013-11-23 12:27:00,59.6,43.4,29.98,North,6,0.0,0.0,55,0.00,,,0.02,199.00,VWS V14.01,2013-11-23 17:27:00,
2013-11-23 12:28:00,59.6,43.4,29.98,North,358,3.0,4.0,55,0.00,,,0.02,200.00,VWS V14.01,2013-11-23 17:28:00,
2013-11-23 12:29:00,59.6,43.9,29.98,North,354,4.0,5.0,56,0.00,,,0.02,199.00,VWS V14.01,2013-11-23 17:29:00,
2013-11-23 12:30:00,59.8,43.6,29.96,NNE,25,2.0,7.0,55,0.00,,,0.02,199.00,VWS V14.01,2013-11-23 17:30:00,
2013-11-23 12:31:00,59.5,43.8,29.98,North,0,7.0,10.0,56,0.00,,,0.02,237.00,VWS V14.01,2013-11-23 17:31:00,
2013-11-23 12:32:00,59.8,43.6,29.96,NW,323,0.0,4.0,55,0.00,,,0.02,204.00,VWS V14.01,2013-11-23 17:32:00,
2013-11-23 12:33:00,59.9,43.7,29.96,North,5,4.0,5.0,55,0.00,,,0.02,209.00,VWS V14.01,2013-11-23 17:33:00,
2013-11-23 12:34:00,59.9,43.7,29.96,North,0,2.0,7.0,55,0.00,,,0.02,206.00,VWS V14.01,2013-11-23 17:34:00,
2013-11-23 12:35:00,59.9,43.7,29.96,North,358,1.0,2.0,55,0.00,,,0.02,195.00,VWS V14.01,2013-11-23 17:35:00,
2013-11-23 12:36:00,59.6,43.9,29.98,North,354,4.0,5.0,56,0.00,,,0.02,199.00,VWS V14.01,2013-11-23 17:36:00,
2013-11-23 12:37:00,59.9,43.2,29.96,North,0,5.0,7.0,54,0.00,,,0.02,223.00,VWS V14.01,2013-11-23 17:37:00,
2013-11-23 12:38:00,60.1,43.4,29.96,North,0,0.0,5.0,54,0.00,,,0.02,232.00,VWS V14.01,2013-11-23 17:38:00,
2013-11-23 12:39:00,60.1,43.4,29.96,North,0,3.0,3.0,54,0.00,,,0.02,251.00,VWS V14.01,2013-11-23 17:39:00,
2013-11-23 12:40:00,60.1,43.4,29.96,North,0,4.0,12.0,54,0.00,,,0.02,253.00,VWS V14.01,2013-11-23 17:40:00,
2013-11-23 12:41:00,59.9,43.7,29.96,North,0,2.0,7.0,55,0.00,,,0.02,206.00,VWS V14.01,2013-11-23 17:41:00,
2013-11-23 12:42:00,60.1,42.9,29.96,North,353,0.0,3.0,53,0.00,,,0.02,216.00,VWS V14.01,2013-11-23 17:42:00,
2013-11-23 12:43:00,60.1,43.4,29.96,North,0,0.0,3.0,54,0.00,,,0.02,206.00,VWS V14.01,2013-11-23 17:43:00,
2013-11-23 12:44:00,60.1,43.4,29.96,NW,313,4.0,6.0,54,0.00,,,0.02,223.00,VWS V14.01,2013-11-23 17:44:00,
2013-11-23 12:45:00,60.2,43.5,29.96,NW,309,0.0,6.0,54,0.00,,,0.02,223.00,VWS V14.01,2013-11-23 17:45:00,
2013-11-23 12:46:00,60.1,43.4,29.96,North,0,3.0,3.0,54,0.00,,,0.02,251.00,VWS V14.01,2013-11-23 17:46:00,
2013-11-23 12:47:00,60.2,43.5,29.96,NW,313,0.0,6.0,54,0.00,,,0.02,206.00,VWS V14.01,2013-11-23 17:47:00,
2013-11-23 12:48:00,60.2,43.5,29.96,NW,315,0.0,1.0,54,0.00,,,0.02,190.00,VWS V14.01,2013-11-23 17:48:00,
2013-11-23 12:49:00,60.2,43.5,29.96,NW,314,0.0,0.0,54,0.00,,,0.02,179.00,VWS V14.01,2013-11-23 17:49:00,
2013-11-23 12:50:00,60.2,43.5,29.96,NNW,333,0.0,3.0,54,0.00,,,0.02,160.00,VWS V14.01,2013-11-23 17:50:00,
2013-11-23 12:51:00,60.1,43.4,29.96,WNW,300,5.0,6.0,54,0.00,,,0.02,223.00,VWS V14.01,2013-11-23 17:51:00,
2013-11-23 12:52:00,60.4,43.2,29.96,NW,310,5.0,5.0,53,0.00,,,0.02,158.00,VWS V14.01,2013-11-23 17:52:00,
2013-11-23 12:53:00,60.4,43.7,29.96,NW,308,0.0,6.0,54,0.00,,,0.02,158.00,VWS V14.01,2013-11-23 17:53:00,
2013-11-23 12:54:00,60.4,43.2,29.96,NW,314,7.0,7.0,53,0.00,,,0.02,158.00,VWS V14.01,2013-11-23 17:54:00,
2013-11-23 12:55:00,60.4,43.2,29.96,NW,326,3.0,10.0,53,0.00,,,0.02,171.00,VWS V14.01,2013-11-23 17:55:00,
2013-11-23 12:56:00,60.2,43.5,29.96,NW,314,0.0,0.0,54,0.00,,,0.02,179.00,VWS V14.01,2013-11-23 17:56:00,
2013-11-23 12:57:00,60.2,43.0,29.96,North,349,4.0,6.0,53,0.00,,,0.02,156.00,VWS V14.01,2013-11-23 17:57:00,
2013-11-23 12:58:00,60.2,42.5,29.96,NNW,348,5.0,6.0,52,0.00,,,0.02,142.00,VWS V14.01,2013-11-23 17:58:00,
2013-11-23 12:59:00,60.2,43.0,29.96,North,349,4.0,5.0,53,0.00,,,0.02,132.00,VWS V14.01,2013-11-23 17:59:00,
2013-11-23 13:00:00,60.2,43.0,29.96,NW,304,6.0,8.0,53,0.00,,,0.02,130.00,VWS V14.01,2013-11-23 18:00:00,
2013-11-23 13:01:00,60.4,43.2,29.96,West,280,5.0,5.0,53,0.00,,,0.02,158.00,VWS V14.01,2013-11-23 18:01:00,
2013-11-23 13:02:00,60.1,42.9,29.96,WSW,257,9.0,10.0,53,0.00,,,0.02,141.00,VWS V14.01,2013-11-23 18:02:00,
2013-11-23 13:03:00,60.1,42.9,29.96,WNW,291,4.0,9.0,53,0.00,,,0.02,146.00,VWS V14.01,2013-11-23 18:03:00,
2013-11-23 13:04:00,59.9,42.7,29.96,NW,325,4.0,7.0,53,0.00,,,0.02,142.00,VWS V14.01,2013-11-23 18:04:00,
2013-11-23 13:05:00,59.9,42.7,29.96,NW,307,1.0,6.0,53,0.00,,,0.02,137.00,VWS V14.01,2013-11-23 18:05:00,
2013-11-23 13:06:00,60.2,43.0,29.96,North,349,4.0,5.0,53,0.00,,,0.02,132.00,VWS V14.01,2013-11-23 18:06:00,
2013-11-23 13:07:00,59.9,42.7,29.96,NNW,346,4.0,4.0,53,0.00,,,0.02,130.00,VWS V14.01,2013-11-23 18:07:00,
2013-11-23 13:08:00,59.9,42.7,29.96,North,0,9.0,10.0,53,0.00,,,0.02,121.00,VWS V14.01,2013-11-23 18:08:00,
2013-11-23 13:09:00,59.8,42.7,29.96,NNW,333,0.0,9.0,53,0.00,,,0.02,116.00,VWS V14.01,2013-11-23 18:09:00,
2013-11-23 13:10:00,59.8,42.7,29.96,NNW,340,5.0,10.0,53,0.00,,,0.02,116.00,VWS V14.01,2013-11-23 18:10:00,
2013-11-23 13:11:00,60.1,42.9,29.96,NNW,338,5.0,7.0,53,0.00,,,0.02,142.00,VWS V14.01,2013-11-23 18:11:00,
2013-11-23 13:12:00,59.8,42.2,29.96,NNW,343,0.0,6.0,52,0.00,,,0.02,113.00,VWS V14.01,2013-11-23 18:12:00,
2013-11-23 13:13:00,59.6,42.0,29.96,North,356,5.0,5.0,52,0.00,,,0.02,113.00,VWS V14.01,2013-11-23 18:13:00,
2013-11-23 13:14:00,59.6,42.0,29.96,NNE,17,0.0,6.0,52,0.00,,,0.02,116.00,VWS V14.01,2013-11-23 18:14:00,
2013-11-23 13:15:00,59.6,42.0,29.95,NNE,17,0.0,0.0,52,0.00,,,0.02,114.00,VWS V14.01,2013-11-23 18:15:00,
2013-11-23 13:16:00,59.8,42.7,29.96,NNW,333,0.0,9.0,53,0.00,,,0.02,116.00,VWS V14.01,2013-11-23 18:16:00,
2013-11-23 13:17:00,59.6,42.0,29.95,NW,306,10.0,11.0,52,0.00,,,0.02,107.00,VWS V14.01,2013-11-23 18:17:00,
2013-11-23 13:18:00,59.5,41.9,29.95,NNW,328,6.0,10.0,52,0.00,,,0.02,107.00,VWS V14.01,2013-11-23 18:18:00,
2013-11-23 13:19:00,59.5,41.9,29.95,North,358,1.0,11.0,52,0.00,,,0.02,107.00,VWS V14.01,2013-11-23 18:19:00,
2013-11-23 13:20:00,59.5,41.9,29.95,NNW,328,5.0,12.0,52,0.00,,,0.02,107.00,VWS V14.01,2013-11-23 18:20:00,
2013-11-23 13:21:00,59.6,42.0,29.96,NNE,17,0.0,6.0,52,0.00,,,0.02,116.00,VWS V14.01,2013-11-23 18:21:00,
2013-11-23 13:22:00,59.3,41.7,29.95,North,354,4.0,9.0,52,0.00,,,0.02,105.00,VWS V14.01,2013-11-23 18:22:00,
2013-11-23 13:23:00,59.3,41.7,29.95,NW,309,6.0,6.0,52,0.00,,,0.02,104.00,VWS V14.01,2013-11-23 18:23:00,
2013-11-23 13:24:00,59.3,41.7,29.95,NNE,18,0.0,9.0,52,0.00,,,0.02,105.00,VWS V14.01,2013-11-23 18:24:00,
2013-11-23 13:25:00,59.3,41.7,29.95,NNW,347,11.0,11.0,52,0.00,,,0.02,111.00,VWS V14.01,2013-11-23 18:25:00,
2013-11-23 13:26:00,59.5,41.9,29.95,North,354,3.0,11.0,52,0.00,,,0.02,107.00,VWS V14.01,2013-11-23 18:26:00,
2013-11-23 13:27:00,59.2,41.1,29.95,NW,321,2.0,7.0,51,0.00,,,0.02,113.00,VWS V14.01,2013-11-23 18:27:00,
2013-11-23 13:28:00,59.2,41.6,29.95,NW,325,6.0,9.0,52,0.00,,,0.02,114.00,VWS V14.01,2013-11-23 18:28:00,
2013-11-23 13:29:00,59.2,41.6,29.95,NW,308,6.0,9.0,52,0.00,,,0.02,114.00,VWS V14.01,2013-11-23 18:29:00,
2013-11-23 13:30:00,59.2,41.6,29.95,WNW,299,8.0,9.0,52,0.00,,,0.02,111.00,VWS V14.01,2013-11-23 18:30:00,
2013-11-23 13:31:00,59.3,41.7,29.95,NNE,18,1.0,9.0,52,0.00,,,0.02,102.00,VWS V14.01,2013-11-23 18:31:00,
2013-11-23 13:32:00,59.0,41.4,29.95,NNW,344,5.0,5.0,52,0.00,,,0.02,107.00,VWS V14.01,2013-11-23 18:32:00,
2013-11-23 13:33:00,59.0,41.4,29.95,NNW,340,0.0,10.0,52,0.00,,,0.02,102.00,VWS V14.01,2013-11-23 18:33:00,
2013-11-23 13:34:00,59.0,41.4,29.95,NNW,342,1.0,5.0,52,0.00,,,0.02,97.00,VWS V14.01,2013-11-23 18:34:00,
2013-11-23 13:35:00,59.0,41.4,29.95,NNW,340,2.0,3.0,52,0.00,,,0.02,93.00,VWS V14.01,2013-11-23 18:35:00,
2013-11-23 13:36:00,59.2,41.6,29.95,NW,307,3.0,9.0,52,0.00,,,0.02,114.00,VWS V14.01,2013-11-23 18:36:00,
2013-11-23 13:37:00,59.0,41.4,29.95,North,358,0.0,6.0,52,0.00,,,0.02,97.00,VWS V14.01,2013-11-23 18:37:00,
2013-11-23 13:38:00,59.0,41.9,29.95,NNW,340,4.0,4.0,53,0.00,,,0.02,95.00,VWS V14.01,2013-11-23 18:38:00,
2013-11-23 13:39:00,59.0,41.9,29.95,NNW,338,0.0,4.0,53,0.00,,,0.02,95.00,VWS V14.01,2013-11-23 18:39:00,
2013-11-23 13:40:00,59.0,41.9,29.95,North,358,0.0,6.0,53,0.00,,,0.02,95.00,VWS V14.01,2013-11-23 18:40:00,
2013-11-23 13:41:00,59.0,41.4,29.95,NNW,342,4.0,5.0,52,0.00,,,0.02,97.00,VWS V14.01,2013-11-23 18:41:00,
2013-11-23 13:42:00,59.0,41.4,29.95,NNW,337,5.0,6.0,52,0.00,,,0.02,86.00,VWS V14.01,2013-11-23 18:42:00,
2013-11-23 13:43:00,59.0,41.4,29.95,WNW,302,3.0,6.0,52,0.00,,,0.02,84.00,VWS V14.01,2013-11-23 18:43:00,
2013-11-23 13:44:00,59.0,41.9,29.95,NW,305,0.0,3.0,53,0.00,,,0.02,83.00,VWS V14.01,2013-11-23 18:44:00,
2013-11-23 13:45:00,59.0,41.4,29.94,NW,304,0.0,0.0,52,0.00,,,0.02,83.00,VWS V14.01,2013-11-23 18:45:00,
2013-11-23 13:46:00,59.0,41.9,29.95,NNW,338,0.0,4.0,53,0.00,,,0.02,95.00,VWS V14.01,2013-11-23 18:46:00,
2013-11-23 13:47:00,59.0,41.9,29.94,North,350,5.0,5.0,53,0.00,,,0.02,83.00,VWS V14.01,2013-11-23 18:47:00,
2013-11-23 13:48:00,59.0,41.9,29.94,North,358,3.0,9.0,53,0.00,,,0.02,88.00,VWS V14.01,2013-11-23 18:48:00,
2013-11-23 13:49:00,59.0,41.9,29.94,NW,322,2.0,3.0,53,0.00,,,0.02,91.00,VWS V14.01,2013-11-23 18:49:00,
2013-11-23 13:50:00,59.0,41.9,29.94,NW,310,1.0,4.0,53,0.00,,,0.02,93.00,VWS V14.01,2013-11-23 18:50:00,
2013-11-23 13:51:00,59.0,41.9,29.95,NW,305,0.0,3.0,53,0.00,,,0.02,83.00,VWS V14.01,2013-11-23 18:51:00,
2013-11-23 13:52:00,59.0,41.4,29.94,North,5,3.0,6.0,52,0.00,,,0.02,91.00,VWS V14.01,2013-11-23 18:52:00,
2013-11-23 13:53:00,59.0,40.9,29.94,NW,320,5.0,5.0,51,0.00,,,0.02,81.00,VWS V14.01,2013-11-23 18:53:00,
2013-11-23 13:54:00,59.0,41.4,29.94,NW,315,0.0,6.0,52,0.00,,,0.02,77.00,VWS V14.01,2013-11-23 18:54:00,
2013-11-23 13:55:00,59.0,41.4,29.94,NNW,344,0.0,0.0,52,0.00,,,0.02,76.00,VWS V14.01,2013-11-23 18:55:00,
2013-11-23 13:56:00,59.0,41.9,29.94,NW,322,2.0,3.0,53,0.00,,,0.02,91.00,VWS V14.01,2013-11-23 18:56:00,
2013-11-23 13:57:00,59.0,41.9,29.94,NW,304,5.0,5.0,53,0.00,,,0.02,76.00,VWS V14.01,2013-11-23 18:57:00,
2013-11-23 13:58:00,59.0,41.4,29.94,North,7,2.0,5.0,52,0.00,,,0.02,74.00,VWS V14.01,2013-11-23 18:58:00,
2013-11-23 13:59:00,59.0,41.4,29.94,North,0,1.0,4.0,52,0.00,,,0.02,81.00,VWS V14.01,2013-11-23 18:59:00,
2013-11-23 14:00:00,59.0,41.4,29.94,NW,321,2.0,6.0,52,0.00,,,0.02,88.00,VWS V14.01,2013-11-23 19:00:00,
2013-11-23 14:01:00,59.0,41.4,29.94,NW,315,0.0,6.0,52,0.00,,,0.02,77.00,VWS V14.01,2013-11-23 19:01:00,
2013-11-23 14:02:00,58.9,41.3,29.94,NNW,339,0.0,4.0,52,0.00,,,0.02,88.00,VWS V14.01,2013-11-23 19:02:00,
2013-11-23 14:03:00,58.9,41.3,29.94,NNW,347,6.0,7.0,52,0.00,,,0.02,83.00,VWS V14.01,2013-11-23 19:03:00,
2013-11-23 14:04:00,58.9,41.3,29.94,NW,323,0.0,6.0,52,0.00,,,0.02,79.00,VWS V14.01,2013-11-23 19:04:00,
2013-11-23 14:05:00,58.9,42.3,29.94,NNW,335,9.0,10.0,54,0.00,,,0.02,77.00,VWS V14.01,2013-11-23 19:05:00,
2013-11-23 14:06:00,59.0,41.4,29.94,North,6,1.0,4.0,52,0.00,,,0.02,76.00,VWS V14.01,2013-11-23 19:06:00,
2013-11-23 14:07:00,58.9,40.3,29.94,NW,311,9.0,9.0,50,0.00,,,0.02,77.00,VWS V14.01,2013-11-23 19:07:00,
2013-11-23 14:08:00,58.7,39.6,29.94,WNW,295,3.0,9.0,49,0.00,,,0.02,76.00,VWS V14.01,2013-11-23 19:08:00,
2013-11-23 14:09:00,58.7,39.6,29.94,NNW,340,0.0,6.0,49,0.00,,,0.02,76.00,VWS V14.01,2013-11-23 19:09:00,
2013-11-23 14:10:00,58.7,40.1,29.94,North,0,6.0,6.0,50,0.00,,,0.02,79.00,VWS V14.01,2013-11-23 19:10:00,
2013-11-23 14:11:00,58.9,41.3,29.94,NW,323,0.0,6.0,52,0.00,,,0.02,79.00,VWS V14.01,2013-11-23 19:11:00,
2013-11-23 14:12:00,58.6,39.5,29.94,North,0,4.0,9.0,49,0.00,,,0.02,84.00,VWS V14.01,2013-11-23 19:12:00,
2013-11-23 14:13:00,58.6,39.5,29.94,WNW,290,6.0,6.0,49,0.00,,,0.02,84.00,VWS V14.01,2013-11-23 19:13:00,
2013-11-23 14:14:00,58.6,39.5,29.94,WNW,285,1.0,6.0,49,0.00,,,0.02,83.00,VWS V14.01,2013-11-23 19:14:00,
2013-11-23 14:15:00,58.6,39.0,29.93,NW,311,3.0,6.0,48,0.00,,,0.02,83.00,VWS V14.01,2013-11-23 19:15:00,
2013-11-23 14:16:00,58.7,39.6,29.94,NNW,344,0.0,6.0,49,0.00,,,0.02,76.00,VWS V14.01,2013-11-23 19:16:00,
2013-11-23 14:17:00,58.4,38.3,29.93,North,356,0.0,11.0,47,0.00,,,0.02,97.00,VWS V14.01,2013-11-23 19:17:00,
2013-11-23 14:18:00,58.4,38.3,29.93,NW,304,5.0,5.0,47,0.00,,,0.02,97.00,VWS V14.01,2013-11-23 19:18:00,
2013-11-23 14:19:00,58.4,38.3,29.93,NW,319,4.0,9.0,47,0.00,,,0.02,97.00,VWS V14.01,2013-11-23 19:19:00,
2013-11-23 14:20:00,58.3,38.2,29.93,North,350,5.0,12.0,47,0.00,,,0.02,98.00,VWS V14.01,2013-11-23 19:20:00,
2013-11-23 14:21:00,58.6,39.5,29.94,WNW,285,2.0,6.0,49,0.00,,,0.02,83.00,VWS V14.01,2013-11-23 19:21:00,
2013-11-23 14:22:00,58.3,38.2,29.93,West,269,4.0,6.0,47,0.00,,,0.02,109.00,VWS V14.01,2013-11-23 19:22:00,
2013-11-23 14:23:00,58.3,38.2,29.93,North,358,4.0,6.0,47,0.00,,,0.02,107.00,VWS V14.01,2013-11-23 19:23:00,
2013-11-23 14:24:00,58.3,38.7,29.93,NW,308,7.0,7.0,48,0.00,,,0.02,105.00,VWS V14.01,2013-11-23 19:24:00,
2013-11-23 14:25:00,58.3,38.2,29.93,North,357,4.0,10.0,47,0.00,,,0.02,104.00,VWS V14.01,2013-11-23 19:25:00,
2013-11-23 14:26:00,58.4,38.3,29.93,NNW,331,6.0,9.0,47,0.00,,,0.02,97.00,VWS V14.01,2013-11-23 19:26:00,
2013-11-23 14:27:00,58.3,38.7,29.93,NNW,328,0.0,5.0,48,0.00,,,0.02,111.00,VWS V14.01,2013-11-23 19:27:00,
2013-11-23 14:28:00,58.3,38.2,29.93,NW,311,2.0,3.0,47,0.00,,,0.02,109.00,VWS V14.01,2013-11-23 19:28:00,
2013-11-23 14:29:00,58.3,38.7,29.93,WNW,291,5.0,8.0,48,0.00,,,0.02,100.00,VWS V14.01,2013-11-23 19:29:00,
2013-11-23 14:30:00,58.3,38.2,29.93,NW,310,0.0,10.0,47,0.00,,,0.02,91.00,VWS V14.01,2013-11-23 19:30:00,
2013-11-23 14:31:00,58.3,38.7,29.93,NNW,328,6.0,6.0,48,0.00,,,0.02,105.00,VWS V14.01,2013-11-23 19:31:00,
2013-11-23 14:32:00,58.3,38.2,29.93,NW,307,1.0,4.0,47,0.00,,,0.02,83.00,VWS V14.01,2013-11-23 19:32:00,
2013-11-23 14:33:00,58.3,38.2,29.93,NW,325,2.0,4.0,47,0.00,,,0.02,81.00,VWS V14.01,2013-11-23 19:33:00,
2013-11-23 14:34:00,58.3,38.7,29.93,NW,325,5.0,5.0,48,0.00,,,0.02,72.00,VWS V14.01,2013-11-23 19:34:00,
2013-11-23 14:35:00,58.3,38.7,29.93,NNW,331,8.0,8.0,48,0.00,,,0.02,70.00,VWS V14.01,2013-11-23 19:35:00,
2013-11-23 14:36:00,58.3,38.7,29.93,West,281,6.0,8.0,48,0.00,,,0.02,109.00,VWS V14.01,2013-11-23 19:36:00,
2013-11-23 14:37:00,58.1,38.0,29.93,NW,326,3.0,6.0,47,0.00,,,0.02,72.00,VWS V14.01,2013-11-23 19:37:00,
2013-11-23 14:38:00,58.1,38.0,29.93,NW,326,3.0,3.0,47,0.00,,,0.02,72.00,VWS V14.01,2013-11-23 19:38:00,
2013-11-23 14:39:00,58.1,37.5,29.93,West,271,5.0,5.0,46,0.00,,,0.02,72.00,VWS V14.01,2013-11-23 19:39:00,
2013-11-23 14:40:00,58.1,38.0,29.93,NE,34,2.0,5.0,47,0.00,,,0.02,84.00,VWS V14.01,2013-11-23 19:40:00,
2013-11-23 14:41:00,58.3,38.7,29.93,NW,305,4.0,5.0,48,0.00,,,0.02,76.00,VWS V14.01,2013-11-23 19:41:00,
2013-11-23 14:42:00,58.1,38.0,29.93,NNW,329,12.0,12.0,47,0.00,,,0.02,88.00,VWS V14.01,2013-11-23 19:42:00,
2013-11-23 14:43:00,58.1,38.0,29.93,NW,323,8.0,12.0,47,0.00,,,0.02,84.00,VWS V14.01,2013-11-23 19:43:00,
2013-11-23 14:44:00,58.1,37.5,29.93,NW,323,4.0,8.0,46,0.00,,,0.02,81.00,VWS V14.01,2013-11-23 19:44:00,
2013-11-23 14:45:00,58.1,37.5,29.94,NNW,335,5.0,6.0,46,0.00,,,0.02,81.00,VWS V14.01,2013-11-23 19:45:00,
2013-11-23 14:46:00,58.1,38.0,29.93,WNW,288,3.0,4.0,47,0.00,,,0.02,72.00,VWS V14.01,2013-11-23 19:46:00,
2013-11-23 14:47:00,58.0,37.4,29.94,NW,319,0.0,5.0,46,0.00,,,0.02,86.00,VWS V14.01,2013-11-23 19:47:00,
2013-11-23 14:48:00,58.0,37.4,29.94,NW,310,5.0,5.0,46,0.00,,,0.02,93.00,VWS V14.01,2013-11-23 19:48:00,
2013-11-23 14:49:00,58.0,37.4,29.94,NW,318,5.0,9.0,46,0.00,,,0.02,93.00,VWS V14.01,2013-11-23 19:49:00,
2013-11-23 14:50:00,58.0,36.8,29.94,NNW,341,7.0,11.0,45,0.00,,,0.02,90.00,VWS V14.01,2013-11-23 19:50:00,
2013-11-23 14:51:00,58.1,37.5,29.93,North,353,5.0,8.0,46,0.00,,,0.02,81.00,VWS V14.01,2013-11-23 19:51:00,
2013-11-23 14:52:00,58.0,37.4,29.94,North,349,0.0,6.0,46,0.00,,,0.02,95.00,VWS V14.01,2013-11-23 19:52:00,
2013-11-23 14:53:00,58.0,37.4,29.94,North,356,4.0,4.0,46,0.00,,,0.02,98.00,VWS V14.01,2013-11-23 19:53:00,
2013-11-23 14:54:00,58.0,37.4,29.94,North,353,0.0,8.0,46,0.00,,,0.02,100.00,VWS V14.01,2013-11-23 19:54:00,
2013-11-23 14:55:00,58.0,37.4,29.94,North,353,0.0,0.0,46,0.00,,,0.02,102.00,VWS V14.01,2013-11-23 19:55:00,
2013-11-23 14:56:00,58.0,37.4,29.94,NW,304,3.0,9.0,46,0.00,,,0.02,93.00,VWS V14.01,2013-11-23 19:56:00,
2013-11-23 14:57:00,58.0,37.4,29.94,NNW,340,6.0,6.0,46,0.00,,,0.02,102.00,VWS V14.01,2013-11-23 19:57:00,
2013-11-23 14:58:00,58.0,37.9,29.94,North,358,0.0,6.0,47,0.00,,,0.02,97.00,VWS V14.01,2013-11-23 19:58:00,
2013-11-23 14:59:00,58.0,37.9,29.94,North,351,6.0,7.0,47,0.00,,,0.02,90.00,VWS V14.01,2013-11-23 19:59:00,
2013-11-23 15:00:00,58.1,38.0,29.94,NW,317,4.0,7.0,47,0.00,,,0.02,84.00,VWS V14.01,2013-11-23 20:00:00,
2013-11-23 15:01:00,58.0,37.4,29.94,North,356,2.0,8.0,46,0.00,,,0.02,100.00,VWS V14.01,2013-11-23 20:01:00,
2013-11-23 15:02:00,58.0,37.9,29.94,NW,321,0.0,6.0,47,0.00,,,0.02,72.00,VWS V14.01,2013-11-23 20:02:00,
2013-11-23 15:03:00,58.0,37.4,29.94,NW,321,0.0,0.0,46,0.00,,,0.02,67.00,VWS V14.01,2013-11-23 20:03:00,
2013-11-23 15:04:00,58.1,38.0,29.94,NW,320,4.0,5.0,47,0.00,,,0.02,62.00,VWS V14.01,2013-11-23 20:04:00,
2013-11-23 15:05:00,58.0,37.9,29.94,NNW,327,6.0,6.0,47,0.00,,,0.02,62.00,VWS V14.01,2013-11-23 20:05:00,
2013-11-23 15:06:00,58.0,37.9,29.94,NNW,338,7.0,7.0,47,0.00,,,0.02,90.00,VWS V14.01,2013-11-23 20:06:00,
2013-11-23 15:07:00,58.1,38.0,29.94,North,351,3.0,6.0,47,0.00,,,0.02,67.00,VWS V14.01,2013-11-23 20:07:00,
2013-11-23 15:08:00,58.0,38.4,29.94,WNW,285,0.0,6.0,48,0.00,,,0.02,70.00,VWS V14.01,2013-11-23 20:08:00,
2013-11-23 15:09:00,58.0,37.9,29.94,NW,319,2.0,5.0,47,0.00,,,0.02,77.00,VWS V14.01,2013-11-23 20:09:00,
2013-11-23 15:10:00,58.0,37.9,29.94,NW,321,0.0,2.0,47,0.00,,,0.02,79.00,VWS V14.01,2013-11-23 20:10:00,
2013-11-23 15:11:00,58.1,38.0,29.94,NW,320,4.0,4.0,47,0.00,,,0.02,63.00,VWS V14.01,2013-11-23 20:11:00,
2013-11-23 15:12:00,58.0,37.9,29.94,NW,322,0.0,0.0,47,0.00,,,0.02,77.00,VWS V14.01,2013-11-23 20:12:00,
2013-11-23 15:13:00,58.0,38.4,29.94,North,352,2.0,6.0,48,0.00,,,0.02,76.00,VWS V14.01,2013-11-23 20:13:00,
2013-11-23 15:14:00,58.0,39.0,29.94,NW,321,2.0,5.0,49,0.00,,,0.02,72.00,VWS V14.01,2013-11-23 20:14:00,
2013-11-23 15:16:00,58.0,38.4,29.94,NW,318,4.0,5.0,48,0.00,,,0.02,74.00,VWS V14.01,2013-11-23 20:16:00,
2013-11-23 15:17:00,58.0,38.4,29.94,WNW,289,0.0,4.0,48,0.00,,,0.02,72.00,VWS V14.01,2013-11-23 20:17:00,
2013-11-23 15:18:00,58.0,38.4,29.94,WNW,289,1.0,3.0,48,0.00,,,0.02,72.00,VWS V14.01,2013-11-23 20:18:00,
2013-11-23 15:19:00,58.0,38.4,29.94,WNW,289,1.0,4.0,48,0.00,,,0.02,70.00,VWS V14.01,2013-11-23 20:19:00,
2013-11-23 15:20:00,58.0,37.9,29.94,WNW,289,0.0,5.0,47,0.00,,,0.02,70.00,VWS V14.01,2013-11-23 20:20:00,
2013-11-23 15:21:00,58.0,39.0,29.94,NNW,333,5.0,5.0,49,0.00,,,0.02,72.00,VWS V14.01,2013-11-23 20:21:00,
2013-11-23 15:22:00,58.0,38.4,29.94,WNW,290,0.0,0.0,48,0.00,,,0.02,62.00,VWS V14.01,2013-11-23 20:22:00,
2013-11-23 15:23:00,58.0,39.0,29.94,NNW,341,4.0,4.0,49,0.00,,,0.02,58.00,VWS V14.01,2013-11-23 20:23:00,
2013-11-23 15:24:00,58.0,38.4,29.94,NNW,331,1.0,6.0,48,0.00,,,0.02,58.00,VWS V14.01,2013-11-23 20:24:00,
2013-11-23 15:25:00,58.0,37.9,29.94,NNW,333,0.0,3.0,47,0.00,,,0.02,60.00,VWS V14.01,2013-11-23 20:25:00,
2013-11-23 15:26:00,58.0,38.4,29.94,WNW,289,4.0,4.0,48,0.00,,,0.02,70.00,VWS V14.01,2013-11-23 20:26:00,
2013-11-23 15:27:00,58.0,38.4,29.94,NW,304,0.0,4.0,48,0.00,,,0.02,54.00,VWS V14.01,2013-11-23 20:27:00,
2013-11-23 15:28:00,58.0,38.4,29.94,WNW,303,0.0,2.0,48,0.00,,,0.02,53.00,VWS V14.01,2013-11-23 20:28:00,
2013-11-23 15:29:00,58.0,38.4,29.94,NW,326,6.0,7.0,48,0.00,,,0.02,53.00,VWS V14.01,2013-11-23 20:29:00,
2013-11-23 15:30:00,58.0,37.9,29.95,NNW,329,3.0,6.0,47,0.00,,,0.02,54.00,VWS V14.01,2013-11-23 20:30:00,
2013-11-23 15:31:00,58.0,38.4,29.94,NNW,337,3.0,6.0,48,0.00,,,0.02,58.00,VWS V14.01,2013-11-23 20:31:00,
2013-11-23 15:32:00,57.8,37.7,29.95,NW,305,4.0,7.0,47,0.00,,,0.02,54.00,VWS V14.01,2013-11-23 20:32:00,
2013-11-23 15:33:00,57.8,38.3,29.95,NW,312,3.0,5.0,48,0.00,,,0.02,53.00,VWS V14.01,2013-11-23 20:33:00,
2013-11-23 15:34:00,57.8,37.2,29.95,NW,308,3.0,7.0,46,0.00,,,0.02,51.00,VWS V14.01,2013-11-23 20:34:00,
2013-11-23 15:35:00,57.8,36.6,29.95,North,349,8.0,8.0,45,0.00,,,0.02,49.00,VWS V14.01,2013-11-23 20:35:00,
2013-11-23 15:36:00,58.0,38.4,29.94,NW,304,3.0,3.0,48,0.00,,,0.02,53.00,VWS V14.01,2013-11-23 20:36:00,
2013-11-23 15:37:00,57.8,37.2,29.95,NNW,332,2.0,4.0,46,0.00,,,0.02,51.00,VWS V14.01,2013-11-23 20:37:00,
2013-11-23 15:38:00,57.8,36.6,29.95,North,353,5.0,5.0,45,0.00,,,0.02,47.00,VWS V14.01,2013-11-23 20:38:00,
2013-11-23 15:39:00,57.8,36.6,29.95,NNW,335,2.0,6.0,45,0.00,,,0.02,46.00,VWS V14.01,2013-11-23 20:39:00,
2013-11-23 15:40:00,57.8,36.0,29.95,NW,308,5.0,5.0,44,0.00,,,0.02,46.00,VWS V14.01,2013-11-23 20:40:00,
2013-11-23 15:41:00,57.8,37.2,29.95,NNW,346,4.0,6.0,46,0.00,,,0.02,51.00,VWS V14.01,2013-11-23 20:41:00,
2013-11-23 15:42:00,57.8,35.5,29.95,NNE,20,4.0,11.0,43,0.00,,,0.02,42.00,VWS V14.01,2013-11-23 20:42:00,
2013-11-23 15:43:00,57.6,35.3,29.95,North,0,3.0,7.0,43,0.00,,,0.02,42.00,VWS V14.01,2013-11-23 20:43:00,
2013-11-23 15:44:00,57.8,35.5,29.95,North,0,3.0,3.0,43,0.00,,,0.02,40.00,VWS V14.01,2013-11-23 20:44:00,
2013-11-23 15:45:00,57.8,35.5,29.95,North,0,3.0,3.0,43,0.00,,,0.02,40.00,VWS V14.01,2013-11-23 20:45:00,
2013-11-23 15:46:00,57.8,36.6,29.95,NNW,338,5.0,6.0,45,0.00,,,0.02,47.00,VWS V14.01,2013-11-23 20:46:00,
2013-11-23 15:47:00,57.6,35.3,29.95,WNW,300,0.0,4.0,43,0.00,,,0.02,30.00,VWS V14.01,2013-11-23 20:47:00,
2013-11-23 15:48:00,57.6,34.1,29.95,NNW,340,2.0,3.0,41,0.00,,,0.02,28.00,VWS V14.01,2013-11-23 20:48:00,
2013-11-23 15:49:00,57.6,34.7,29.95,NNW,340,0.0,2.0,42,0.00,,,0.02,28.00,VWS V14.01,2013-11-23 20:49:00,
2013-11-23 15:50:00,57.6,34.7,29.95,NNW,343,0.0,0.0,42,0.00,,,0.02,30.00,VWS V14.01,2013-11-23 20:50:00,
2013-11-23 15:51:00,57.8,35.5,29.95,North,0,3.0,3.0,43,0.00,,,0.02,40.00,VWS V14.01,2013-11-23 20:51:00,
2013-11-23 15:52:00,57.6,35.3,29.95,North,349,0.0,0.0,43,0.00,,,0.02,33.00,VWS V14.01,2013-11-23 20:52:00,
2013-11-23 15:53:00,57.6,35.3,29.95,North,349,0.0,0.0,43,0.00,,,0.02,33.00,VWS V14.01,2013-11-23 20:53:00,
2013-11-23 15:54:00,57.6,34.7,29.95,North,349,0.0,0.0,42,0.00,,,0.02,33.00,VWS V14.01,2013-11-23 20:54:00,
2013-11-23 15:55:00,57.6,34.7,29.95,North,349,0.0,0.0,42,0.00,,,0.02,33.00,VWS V14.01,2013-11-23 20:55:00,
2013-11-23 15:56:00,57.6,34.7,29.95,NNW,340,0.0,2.0,42,0.00,,,0.02,28.00,VWS V14.01,2013-11-23 20:56:00,
2013-11-23 15:57:00,57.6,35.3,29.95,North,349,2.0,2.0,43,0.00,,,0.02,42.00,VWS V14.01,2013-11-23 20:57:00,
2013-11-23 15:58:00,57.6,34.7,29.95,NNW,335,0.0,3.0,42,0.00,,,0.02,46.00,VWS V14.01,2013-11-23 20:58:00,
2013-11-23 15:59:00,57.5,34.6,29.95,NNW,328,1.0,1.0,42,0.00,,,0.02,49.00,VWS V14.01,2013-11-23 20:59:00,
2013-11-23 16:00:00,57.5,34.6,29.95,NNW,340,4.0,6.0,42,0.00,,,0.02,51.00,VWS V14.01,2013-11-23 21:00:00,
2013-11-23 16:01:00,57.6,34.7,29.95,North,349,0.0,0.0,42,0.00,,,0.02,33.00,VWS V14.01,2013-11-23 21:01:00,
2013-11-23 16:02:00,57.5,34.0,29.95,North,358,0.0,3.0,41,0.00,,,0.02,47.00,VWS V14.01,2013-11-23 21:02:00,
2013-11-23 16:03:00,57.5,34.0,29.95,North,358,0.0,0.0,41,0.00,,,0.02,44.00,VWS V14.01,2013-11-23 21:03:00,
2013-11-23 16:04:00,57.5,34.6,29.95,North,353,0.0,0.0,42,0.00,,,0.02,42.00,VWS V14.01,2013-11-23 21:04:00,
2013-11-23 16:05:00,57.5,34.6,29.95,North,0,3.0,7.0,42,0.00,,,0.02,40.00,VWS V14.01,2013-11-23 21:05:00,
2013-11-23 16:06:00,57.5,34.6,29.95,NNW,335,0.0,0.0,42,0.00,,,0.02,49.00,VWS V14.01,2013-11-23 21:06:00,
2013-11-23 16:07:00,57.5,34.0,29.95,NNW,330,0.0,0.0,41,0.00,,,0.02,40.00,VWS V14.01,2013-11-23 21:07:00,
2013-11-23 16:08:00,57.5,34.6,29.95,NNW,330,0.0,0.0,42,0.00,,,0.02,40.00,VWS V14.01,2013-11-23 21:08:00,
2013-11-23 16:09:00,57.5,34.6,29.95,NNW,330,0.0,0.0,42,0.00,,,0.02,40.00,VWS V14.01,2013-11-23 21:09:00,
2013-11-23 16:10:00,57.5,34.0,29.95,NNW,330,0.0,0.0,41,0.00,,,0.02,39.00,VWS V14.01,2013-11-23 21:10:00,
2013-11-23 16:11:00,57.5,34.6,29.95,North,358,0.0,0.0,42,0.00,,,0.02,42.00,VWS V14.01,2013-11-23 21:11:00,
2013-11-23 16:12:00,57.3,33.8,29.95,North,356,0.0,2.0,41,0.00,,,0.02,35.00,VWS V14.01,2013-11-23 21:12:00,
2013-11-23 16:13:00,57.3,34.4,29.95,North,356,0.0,0.0,42,0.00,,,0.02,35.00,VWS V14.01,2013-11-23 21:13:00,
2013-11-23 16:14:00,57.3,34.4,29.95,North,356,0.0,0.0,42,0.00,,,0.02,35.00,VWS V14.01,2013-11-23 21:14:00,
2013-11-23 16:15:00,57.3,34.4,29.95,North,356,0.0,0.0,42,0.00,,,0.02,35.00,VWS V14.01,2013-11-23 21:15:00,
2013-11-23 16:16:00,57.5,34.6,29.95,NNW,330,0.0,0.0,42,0.00,,,0.02,40.00,VWS V14.01,2013-11-23 21:16:00,
2013-11-23 16:17:00,57.3,35.0,29.95,North,356,0.0,0.0,43,0.00,,,0.02,32.00,VWS V14.01,2013-11-23 21:17:00,
2013-11-23 16:18:00,57.3,35.0,29.95,NNW,347,2.0,2.0,43,0.00,,,0.02,32.00,VWS V14.01,2013-11-23 21:18:00,
2013-11-23 16:19:00,57.2,34.9,29.95,NNW,347,2.0,3.0,43,0.00,,,0.02,32.00,VWS V14.01,2013-11-23 21:19:00,
2013-11-23 16:20:00,57.2,34.9,29.95,NNW,347,0.0,2.0,43,0.00,,,0.02,32.00,VWS V14.01,2013-11-23 21:20:00,
2013-11-23 16:21:00,57.3,34.4,29.95,North,356,0.0,0.0,42,0.00,,,0.02,35.00,VWS V14.01,2013-11-23 21:21:00,
2013-11-23 16:22:00,57.2,34.3,29.95,NNW,332,0.0,4.0,42,0.00,,,0.02,32.00,VWS V14.01,2013-11-23 21:22:00,
2013-11-23 16:23:00,57.2,34.3,29.95,NNW,332,2.0,3.0,42,0.00,,,0.02,30.00,VWS V14.01,2013-11-23 21:23:00,
2013-11-23 16:24:00,57.0,34.2,29.95,North,0,2.0,4.0,42,0.00,,,0.02,30.00,VWS V14.01,2013-11-23 21:24:00,
2013-11-23 16:25:00,57.0,33.5,29.95,North,358,0.0,2.0,41,0.00,,,0.02,28.00,VWS V14.01,2013-11-23 21:25:00,
2013-11-23 16:26:00,57.2,34.9,29.95,NNW,347,0.0,2.0,43,0.00,,,0.02,32.00,VWS V14.01,2013-11-23 21:26:00,
2013-11-23 16:27:00,57.0,34.2,29.95,NNW,345,0.0,1.0,42,0.00,,,0.02,26.00,VWS V14.01,2013-11-23 21:27:00,
2013-11-23 16:28:00,57.0,33.5,29.95,NNW,346,0.0,0.0,41,0.00,,,0.02,25.00,VWS V14.01,2013-11-23 21:28:00,
2013-11-23 16:29:00,57.0,32.9,29.95,NNW,346,0.0,0.0,40,0.00,,,0.02,23.00,VWS V14.01,2013-11-23 21:29:00,
2013-11-23 16:30:00,57.0,34.2,29.95,NNW,346,0.0,0.0,42,0.00,,,0.02,23.00,VWS V14.01,2013-11-23 21:30:00,
2013-11-23 16:31:00,57.0,34.2,29.95,NNW,342,4.0,4.0,42,0.00,,,0.02,30.00,VWS V14.01,2013-11-23 21:31:00,
2013-11-23 16:32:00,57.0,33.5,29.95,NNW,346,0.0,0.0,41,0.00,,,0.02,21.00,VWS V14.01,2013-11-23 21:32:00,
2013-11-23 16:33:00,56.9,32.8,29.95,NNW,346,0.0,0.0,40,0.00,,,0.02,19.00,VWS V14.01,2013-11-23 21:33:00,
2013-11-23 16:34:00,56.9,32.8,29.95,NNW,346,0.0,0.0,40,0.00,,,0.02,19.00,VWS V14.01,2013-11-23 21:34:00,
2013-11-23 16:35:00,56.9,33.5,29.95,NW,326,6.0,6.0,41,0.00,,,0.02,18.00,VWS V14.01,2013-11-23 21:35:00,
2013-11-23 16:36:00,57.0,32.9,29.95,NNW,346,0.0,0.0,40,0.00,,,0.02,23.00,VWS V14.01,2013-11-23 21:36:00,
2013-11-23 16:37:00,56.9,32.2,29.95,North,8,4.0,6.0,39,0.00,,,0.02,16.00,VWS V14.01,2013-11-23 21:37:00,
2013-11-23 16:38:00,56.9,32.2,29.95,NNW,341,7.0,7.0,39,0.00,,,0.02,14.00,VWS V14.01,2013-11-23 21:38:00,
2013-11-23 16:39:00,56.7,31.4,29.95,North,350,9.0,10.0,38,0.00,,,0.02,12.00,VWS V14.01,2013-11-23 21:39:00,
2013-11-23 16:40:00,56.7,30.7,29.95,NNW,332,0.0,9.0,37,0.00,,,0.02,12.00,VWS V14.01,2013-11-23 21:40:00,
2013-11-23 16:41:00,56.9,32.8,29.95,NNW,346,0.0,0.0,40,0.00,,,0.02,19.00,VWS V14.01,2013-11-23 21:41:00,
2013-11-23 16:42:00,56.7,30.7,29.95,North,0,5.0,5.0,37,0.00,,,0.02,9.00,VWS V14.01,2013-11-23 21:42:00,
2013-11-23 16:43:00,56.7,31.4,29.95,NNE,15,5.0,5.0,38,0.00,,,0.02,7.00,VWS V14.01,2013-11-23 21:43:00,
2013-11-23 16:44:00,56.7,31.4,29.95,North,5,3.0,7.0,38,0.00,,,0.02,7.00,VWS V14.01,2013-11-23 21:44:00,
2013-11-23 16:45:00,56.7,31.4,29.95,North,0,0.0,7.0,38,0.00,,,0.02,5.00,VWS V14.01,2013-11-23 21:45:00,
2013-11-23 16:46:00,56.7,31.4,29.95,WNW,302,2.0,7.0,38,0.00,,,0.02,14.00,VWS V14.01,2013-11-23 21:46:00,
2013-11-23 16:47:00,56.7,30.1,29.95,NW,316,0.0,6.0,36,0.00,,,0.02,5.00,VWS V14.01,2013-11-23 21:47:00,
2013-11-23 16:48:00,56.7,30.7,29.95,North,1,0.0,4.0,37,0.00,,,0.02,5.00,VWS V14.01,2013-11-23 21:48:00,
2013-11-23 16:49:00,56.7,30.1,29.95,North,357,7.0,7.0,36,0.00,,,0.02,0.00,VWS V14.01,2013-11-23 21:49:00,
2013-11-23 16:50:00,56.7,30.1,29.95,North,358,4.0,9.0,36,0.00,,,0.02,0.00,VWS V14.01,2013-11-23 21:50:00,
2013-11-23 16:51:00,56.7,31.4,29.95,North,4,0.0,7.0,38,0.00,,,0.02,7.00,VWS V14.01,2013-11-23 21:51:00,
2013-11-23 16:52:00,56.6,30.0,29.95,North,357,0.0,4.0,36,0.00,,,0.02,0.00,VWS V14.01,2013-11-23 21:52:00,
2013-11-23 16:53:00,56.6,29.3,29.95,NW,317,4.0,4.0,35,0.00,,,0.02,0.00,VWS V14.01,2013-11-23 21:53:00,
2013-11-23 16:54:00,56.6,29.3,29.95,North,356,3.0,8.0,35,0.00,,,0.02,0.00,VWS V14.01,2013-11-23 21:54:00,
2013-11-23 16:55:00,56.6,29.3,29.95,North,5,6.0,6.0,35,0.00,,,0.02,0.00,VWS V14.01,2013-11-23 21:55:00,
2013-11-23 16:56:00,56.7,30.7,29.95,NNE,17,2.0,4.0,37,0.00,,,0.02,5.00,VWS V14.01,2013-11-23 21:56:00,
2013-11-23 16:57:00,56.5,29.9,29.95,NNW,348,0.0,6.0,36,0.00,,,0.02,0.00,VWS V14.01,2013-11-23 21:57:00,
2013-11-23 16:58:00,56.5,29.9,29.95,North,0,7.0,7.0,36,0.00,,,0.02,0.00,VWS V14.01,2013-11-23 21:58:00,
2013-11-23 16:59:00,56.5,29.2,29.95,North,353,2.0,10.0,35,0.00,,,0.02,0.00,VWS V14.01,2013-11-23 21:59:00,
2013-11-23 17:00:00,56.5,29.2,29.96,North,0,3.0,5.0,35,0.00,,,0.02,0.00,VWS V14.01,2013-11-23 22:00:00,
2013-11-23 17:01:00,56.6,29.3,29.95,North,1,2.0,8.0,35,0.00,,,0.02,0.00,VWS V14.01,2013-11-23 22:01:00,
2013-11-23 17:02:00,56.3,28.3,29.96,NNW,342,2.0,2.0,34,0.00,,,0.02,0.00,VWS V14.01,2013-11-23 22:02:00,
2013-11-23 17:03:00,56.3,29.0,29.96,NNW,336,0.0,4.0,35,0.00,,,0.02,0.00,VWS V14.01,2013-11-23 22:03:00,
2013-11-23 17:04:00,56.3,29.0,29.96,North,358,4.0,7.0,35,0.00,,,0.02,0.00,VWS V14.01,2013-11-23 22:04:00,
2013-11-23 17:05:00,56.3,28.3,29.96,NNW,345,0.0,6.0,34,0.00,,,0.02,0.00,VWS V14.01,2013-11-23 22:05:00,
2013-11-23 17:06:00,56.5,29.9,29.95,North,6,3.0,10.0,36,0.00,,,0.02,0.00,VWS V14.01,2013-11-23 22:06:00,
2013-11-23 17:07:00,56.2,28.2,29.96,North,352,0.0,2.0,34,0.00,,,0.02,0.00,VWS V14.01,2013-11-23 22:07:00,
2013-11-23 17:08:00,56.2,28.9,29.96,North,0,6.0,7.0,35,0.00,,,0.02,0.00,VWS V14.01,2013-11-23 22:08:00,
2013-11-23 17:09:00,56.2,27.5,29.96,North,0,3.0,6.0,33,0.00,,,0.02,0.00,VWS V14.01,2013-11-23 22:09:00,
2013-11-23 17:10:00,56.2,28.2,29.96,North,8,4.0,4.0,34,0.00,,,0.02,0.00,VWS V14.01,2013-11-23 22:10:00,
2013-11-23 17:11:00,56.3,29.0,29.96,NNW,336,0.0,0.0,35,0.00,,,0.02,0.00,VWS V14.01,2013-11-23 22:11:00,
2013-11-23 17:12:00,56.0,27.3,29.96,North,6,0.0,1.0,33,0.00,,,0.02,0.00,VWS V14.01,2013-11-23 22:12:00,
2013-11-23 17:13:00,56.0,27.3,29.96,North,6,1.0,1.0,33,0.00,,,0.02,0.00,VWS V14.01,2013-11-23 22:13:00,
2013-11-23 17:14:00,56.0,27.3,29.96,NE,37,2.0,5.0,33,0.00,,,0.02,0.00,VWS V14.01,2013-11-23 22:14:00,
2013-11-23 17:15:00,56.0,27.3,29.96,North,0,1.0,6.0,33,0.00,,,0.02,0.00,VWS V14.01,2013-11-23 22:15:00,
2013-11-23 17:16:00,56.2,27.5,29.96,North,350,5.0,6.0,33,0.00,,,0.02,0.00,VWS V14.01,2013-11-23 22:16:00,
2013-11-23 17:17:00,55.9,25.7,29.96,NW,314,7.0,7.0,31,0.00,,,0.02,0.00,VWS V14.01,2013-11-23 22:17:00,
2013-11-23 17:18:00,55.9,25.7,29.96,North,354,8.0,8.0,31,0.00,,,0.02,0.00,VWS V14.01,2013-11-23 22:18:00,
2013-11-23 17:19:00,55.9,25.7,29.96,NNW,342,0.0,13.0,31,0.00,,,0.02,0.00,VWS V14.01,2013-11-23 22:19:00,
2013-11-23 17:20:00,55.9,25.7,29.96,NNW,346,8.0,8.0,31,0.00,,,0.02,0.00,VWS V14.01,2013-11-23 22:20:00,
2013-11-23 17:21:00,56.0,27.3,29.96,North,0,5.0,5.0,33,0.00,,,0.02,0.00,VWS V14.01,2013-11-23 22:21:00,
2013-11-23 17:22:00,55.7,25.5,29.96,NNW,346,6.0,7.0,31,0.00,,,0.02,0.00,VWS V14.01,2013-11-23 22:22:00,
2013-11-23 17:23:00,55.7,25.5,29.96,NNE,15,0.0,6.0,31,0.00,,,0.02,0.00,VWS V14.01,2013-11-23 22:23:00,
2013-11-23 17:24:00,55.7,25.5,29.96,North,6,0.0,3.0,31,0.00,,,0.02,0.00,VWS V14.01,2013-11-23 22:24:00,
2013-11-23 17:25:00,55.7,26.3,29.96,North,6,3.0,3.0,32,0.00,,,0.02,0.00,VWS V14.01,2013-11-23 22:25:00,
2013-11-23 17:26:00,55.9,25.7,29.96,North,8,13.0,13.0,31,0.00,,,0.02,0.00,VWS V14.01,2013-11-23 22:26:00,
2013-11-23 17:27:00,55.6,26.2,29.96,NNW,344,0.0,5.0,32,0.00,,,0.02,0.00,VWS V14.01,2013-11-23 22:27:00,
2013-11-23 17:28:00,55.6,26.2,29.96,NNE,26,0.0,3.0,32,0.00,,,0.02,0.00,VWS V14.01,2013-11-23 22:28:00,
2013-11-23 17:29:00,55.4,25.3,29.96,North,0,3.0,6.0,31,0.00,,,0.02,0.00,VWS V14.01,2013-11-23 22:29:00,
2013-11-23 17:31:00,55.7,25.5,29.96,NNE,13,3.0,3.0,31,0.00,,,0.02,0.00,VWS V14.01,2013-11-23 22:31:00,
2013-11-23 17:33:00,55.3,25.2,29.97,NNW,334,1.0,7.0,31,0.00,,,0.02,0.00,VWS V14.01,2013-11-23 22:33:00,
2013-11-23 17:34:00,55.1,25.8,29.97,North,0,1.0,4.0,32,0.00,,,0.02,0.00,VWS V14.01,2013-11-23 22:34:00,
2013-11-23 17:35:00,55.1,25.8,29.97,North,0,0.0,1.0,32,0.00,,,0.02,0.00,VWS V14.01,2013-11-23 22:35:00,
2013-11-23 17:36:00,55.4,26.0,29.96,NW,325,0.0,4.0,32,0.00,,,0.02,0.00,VWS V14.01,2013-11-23 22:36:00,
2013-11-23 17:37:00,55.0,26.5,29.97,NNW,343,4.0,4.0,33,0.00,,,0.02,0.00,VWS V14.01,2013-11-23 22:37:00,
2013-11-23 17:41:00,55.1,25.0,29.97,North,0,3.0,4.0,31,0.00,,,0.02,0.00,VWS V14.01,2013-11-23 22:41:00,
2013-11-23 17:42:00,54.7,25.4,29.97,NNW,343,3.0,6.0,32,0.00,,,0.02,0.00,VWS V14.01,2013-11-23 22:42:00,
2013-11-23 17:43:00,54.7,24.7,29.97,North,11,5.0,5.0,31,0.00,,,0.02,0.00,VWS V14.01,2013-11-23 22:43:00,
2013-11-23 17:44:00,54.7,24.7,29.97,NNE,14,3.0,5.0,31,0.00,,,0.02,0.00,VWS V14.01,2013-11-23 22:44:00,
2013-11-23 17:45:00,54.5,24.5,29.98,NNE,13,0.0,3.0,31,0.00,,,0.02,0.00,VWS V14.01,2013-11-23 22:45:00,
2013-11-23 17:46:00,55.0,25.7,29.97,NNW,330,2.0,5.0,32,0.00,,,0.02,0.00,VWS V14.01,2013-11-23 22:46:00,
2013-11-23 17:47:00,54.5,25.3,29.98,North,0,3.0,4.0,32,0.00,,,0.02,0.00,VWS V14.01,2013-11-23 22:47:00,
2013-11-23 17:48:00,54.5,25.3,29.98,North,0,0.0,3.0,32,0.00,,,0.02,0.00,VWS V14.01,2013-11-23 22:48:00,
2013-11-23 17:49:00,54.4,25.2,29.98,North,0,0.0,0.0,32,0.00,,,0.02,0.00,VWS V14.01,2013-11-23 22:49:00,
2013-11-23 17:50:00,54.4,25.9,29.98,North,0,0.0,0.0,33,0.00,,,0.02,0.00,VWS V14.01,2013-11-23 22:50:00,
2013-11-23 17:51:00,54.7,24.7,29.97,North,11,0.0,5.0,31,0.00,,,0.02,0.00,VWS V14.01,2013-11-23 22:51:00,
2013-11-23 17:52:00,54.4,25.9,29.98,North,0,0.0,4.0,33,0.00,,,0.02,0.00,VWS V14.01,2013-11-23 22:52:00,
2013-11-23 17:53:00,54.2,25.7,29.98,North,5,0.0,2.0,33,0.00,,,0.02,0.00,VWS V14.01,2013-11-23 22:53:00,
2013-11-23 17:54:00,54.2,25.0,29.98,North,4,0.0,1.0,32,0.00,,,0.02,0.00,VWS V14.01,2013-11-23 22:54:00,
2013-11-23 17:55:00,54.2,25.7,29.98,NNW,347,0.0,0.0,33,0.00,,,0.02,0.00,VWS V14.01,2013-11-23 22:55:00,
2013-11-23 17:56:00,54.4,25.2,29.98,North,0,0.0,0.0,32,0.00,,,0.02,0.00,VWS V14.01,2013-11-23 22:56:00,
2013-11-23 17:57:00,54.1,26.4,29.98,NNW,330,0.0,0.0,34,0.00,,,0.02,0.00,VWS V14.01,2013-11-23 22:57:00,
2013-11-23 17:58:00,54.1,25.6,29.98,NNW,330,0.0,1.0,33,0.00,,,0.02,0.00,VWS V14.01,2013-11-23 22:58:00,
2013-11-23 17:59:00,54.1,25.6,29.98,NNW,330,0.0,0.0,33,0.00,,,0.02,0.00,VWS V14.01,2013-11-23 22:59:00,
2013-11-23 18:00:00,53.9,26.2,29.98,NNW,330,0.0,0.0,34,0.00,,,0.02,0.00,VWS V14.01,2013-11-23 23:00:00,
2013-11-23 18:01:00,54.2,25.7,29.98,North,5,0.0,0.0,33,0.00,,,0.02,0.00,VWS V14.01,2013-11-23 23:01:00,
2013-11-23 18:02:00,53.8,26.8,29.98,NNW,331,0.0,0.0,35,0.00,,,0.02,0.00,VWS V14.01,2013-11-23 23:02:00,
2013-11-23 18:03:00,53.8,26.8,29.98,NNW,332,0.0,0.0,35,0.00,,,0.02,0.00,VWS V14.01,2013-11-23 23:03:00,
2013-11-23 18:04:00,53.6,25.9,29.98,NNW,332,0.0,0.0,34,0.00,,,0.02,0.00,VWS V14.01,2013-11-23 23:04:00,
2013-11-23 18:05:00,53.6,26.6,29.98,NNW,332,0.0,0.0,35,0.00,,,0.02,0.00,VWS V14.01,2013-11-23 23:05:00,
2013-11-23 18:06:00,54.1,25.6,29.98,NNW,330,0.0,0.0,33,0.00,,,0.02,0.00,VWS V14.01,2013-11-23 23:06:00,
2013-11-23 18:07:00,53.5,26.5,29.98,NNW,332,0.0,0.0,35,0.00,,,0.02,0.00,VWS V14.01,2013-11-23 23:07:00,
2013-11-23 18:08:00,53.3,27.0,29.98,NNW,332,0.0,1.0,36,0.00,,,0.02,0.00,VWS V14.01,2013-11-23 23:08:00,
2013-11-23 18:09:00,53.9,26.9,29.98,NNW,330,0.0,0.0,35,0.00,,,0.02,0.00,VWS V14.01,2013-11-23 23:09:00,
2013-11-23 18:10:00,53.2,27.0,29.98,NNW,332,0.0,0.0,36,0.00,,,0.02,0.00,VWS V14.01,2013-11-23 23:10:00,
2013-11-23 18:11:00,53.2,27.0,29.98,NNW,332,0.0,0.0,36,0.00,,,0.02,0.00,VWS V14.01,2013-11-23 23:11:00,
2013-11-23 18:12:00,53.1,26.9,29.98,NNW,332,0.0,0.0,36,0.00,,,0.02,0.00,VWS V14.01,2013-11-23 23:12:00,
2013-11-23 18:13:00,53.1,26.9,29.98,NNW,332,0.0,0.0,36,0.00,,,0.02,0.00,VWS V14.01,2013-11-23 23:13:00,
2013-11-23 18:14:00,53.5,27.2,29.98,NNW,332,0.0,0.0,36,0.00,,,0.02,0.00,VWS V14.01,2013-11-23 23:14:00,
2013-11-23 18:15:00,52.9,27.4,29.99,NNW,332,0.0,0.0,37,0.00,,,0.02,0.00,VWS V14.01,2013-11-23 23:15:00,
2013-11-23 18:16:00,52.8,27.9,29.99,NNW,332,0.0,0.0,38,0.00,,,0.02,0.00,VWS V14.01,2013-11-23 23:16:00,
2013-11-23 18:17:00,52.8,27.9,29.99,NNW,332,0.0,0.0,38,0.00,,,0.02,0.00,VWS V14.01,2013-11-23 23:17:00,
2013-11-23 18:18:00,52.6,28.4,29.99,NNW,332,0.0,0.0,39,0.00,,,0.02,0.00,VWS V14.01,2013-11-23 23:18:00,
2013-11-23 18:19:00,53.2,27.0,29.98,NNW,332,0.0,0.0,36,0.00,,,0.02,0.00,VWS V14.01,2013-11-23 23:19:00,
2013-11-23 18:20:00,52.5,28.3,29.99,NNW,332,0.0,0.0,39,0.00,,,0.02,0.00,VWS V14.01,2013-11-23 23:20:00,
2013-11-23 18:21:00,52.3,27.5,29.99,North,6,0.0,4.0,38,0.00,,,0.02,0.00,VWS V14.01,2013-11-23 23:21:00,
2013-11-23 18:22:00,52.3,27.5,29.99,North,6,0.0,0.0,38,0.00,,,0.02,0.00,VWS V14.01,2013-11-23 23:22:00,
2013-11-23 18:23:00,52.2,28.0,29.99,North,6,0.0,0.0,39,0.00,,,0.02,0.00,VWS V14.01,2013-11-23 23:23:00,
2013-11-23 18:24:00,52.8,27.9,29.99,NNW,332,0.0,0.0,38,0.00,,,0.02,0.00,VWS V14.01,2013-11-23 23:24:00,
2013-11-23 18:25:00,52.0,27.8,29.99,North,6,0.0,0.0,39,0.00,,,0.02,0.00,VWS V14.01,2013-11-23 23:25:00,
2013-11-23 18:26:00,51.9,27.7,29.99,North,358,2.0,2.0,39,0.00,,,0.02,0.00,VWS V14.01,2013-11-23 23:26:00,
2013-11-23 18:27:00,51.9,27.7,29.99,NNW,347,0.0,4.0,39,0.00,,,0.02,0.00,VWS V14.01,2013-11-23 23:27:00,
2013-11-23 18:28:00,51.7,28.2,29.99,NNW,347,0.0,0.0,40,0.00,,,0.02,0.00,VWS V14.01,2013-11-23 23:28:00,
2013-11-23 18:29:00,52.3,27.5,29.99,North,6,0.0,0.0,38,0.00,,,0.02,0.00,VWS V14.01,2013-11-23 23:29:00,
2013-11-23 18:30:00,51.6,28.1,29.99,NNW,347,0.0,0.0,40,0.00,,,0.02,0.00,VWS V14.01,2013-11-23 23:30:00,
2013-11-23 18:31:00,51.6,27.5,29.99,NNW,347,0.0,0.0,39,0.00,,,0.02,0.00,VWS V14.01,2013-11-23 23:31:00,
2013-11-23 18:32:00,51.4,27.9,29.99,NNW,347,5.0,5.0,40,0.00,,,0.02,0.00,VWS V14.01,2013-11-23 23:32:00,
2013-11-23 18:33:00,51.4,27.9,29.99,NNW,347,0.0,5.0,40,0.00,,,0.02,0.00,VWS V14.01,2013-11-23 23:33:00,
2013-11-23 18:34:00,51.9,27.7,29.99,NNW,347,2.0,4.0,39,0.00,,,0.02,0.00,VWS V14.01,2013-11-23 23:34:00,
2013-11-23 18:35:00,51.3,27.8,29.99,NNW,347,0.0,0.0,40,0.00,,,0.02,0.00,VWS V14.01,2013-11-23 23:35:00,
2013-11-23 18:36:00,51.1,27.6,29.99,NNW,347,0.0,0.0,40,0.00,,,0.02,0.00,VWS V14.01,2013-11-23 23:36:00,
2013-11-23 18:37:00,51.1,27.0,29.99,NNW,347,0.0,0.0,39,0.00,,,0.02,0.00,VWS V14.01,2013-11-23 23:37:00,
2013-11-23 18:38:00,51.1,27.0,29.99,NNW,347,0.0,0.0,39,0.00,,,0.02,0.00,VWS V14.01,2013-11-23 23:38:00,
2013-11-23 18:39:00,51.4,27.9,29.99,NNW,347,0.0,0.0,40,0.00,,,0.02,0.00,VWS V14.01,2013-11-23 23:39:00,
2013-11-23 18:40:00,51.0,26.9,29.99,NNW,347,0.0,0.0,39,0.00,,,0.02,0.00,VWS V14.01,2013-11-23 23:40:00,
2013-11-23 18:41:00,51.0,26.9,29.99,NNW,347,0.0,0.0,39,0.00,,,0.02,0.00,VWS V14.01,2013-11-23 23:41:00,
2013-11-23 18:42:00,51.0,26.9,29.99,NNW,347,0.0,0.0,39,0.00,,,0.02,0.00,VWS V14.01,2013-11-23 23:42:00,
2013-11-23 18:43:00,50.8,27.4,29.99,NNW,347,0.0,2.0,40,0.00,,,0.02,0.00,VWS V14.01,2013-11-23 23:43:00,
2013-11-23 18:44:00,51.1,27.6,29.99,NNW,347,0.0,0.0,40,0.00,,,0.02,0.00,VWS V14.01,2013-11-23 23:44:00,
2013-11-23 18:45:00,50.8,27.4,30.00,NNW,347,0.0,0.0,40,0.00,,,0.02,0.00,VWS V14.01,2013-11-23 23:45:00,
2013-11-23 18:46:00,50.8,27.4,30.00,NNW,347,0.0,0.0,40,0.00,,,0.02,0.00,VWS V14.01,2013-11-23 23:46:00,
2013-11-23 18:47:00,50.8,26.8,30.00,NNW,347,0.0,0.0,39,0.00,,,0.02,0.00,VWS V14.01,2013-11-23 23:47:00,
2013-11-23 18:48:00,50.7,26.7,30.00,NNW,347,2.0,3.0,39,0.00,,,0.02,0.00,VWS V14.01,2013-11-23 23:48:00,
2013-11-23 18:49:00,51.0,26.9,29.99,NNW,347,0.0,0.0,39,0.00,,,0.02,0.00,VWS V14.01,2013-11-23 23:49:00,
2013-11-23 18:50:00,50.7,26.7,30.00,NNW,340,0.0,0.0,39,0.00,,,0.02,0.00,VWS V14.01,2013-11-23 23:50:00,
2013-11-23 18:51:00,50.7,26.7,30.00,NNW,340,0.0,0.0,39,0.00,,,0.02,0.00,VWS V14.01,2013-11-23 23:51:00,
2013-11-23 18:52:00,50.7,26.7,30.00,NNW,340,0.0,0.0,39,0.00,,,0.02,0.00,VWS V14.01,2013-11-23 23:52:00,
2013-11-23 18:53:00,50.7,26.7,30.00,NNW,340,0.0,0.0,39,0.00,,,0.02,0.00,VWS V14.01,2013-11-23 23:53:00,
2013-11-23 18:54:00,50.8,27.4,30.00,NNW,347,0.0,0.0,40,0.00,,,0.02,0.00,VWS V14.01,2013-11-23 23:54:00,
2013-11-23 18:55:00,50.7,27.3,30.00,NNW,340,0.0,0.0,40,0.00,,,0.02,0.00,VWS V14.01,2013-11-23 23:55:00,
2013-11-23 18:56:00,50.7,26.7,30.00,NNW,340,0.0,0.0,39,0.00,,,0.02,0.00,VWS V14.01,2013-11-23 23:56:00,
2013-11-23 18:57:00,50.7,27.3,30.00,NNW,340,0.0,0.0,40,0.00,,,0.02,0.00,VWS V14.01,2013-11-23 23:57:00,
2013-11-23 18:59:00,50.7,26.7,30.00,NNW,340,0.0,0.0,39,0.00,,,0.02,0.00,VWS V14.01,2013-11-23 23:59:00,
2013-11-23 19:00:00,50.5,28.3,30.00,NNW,340,0.0,0.0,42,0.00,,,0.02,0.00,VWS V14.01,2013-11-24 00:00:00,
2013-11-23 19:01:00,50.5,28.3,30.00,NNW,340,0.0,0.0,42,0.00,,,0.02,0.00,VWS V14.01,2013-11-24 00:01:00,
2013-11-23 19:02:00,50.4,27.6,30.00,NNW,340,0.0,0.0,41,0.00,,,0.02,0.00,VWS V14.01,2013-11-24 00:02:00,
2013-11-23 19:03:00,50.4,27.6,30.00,NNW,340,0.0,0.0,41,0.00,,,0.02,0.00,VWS V14.01,2013-11-24 00:03:00,
2013-11-23 19:04:00,50.7,27.3,30.00,NNW,340,0.0,0.0,40,0.00,,,0.02,0.00,VWS V14.01,2013-11-24 00:04:00,
2013-11-23 19:05:00,50.2,28.0,30.00,NNW,340,0.0,1.0,42,0.00,,,0.02,0.00,VWS V14.01,2013-11-24 00:05:00,
2013-11-23 19:06:00,50.2,28.6,30.00,NNW,340,0.0,0.0,43,0.00,,,0.02,0.00,VWS V14.01,2013-11-24 00:06:00,
2013-11-23 19:07:00,50.1,28.5,30.00,NNW,340,0.0,0.0,43,0.00,,,0.02,0.00,VWS V14.01,2013-11-24 00:07:00,
2013-11-23 19:08:00,50.1,28.5,30.00,NNW,340,0.0,0.0,43,0.00,,,0.02,0.00,VWS V14.01,2013-11-24 00:08:00,
2013-11-23 19:09:00,50.5,28.3,30.00,NNW,340,0.0,0.0,42,0.00,,,0.02,0.00,VWS V14.01,2013-11-24 00:09:00,
2013-11-23 19:10:00,49.9,28.3,30.00,NNW,340,0.0,0.0,43,0.00,,,0.02,0.00,VWS V14.01,2013-11-24 00:10:00,
2013-11-23 19:11:00,49.8,28.2,30.00,NNW,340,0.0,0.0,43,0.00,,,0.02,0.00,VWS V14.01,2013-11-24 00:11:00,
2013-11-23 19:12:00,49.6,28.0,30.00,NNW,340,0.0,0.0,43,0.00,,,0.02,0.00,VWS V14.01,2013-11-24 00:12:00,
2013-11-23 19:13:00,49.6,28.6,30.00,NNW,340,0.0,0.0,44,0.00,,,0.02,0.00,VWS V14.01,2013-11-24 00:13:00,
2013-11-23 19:14:00,50.2,28.6,30.00,NNW,340,0.0,0.0,43,0.00,,,0.02,0.00,VWS V14.01,2013-11-24 00:14:00,
2013-11-23 19:15:00,49.5,28.5,30.00,NNW,340,0.0,0.0,44,0.00,,,0.02,0.00,VWS V14.01,2013-11-24 00:15:00,
2013-11-23 19:16:00,49.4,28.4,30.00,NNW,340,0.0,0.0,44,0.00,,,0.02,0.00,VWS V14.01,2013-11-24 00:16:00,
2013-11-23 19:17:00,49.2,28.2,30.00,NNW,340,0.0,0.0,44,0.00,,,0.02,0.00,VWS V14.01,2013-11-24 00:17:00,
2013-11-23 19:18:00,49.2,28.8,30.00,NNW,340,0.0,0.0,45,0.00,,,0.02,0.00,VWS V14.01,2013-11-24 00:18:00,
2013-11-23 19:19:00,49.8,28.2,30.00,NNW,340,0.0,0.0,43,0.00,,,0.02,0.00,VWS V14.01,2013-11-24 00:19:00,
2013-11-23 19:20:00,48.9,28.5,30.00,NNW,340,0.0,0.0,45,0.00,,,0.02,0.00,VWS V14.01,2013-11-24 00:20:00,
2013-11-23 19:21:00,48.9,28.5,30.00,NNW,340,0.0,0.0,45,0.00,,,0.02,0.00,VWS V14.01,2013-11-24 00:21:00,
2013-11-23 19:22:00,48.8,29.0,30.00,NNW,340,0.0,0.0,46,0.00,,,0.02,0.00,VWS V14.01,2013-11-24 00:22:00,
2013-11-23 19:23:00,48.6,28.8,30.00,NNW,340,0.0,0.0,46,0.00,,,0.02,0.00,VWS V14.01,2013-11-24 00:23:00,
2013-11-23 19:24:00,49.4,28.4,30.00,NNW,340,0.0,0.0,44,0.00,,,0.02,0.00,VWS V14.01,2013-11-24 00:24:00,
2013-11-23 19:25:00,48.5,29.2,30.00,NNW,340,0.0,0.0,47,0.00,,,0.02,0.00,VWS V14.01,2013-11-24 00:25:00,
2013-11-23 19:26:00,48.3,29.5,30.00,NNW,340,0.0,0.0,48,0.00,,,0.02,0.00,VWS V14.01,2013-11-24 00:26:00,
2013-11-23 19:27:00,48.2,29.5,30.00,NNW,340,0.0,0.0,48,0.00,,,0.02,0.00,VWS V14.01,2013-11-24 00:27:00,
2013-11-23 19:28:00,48.8,28.4,30.00,NNW,340,0.0,0.0,45,0.00,,,0.02,0.00,VWS V14.01,2013-11-24 00:28:00,
2013-11-23 19:29:00,48.0,29.8,30.00,NNW,340,0.0,0.0,49,0.00,,,0.02,0.00,VWS V14.01,2013-11-24 00:29:00,
2013-11-23 19:30:00,47.9,29.7,30.00,NNW,340,0.0,0.0,49,0.00,,,0.02,0.00,VWS V14.01,2013-11-24 00:30:00,
2013-11-23 19:31:00,47.9,29.7,30.00,NNW,340,0.0,0.0,49,0.00,,,0.02,0.00,VWS V14.01,2013-11-24 00:31:00,
2013-11-23 19:32:00,47.7,29.5,30.00,NNW,340,0.0,0.0,49,0.00,,,0.02,0.00,VWS V14.01,2013-11-24 00:32:00,
2013-11-23 19:33:00,48.3,29.5,30.00,NNW,340,0.0,0.0,48,0.00,,,0.02,0.00,VWS V14.01,2013-11-24 00:33:00,
2013-11-23 19:34:00,47.6,29.4,30.00,NNW,340,0.0,0.0,49,0.00,,,0.02,0.00,VWS V14.01,2013-11-24 00:34:00,
2013-11-23 19:35:00,47.6,29.4,30.00,NNW,340,0.0,0.0,49,0.00,,,0.02,0.00,VWS V14.01,2013-11-24 00:35:00,
2013-11-23 19:36:00,47.4,29.7,30.00,NNW,340,0.0,0.0,50,0.00,,,0.02,0.00,VWS V14.01,2013-11-24 00:36:00,
2013-11-23 19:37:00,47.4,29.7,30.00,NNW,340,0.0,0.0,50,0.00,,,0.02,0.00,VWS V14.01,2013-11-24 00:37:00,
2013-11-23 19:38:00,47.9,29.7,30.00,NNW,340,0.0,0.0,49,0.00,,,0.02,0.00,VWS V14.01,2013-11-24 00:38:00,
2013-11-23 19:39:00,47.1,29.4,30.00,NNW,340,0.0,0.0,50,0.00,,,0.02,0.00,VWS V14.01,2013-11-24 00:39:00,
2013-11-23 19:40:00,47.1,29.9,30.00,NNW,340,0.0,0.0,51,0.00,,,0.02,0.00,VWS V14.01,2013-11-24 00:40:00,
2013-11-23 19:41:00,47.0,29.8,30.00,NNW,340,0.0,0.0,51,0.00,,,0.02,0.00,VWS V14.01,2013-11-24 00:41:00,
2013-11-23 19:42:00,47.0,29.8,30.00,NNW,340,0.0,0.0,51,0.00,,,0.02,0.00,VWS V14.01,2013-11-24 00:42:00,
2013-11-23 19:43:00,47.4,29.7,30.00,NNW,340,0.0,0.0,50,0.00,,,0.02,0.00,VWS V14.01,2013-11-24 00:43:00,
2013-11-23 19:44:00,46.8,29.6,30.00,NNW,340,0.0,0.0,51,0.00,,,0.02,0.00,VWS V14.01,2013-11-24 00:44:00,
2013-11-23 19:45:00,46.7,29.5,30.00,NNW,340,0.0,0.0,51,0.00,,,0.02,0.00,VWS V14.01,2013-11-24 00:45:00,
2013-11-23 19:46:00,46.7,29.5,30.00,NNW,340,0.0,0.0,51,0.00,,,0.02,0.00,VWS V14.01,2013-11-24 00:46:00,
2013-11-23 19:47:00,46.5,29.8,30.00,NNW,340,0.0,0.0,52,0.00,,,0.02,0.00,VWS V14.01,2013-11-24 00:47:00,
2013-11-23 19:48:00,47.0,29.8,30.00,NNW,340,0.0,0.0,51,0.00,,,0.02,0.00,VWS V14.01,2013-11-24 00:48:00,
2013-11-23 19:49:00,46.4,29.8,30.00,NNW,340,0.0,0.0,52,0.00,,,0.02,0.00,VWS V14.01,2013-11-24 00:49:00,
2013-11-23 19:50:00,46.4,29.8,30.00,NNW,340,0.0,0.0,52,0.00,,,0.02,0.00,VWS V14.01,2013-11-24 00:50:00,
2013-11-23 19:51:00,46.2,29.6,30.00,NNW,340,0.0,0.0,52,0.00,,,0.02,0.00,VWS V14.01,2013-11-24 00:51:00,
2013-11-23 19:52:00,46.2,29.6,30.00,NNW,340,0.0,1.0,52,0.00,,,0.02,0.00,VWS V14.01,2013-11-24 00:52:00,
2013-11-23 19:53:00,46.7,29.5,30.00,NNW,340,0.0,0.0,51,0.00,,,0.02,0.00,VWS V14.01,2013-11-24 00:53:00,
2013-11-23 19:54:00,46.1,29.5,30.00,NNW,340,0.0,1.0,52,0.00,,,0.02,0.00,VWS V14.01,2013-11-24 00:54:00,
2013-11-23 19:55:00,46.1,28.5,30.00,NNW,340,0.0,0.0,50,0.00,,,0.02,0.00,VWS V14.01,2013-11-24 00:55:00,
2013-11-23 19:56:00,46.1,28.5,30.00,NNW,340,0.0,3.0,50,0.00,,,0.02,0.00,VWS V14.01,2013-11-24 00:56:00,
2013-11-23 19:57:00,46.1,28.5,30.00,NNW,340,0.0,0.0,50,0.00,,,0.02,0.00,VWS V14.01,2013-11-24 00:57:00,
2013-11-23 19:58:00,46.2,29.6,30.00,NNW,340,0.0,0.0,52,0.00,,,0.02,0.00,VWS V14.01,2013-11-24 00:58:00,
2013-11-23 19:59:00,46.1,27.0,30.00,NNW,340,0.0,3.0,47,0.00,,,0.02,0.00,VWS V14.01,2013-11-24 00:59:00,
2013-11-23 20:00:00,46.1,27.5,30.00,NNW,340,1.0,1.0,48,0.00,,,0.02,0.00,VWS V14.01,2013-11-24 01:00:00,
2013-11-23 20:01:00,46.1,27.5,30.00,NNW,340,0.0,3.0,48,0.00,,,0.02,0.00,VWS V14.01,2013-11-24 01:01:00,
2013-11-23 20:02:00,46.2,27.6,30.00,NNE,20,2.0,7.0,48,0.00,,,0.02,0.00,VWS V14.01,2013-11-24 01:02:00,
2013-11-23 20:03:00,46.1,28.5,30.00,NNW,340,0.0,0.0,50,0.00,,,0.02,0.00,VWS V14.01,2013-11-24 01:03:00,
2013-11-23 20:04:00,46.2,26.6,30.00,North,0,0.0,0.0,46,0.00,,,0.02,0.00,VWS V14.01,2013-11-24 01:04:00,
2013-11-23 20:05:00,46.4,26.8,30.00,North,358,2.0,4.0,46,0.00,,,0.02,0.00,VWS V14.01,2013-11-24 01:05:00,
2013-11-23 20:06:00,46.4,27.3,30.00,North,358,0.0,2.0,47,0.00,,,0.02,0.00,VWS V14.01,2013-11-24 01:06:00,
2013-11-23 20:07:00,46.4,27.3,30.00,North,358,0.0,0.0,47,0.00,,,0.02,0.00,VWS V14.01,2013-11-24 01:07:00,
2013-11-23 20:08:00,46.1,27.5,30.00,NNW,340,0.0,0.0,48,0.00,,,0.02,0.00,VWS V14.01,2013-11-24 01:08:00,
2013-11-23 20:09:00,46.5,26.3,30.00,NNW,345,2.0,4.0,45,0.00,,,0.02,0.00,VWS V14.01,2013-11-24 01:09:00,
2013-11-23 20:10:00,46.5,25.8,30.00,North,349,0.0,4.0,44,0.00,,,0.02,0.00,VWS V14.01,2013-11-24 01:10:00,
2013-11-23 20:11:00,46.7,26.0,30.00,North,349,0.0,4.0,44,0.00,,,0.02,0.00,VWS V14.01,2013-11-24 01:11:00,
2013-11-23 20:12:00,46.7,25.4,30.00,North,349,0.0,0.0,43,0.00,,,0.02,0.00,VWS V14.01,2013-11-24 01:12:00,
2013-11-23 20:13:00,46.4,27.3,30.00,North,358,0.0,0.0,47,0.00,,,0.02,0.00,VWS V14.01,2013-11-24 01:13:00,
2013-11-23 20:14:00,46.8,25.5,30.00,North,349,0.0,0.0,43,0.00,,,0.02,0.00,VWS V14.01,2013-11-24 01:14:00,
2013-11-23 20:15:00,46.8,25.5,30.01,North,358,4.0,4.0,43,0.00,,,0.02,0.00,VWS V14.01,2013-11-24 01:15:00,
2013-11-23 20:16:00,47.0,25.7,30.01,NNW,340,0.0,5.0,43,0.00,,,0.02,0.00,VWS V14.01,2013-11-24 01:16:00,
2013-11-23 20:17:00,47.0,25.1,30.01,NNW,340,0.0,0.0,42,0.00,,,0.02,0.00,VWS V14.01,2013-11-24 01:17:00,
2013-11-23 20:18:00,46.7,26.0,30.00,North,349,0.0,0.0,44,0.00,,,0.02,0.00,VWS V14.01,2013-11-24 01:18:00,
2013-11-23 20:19:00,47.1,24.6,30.01,NW,319,4.0,7.0,41,0.00,,,0.02,0.00,VWS V14.01,2013-11-24 01:19:00,
2013-11-23 20:20:00,47.1,24.0,30.01,NW,325,0.0,4.0,40,0.00,,,0.02,0.00,VWS V14.01,2013-11-24 01:20:00,
2013-11-23 20:21:00,47.3,24.8,30.01,NW,325,0.0,0.0,41,0.00,,,0.02,0.00,VWS V14.01,2013-11-24 01:21:00,
2013-11-23 20:22:00,47.3,24.2,30.01,North,354,0.0,5.0,40,0.00,,,0.02,0.00,VWS V14.01,2013-11-24 01:22:00,
2013-11-23 20:23:00,47.0,25.7,30.01,NNW,340,0.0,0.0,43,0.00,,,0.02,0.00,VWS V14.01,2013-11-24 01:23:00,
2013-11-23 20:24:00,47.4,24.3,30.01,NNW,335,0.0,2.0,40,0.00,,,0.02,0.00,VWS V14.01,2013-11-24 01:24:00,
2013-11-23 20:25:00,47.6,24.5,30.01,NNW,335,0.0,0.0,40,0.00,,,0.02,0.00,VWS V14.01,2013-11-24 01:25:00,
2013-11-23 20:26:00,47.6,24.5,30.01,North,0,4.0,4.0,40,0.00,,,0.02,0.00,VWS V14.01,2013-11-24 01:26:00,
2013-11-23 20:27:00,47.6,24.5,30.01,NNW,330,2.0,4.0,40,0.00,,,0.02,0.00,VWS V14.01,2013-11-24 01:27:00,
2013-11-23 20:28:00,47.3,24.8,30.01,NW,325,0.0,0.0,41,0.00,,,0.02,0.00,VWS V14.01,2013-11-24 01:28:00,
2013-11-23 20:29:00,47.6,24.5,30.01,North,358,0.0,0.0,40,0.00,,,0.02,0.00,VWS V14.01,2013-11-24 01:29:00,
2013-11-23 20:30:00,47.6,24.5,30.01,North,357,0.0,0.0,40,0.00,,,0.02,0.00,VWS V14.01,2013-11-24 01:30:00,
2013-11-23 20:31:00,47.6,24.5,30.01,North,356,0.0,0.0,40,0.00,,,0.02,0.00,VWS V14.01,2013-11-24 01:31:00,
2013-11-23 20:32:00,47.6,24.5,30.01,North,349,0.0,2.0,40,0.00,,,0.02,0.00,VWS V14.01,2013-11-24 01:32:00,
2013-11-23 20:33:00,47.6,24.5,30.01,North,0,4.0,4.0,40,0.00,,,0.02,0.00,VWS V14.01,2013-11-24 01:33:00,
2013-11-23 20:34:00,47.6,24.5,30.01,North,356,0.0,5.0,40,0.00,,,0.02,0.00,VWS V14.01,2013-11-24 01:34:00,
2013-11-23 20:35:00,47.6,23.9,30.01,NNW,340,4.0,10.0,39,0.00,,,0.02,0.00,VWS V14.01,2013-11-24 01:35:00,
2013-11-23 20:36:00,47.4,23.7,30.01,NNW,346,1.0,4.0,39,0.00,,,0.02,0.00,VWS V14.01,2013-11-24 01:36:00,
2013-11-23 20:37:00,47.4,23.1,30.01,North,2,4.0,7.0,38,0.00,,,0.02,0.00,VWS V14.01,2013-11-24 01:37:00,
2013-11-23 20:38:00,47.6,24.5,30.01,North,354,0.0,0.0,40,0.00,,,0.02,0.00,VWS V14.01,2013-11-24 01:38:00,
2013-11-23 20:39:00,47.4,22.5,30.01,North,358,0.0,0.0,37,0.00,,,0.02,0.00,VWS V14.01,2013-11-24 01:39:00,
2013-11-23 20:40:00,47.4,23.1,30.01,North,8,4.0,6.0,38,0.00,,,0.02,0.00,VWS V14.01,2013-11-24 01:40:00,
2013-11-23 20:41:00,47.4,22.5,30.01,North,355,0.0,7.0,37,0.00,,,0.02,0.00,VWS V14.01,2013-11-24 01:41:00,
2013-11-23 20:43:00,47.4,23.7,30.01,NNW,346,2.0,2.0,39,0.00,,,0.02,0.00,VWS V14.01,2013-11-24 01:43:00,
2013-11-23 20:44:00,47.4,21.1,30.01,North,0,3.0,5.0,35,0.00,,,0.02,0.00,VWS V14.01,2013-11-24 01:44:00,
2013-11-23 20:45:00,47.4,21.1,30.02,NNW,339,1.0,6.0,35,0.00,,,0.02,0.00,VWS V14.01,2013-11-24 01:45:00,
2013-11-23 20:46:00,47.4,21.1,30.02,NNW,346,0.0,5.0,35,0.00,,,0.02,0.00,VWS V14.01,2013-11-24 01:46:00,
2013-11-23 20:47:00,47.6,21.3,30.02,NNW,334,2.0,2.0,35,0.00,,,0.02,0.00,VWS V14.01,2013-11-24 01:47:00,
2013-11-23 20:48:00,47.4,21.1,30.01,North,355,0.0,0.0,35,0.00,,,0.02,0.00,VWS V14.01,2013-11-24 01:48:00,
2013-11-23 20:49:00,47.6,21.3,30.02,NW,326,0.0,0.0,35,0.00,,,0.02,0.00,VWS V14.01,2013-11-24 01:49:00,
2013-11-23 20:50:00,47.6,21.3,30.02,NNE,25,5.0,5.0,35,0.00,,,0.02,0.00,VWS V14.01,2013-11-24 01:50:00,
2013-11-23 20:51:00,47.6,21.3,30.02,North,4,0.0,5.0,35,0.00,,,0.02,0.00,VWS V14.01,2013-11-24 01:51:00,
2013-11-23 20:52:00,47.6,21.3,30.02,North,0,0.0,4.0,35,0.00,,,0.02,0.00,VWS V14.01,2013-11-24 01:52:00,
2013-11-23 20:53:00,47.4,21.1,30.02,NNW,346,0.0,0.0,35,0.00,,,0.02,0.00,VWS V14.01,2013-11-24 01:53:00,
2013-11-23 20:54:00,47.6,21.3,30.02,North,354,1.0,6.0,35,0.00,,,0.02,0.00,VWS V14.01,2013-11-24 01:54:00,
2013-11-23 20:55:00,47.4,21.1,30.02,North,0,2.0,6.0,35,0.00,,,0.02,0.00,VWS V14.01,2013-11-24 01:55:00,
2013-11-23 20:56:00,47.4,20.5,30.02,North,351,0.0,2.0,34,0.00,,,0.02,0.00,VWS V14.01,2013-11-24 01:56:00,
2013-11-23 20:57:00,47.4,20.5,30.02,North,358,4.0,7.0,34,0.00,,,0.02,0.00,VWS V14.01,2013-11-24 01:57:00,
2013-11-23 20:58:00,47.6,21.3,30.02,North,356,3.0,3.0,35,0.00,,,0.02,0.00,VWS V14.01,2013-11-24 01:58:00,
2013-11-23 20:59:00,47.4,20.5,30.02,NE,46,10.0,11.0,34,0.00,,,0.02,0.00,VWS V14.01,2013-11-24 01:59:00,
2013-11-23 21:00:00,47.4,19.8,30.02,NNW,333,1.0,11.0,33,0.00,,,0.02,0.00,VWS V14.01,2013-11-24 02:00:00,
2013-11-23 21:01:00,47.4,19.8,30.02,North,0,5.0,9.0,33,0.00,,,0.02,0.00,VWS V14.01,2013-11-24 02:01:00,
2013-11-23 21:02:00,47.4,19.0,30.02,North,0,0.0,5.0,32,0.00,,,0.02,0.00,VWS V14.01,2013-11-24 02:02:00,
2013-11-23 21:03:00,47.4,20.5,30.02,North,351,0.0,0.0,34,0.00,,,0.02,0.00,VWS V14.01,2013-11-24 02:03:00,
2013-11-23 21:04:00,47.4,18.3,30.02,North,350,0.0,0.0,31,0.00,,,0.02,0.00,VWS V14.01,2013-11-24 02:04:00,
2013-11-23 21:05:00,47.4,18.3,30.02,North,350,0.0,0.0,31,0.00,,,0.02,0.00,VWS V14.01,2013-11-24 02:05:00,
2013-11-23 21:06:00,47.4,19.0,30.02,NNW,342,0.0,5.0,32,0.00,,,0.02,0.00,VWS V14.01,2013-11-24 02:06:00,
2013-11-23 21:07:00,47.4,19.8,30.02,North,0,0.0,4.0,33,0.00,,,0.02,0.00,VWS V14.01,2013-11-24 02:07:00,
2013-11-23 21:08:00,47.4,19.8,30.02,North,0,5.0,9.0,33,0.00,,,0.02,0.00,VWS V14.01,2013-11-24 02:08:00,
2013-11-23 21:09:00,47.4,18.3,30.02,NNW,329,0.0,0.0,31,0.00,,,0.02,0.00,VWS V14.01,2013-11-24 02:09:00,
2013-11-23 21:10:00,47.4,19.0,30.02,NNW,348,0.0,4.0,32,0.00,,,0.02,0.00,VWS V14.01,2013-11-24 02:10:00,
2013-11-23 21:11:00,47.4,19.0,30.02,NNW,348,0.0,1.0,32,0.00,,,0.02,0.00,VWS V14.01,2013-11-24 02:11:00,
2013-11-23 21:12:00,47.4,19.0,30.02,NNW,348,0.0,0.0,32,0.00,,,0.02,0.00,VWS V14.01,2013-11-24 02:12:00,
2013-11-23 21:13:00,47.4,19.0,30.02,NNW,342,0.0,0.0,32,0.00,,,0.02,0.00,VWS V14.01,2013-11-24 02:13:00,
2013-11-23 21:14:00,47.4,19.0,30.02,NNE,18,5.0,6.0,32,0.00,,,0.02,0.00,VWS V14.01,2013-11-24 02:14:00,
2013-11-23 21:15:00,47.3,19.0,30.02,North,5,5.0,7.0,32,0.00,,,0.02,0.00,VWS V14.01,2013-11-24 02:15:00,
2013-11-23 21:16:00,47.3,19.0,30.02,North,0,0.0,5.0,32,0.00,,,0.02,0.00,VWS V14.01,2013-11-24 02:16:00,
2013-11-23 21:17:00,47.3,19.0,30.02,NNW,333,13.0,13.0,32,0.00,,,0.02,0.00,VWS V14.01,2013-11-24 02:17:00,
2013-11-23 21:18:00,47.4,19.0,30.02,NNW,348,0.0,0.0,32,0.00,,,0.02,0.00,VWS V14.01,2013-11-24 02:18:00,
2013-11-23 21:19:00,47.1,18.8,30.02,North,0,7.0,10.0,32,0.00,,,0.02,0.00,VWS V14.01,2013-11-24 02:19:00,
2013-11-23 21:20:00,47.1,18.8,30.02,NNW,346,0.0,10.0,32,0.00,,,0.02,0.00,VWS V14.01,2013-11-24 02:20:00,
2013-11-23 21:21:00,47.1,18.8,30.02,NNW,330,0.0,3.0,32,0.00,,,0.02,0.00,VWS V14.01,2013-11-24 02:21:00,
2013-11-23 21:22:00,47.1,18.0,30.02,NW,318,0.0,3.0,31,0.00,,,0.02,0.00,VWS V14.01,2013-11-24 02:22:00,
2013-11-23 21:23:00,47.3,19.0,30.02,North,354,1.0,1.0,32,0.00,,,0.02,0.00,VWS V14.01,2013-11-24 02:23:00,
2013-11-23 21:24:00,47.1,18.8,30.02,NNW,337,0.0,0.0,32,0.00,,,0.02,0.00,VWS V14.01,2013-11-24 02:24:00,
2013-11-23 21:25:00,47.1,19.5,30.02,NNW,337,0.0,0.0,33,0.00,,,0.02,0.00,VWS V14.01,2013-11-24 02:25:00,
2013-11-23 21:26:00,47.0,19.4,30.02,NNW,329,0.0,1.0,33,0.00,,,0.02,0.00,VWS V14.01,2013-11-24 02:26:00,
2013-11-23 21:27:00,47.0,18.7,30.02,North,1,3.0,3.0,32,0.00,,,0.02,0.00,VWS V14.01,2013-11-24 02:27:00,
2013-11-23 21:28:00,47.1,18.8,30.02,NNW,330,0.0,0.0,32,0.00,,,0.02,0.00,VWS V14.01,2013-11-24 02:28:00,
2013-11-23 21:29:00,47.0,18.7,30.02,North,0,0.0,4.0,32,0.00,,,0.02,0.00,VWS V14.01,2013-11-24 02:29:00,
2013-11-23 21:30:00,46.8,19.2,30.03,North,358,0.0,0.0,33,0.00,,,0.02,0.00,VWS V14.01,2013-11-24 02:30:00,
2013-11-23 21:31:00,46.8,19.2,30.03,North,6,0.0,4.0,33,0.00,,,0.02,0.00,VWS V14.01,2013-11-24 02:31:00,
2013-11-23 21:32:00,46.8,19.2,30.03,North,6,0.0,0.0,33,0.00,,,0.02,0.00,VWS V14.01,2013-11-24 02:32:00,
2013-11-23 21:33:00,47.0,19.4,30.02,NNW,329,0.0,1.0,33,0.00,,,0.02,0.00,VWS V14.01,2013-11-24 02:33:00,
2013-11-23 21:34:00,46.7,19.1,30.03,North,6,0.0,0.0,33,0.00,,,0.02,0.00,VWS V14.01,2013-11-24 02:34:00,
2013-11-23 21:35:00,46.7,19.8,30.03,North,6,0.0,0.0,34,0.00,,,0.02,0.00,VWS V14.01,2013-11-24 02:35:00,
2013-11-23 21:36:00,46.5,19.0,30.03,North,11,0.0,4.0,33,0.00,,,0.02,0.00,VWS V14.01,2013-11-24 02:36:00,
2013-11-23 21:37:00,46.5,19.0,30.03,North,2,0.0,0.0,33,0.00,,,0.02,0.00,VWS V14.01,2013-11-24 02:37:00,
2013-11-23 21:38:00,46.8,19.2,30.03,North,6,0.0,4.0,33,0.00,,,0.02,0.00,VWS V14.01,2013-11-24 02:38:00,
2013-11-23 21:39:00,46.4,19.6,30.03,North,0,0.0,0.0,34,0.00,,,0.02,0.00,VWS V14.01,2013-11-24 02:39:00,
2013-11-23 21:40:00,46.4,20.2,30.03,North,0,0.0,0.0,35,0.00,,,0.02,0.00,VWS V14.01,2013-11-24 02:40:00,
2013-11-23 21:41:00,46.2,19.4,30.03,North,0,0.0,0.0,34,0.00,,,0.02,0.00,VWS V14.01,2013-11-24 02:41:00,
2013-11-23 21:42:00,46.2,20.1,30.03,North,0,0.0,0.0,35,0.00,,,0.02,0.00,VWS V14.01,2013-11-24 02:42:00,
2013-11-23 21:43:00,46.5,19.0,30.03,North,11,0.0,4.0,33,0.00,,,0.02,0.00,VWS V14.01,2013-11-24 02:43:00,
2013-11-23 21:44:00,46.1,20.0,30.03,North,0,2.0,3.0,35,0.00,,,0.02,0.00,VWS V14.01,2013-11-24 02:44:00,
2013-11-23 21:45:00,46.0,19.9,30.03,North,0,0.0,3.0,35,0.00,,,0.02,0.00,VWS V14.01,2013-11-24 02:45:00,
2013-11-23 21:46:00,46.0,20.6,30.03,North,0,0.0,0.0,36,0.00,,,0.02,0.00,VWS V14.01,2013-11-24 02:46:00,
2013-11-23 21:47:00,45.8,20.4,30.03,North,0,0.0,0.0,36,0.00,,,0.02,0.00,VWS V14.01,2013-11-24 02:47:00,
2013-11-23 21:48:00,46.2,19.4,30.03,North,0,0.0,0.0,34,0.00,,,0.02,0.00,VWS V14.01,2013-11-24 02:48:00,
2013-11-23 21:49:00,45.7,20.3,30.03,North,0,0.0,0.0,36,0.00,,,0.02,0.00,VWS V14.01,2013-11-24 02:49:00,
2013-11-23 21:50:00,45.5,20.1,30.03,North,0,0.0,0.0,36,0.00,,,0.02,0.00,VWS V14.01,2013-11-24 02:50:00,
2013-11-23 21:51:00,45.4,20.7,30.03,North,0,0.0,1.0,37,0.00,,,0.02,0.00,VWS V14.01,2013-11-24 02:51:00,
2013-11-23 21:52:00,45.4,20.7,30.03,North,0,0.0,0.0,37,0.00,,,0.02,0.00,VWS V14.01,2013-11-24 02:52:00,
2013-11-23 21:53:00,46.0,20.6,30.03,North,0,0.0,0.0,36,0.00,,,0.02,0.00,VWS V14.01,2013-11-24 02:53:00,
2013-11-23 21:54:00,45.1,20.4,30.03,North,0,0.0,0.0,37,0.00,,,0.02,0.00,VWS V14.01,2013-11-24 02:54:00,
2013-11-23 21:55:00,45.1,20.4,30.03,North,0,2.0,3.0,37,0.00,,,0.02,0.00,VWS V14.01,2013-11-24 02:55:00,
2013-11-23 21:56:00,44.9,20.2,30.03,North,0,0.0,2.0,37,0.00,,,0.02,0.00,VWS V14.01,2013-11-24 02:56:00,
2013-11-23 21:57:00,44.8,20.1,30.03,North,0,0.0,0.0,37,0.00,,,0.02,0.00,VWS V14.01,2013-11-24 02:57:00,
2013-11-23 21:58:00,45.4,20.7,30.03,North,0,0.0,1.0,37,0.00,,,0.02,0.00,VWS V14.01,2013-11-24 02:58:00,
2013-11-23 21:59:00,44.6,20.6,30.03,NNW,331,0.0,5.0,38,0.00,,,0.02,0.00,VWS V14.01,2013-11-24 02:59:00,
2013-11-23 22:00:00,44.5,19.9,30.04,NNW,331,0.0,0.0,37,0.00,,,0.02,0.00,VWS V14.01,2013-11-24 03:00:00,
2013-11-23 22:01:00,44.5,19.9,30.04,NNW,331,0.0,0.0,37,0.00,,,0.02,0.00,VWS V14.01,2013-11-24 03:01:00,
2013-11-23 22:02:00,44.5,19.9,30.04,North,0,5.0,7.0,37,0.00,,,0.02,0.00,VWS V14.01,2013-11-24 03:02:00,
2013-11-23 22:03:00,44.9,20.2,30.03,North,0,0.0,2.0,37,0.00,,,0.02,0.00,VWS V14.01,2013-11-24 03:03:00,
2013-11-23 22:04:00,44.3,19.7,30.04,NNE,13,0.0,3.0,37,0.00,,,0.02,0.00,VWS V14.01,2013-11-24 03:04:00,
2013-11-23 22:05:00,44.3,19.7,30.04,North,2,1.0,9.0,37,0.00,,,0.02,0.00,VWS V14.01,2013-11-24 03:05:00,
2013-11-23 22:06:00,44.3,19.0,30.04,North,4,3.0,5.0,36,0.00,,,0.02,0.00,VWS V14.01,2013-11-24 03:06:00,
2013-11-23 22:07:00,44.3,19.7,30.04,North,0,3.0,4.0,37,0.00,,,0.02,0.00,VWS V14.01,2013-11-24 03:07:00,
2013-11-23 22:08:00,44.5,19.9,30.04,NNW,331,0.0,0.0,37,0.00,,,0.02,0.00,VWS V14.01,2013-11-24 03:08:00,
2013-11-23 22:09:00,44.3,20.3,30.04,North,0,6.0,15.0,38,0.00,,,0.02,0.00,VWS V14.01,2013-11-24 03:09:00,
2013-11-23 22:10:00,44.5,19.2,30.04,NNE,27,0.0,7.0,36,0.00,,,0.02,0.00,VWS V14.01,2013-11-24 03:10:00,
2013-11-23 22:11:00,44.5,19.2,30.04,NNW,346,0.0,1.0,36,0.00,,,0.02,0.00,VWS V14.01,2013-11-24 03:11:00,
2013-11-23 22:12:00,44.5,19.2,30.04,North,349,0.0,2.0,36,0.00,,,0.02,0.00,VWS V14.01,2013-11-24 03:12:00,
2013-11-23 22:13:00,44.3,19.0,30.04,North,4,3.0,5.0,36,0.00,,,0.02,0.00,VWS V14.01,2013-11-24 03:13:00,
2013-11-23 22:14:00,44.5,19.2,30.04,NNW,347,2.0,2.0,36,0.00,,,0.02,0.00,VWS V14.01,2013-11-24 03:14:00,
2013-11-23 22:15:00,44.6,19.3,30.04,North,0,5.0,7.0,36,0.00,,,0.02,0.00,VWS V14.01,2013-11-24 03:15:00,
2013-11-23 22:16:00,44.6,19.3,30.04,NNW,347,8.0,10.0,36,0.00,,,0.02,0.00,VWS V14.01,2013-11-24 03:16:00,
2013-11-23 22:17:00,44.6,18.7,30.04,North,357,7.0,8.0,35,0.00,,,0.02,0.00,VWS V14.01,2013-11-24 03:17:00,
2013-11-23 22:18:00,44.5,19.2,30.04,NNW,328,0.0,1.0,36,0.00,,,0.02,0.00,VWS V14.01,2013-11-24 03:18:00,
2013-11-23 22:19:00,44.6,18.7,30.04,North,10,4.0,15.0,35,0.00,,,0.02,0.00,VWS V14.01,2013-11-24 03:19:00,
2013-11-23 22:20:00,44.8,18.8,30.04,NW,314,5.0,7.0,35,0.00,,,0.02,0.00,VWS V14.01,2013-11-24 03:20:00,
2013-11-23 22:21:00,44.8,18.8,30.04,North,356,3.0,5.0,35,0.00,,,0.02,0.00,VWS V14.01,2013-11-24 03:21:00,
2013-11-23 22:22:00,44.8,18.8,30.04,North,0,4.0,9.0,35,0.00,,,0.02,0.00,VWS V14.01,2013-11-24 03:22:00,
2013-11-23 22:23:00,44.6,19.3,30.04,NNW,347,8.0,10.0,36,0.00,,,0.02,0.00,VWS V14.01,2013-11-24 03:23:00,
2013-11-23 22:24:00,44.9,18.9,30.04,North,1,0.0,1.0,35,0.00,,,0.02,0.00,VWS V14.01,2013-11-24 03:24:00,
2013-11-23 22:25:00,44.9,18.9,30.04,North,0,0.0,2.0,35,0.00,,,0.02,0.00,VWS V14.01,2013-11-24 03:25:00,
2013-11-23 22:26:00,44.9,18.9,30.04,North,358,0.0,4.0,35,0.00,,,0.02,0.00,VWS V14.01,2013-11-24 03:26:00,
2013-11-23 22:27:00,44.9,18.9,30.04,North,358,0.0,1.0,35,0.00,,,0.02,0.00,VWS V14.01,2013-11-24 03:27:00,
2013-11-23 22:28:00,44.8,18.8,30.04,North,356,2.0,5.0,35,0.00,,,0.02,0.00,VWS V14.01,2013-11-24 03:28:00,
2013-11-23 22:29:00,44.9,19.6,30.04,North,0,3.0,6.0,36,0.00,,,0.02,0.00,VWS V14.01,2013-11-24 03:29:00,
2013-11-23 22:30:00,44.8,18.8,30.05,North,358,0.0,4.0,35,0.00,,,0.02,0.00,VWS V14.01,2013-11-24 03:30:00,
2013-11-23 22:31:00,44.8,19.5,30.05,NNE,23,3.0,5.0,36,0.00,,,0.02,0.00,VWS V14.01,2013-11-24 03:31:00,
2013-11-23 22:32:00,44.8,18.8,30.05,North,0,3.0,9.0,35,0.00,,,0.02,0.00,VWS V14.01,2013-11-24 03:32:00,
2013-11-23 22:33:00,44.9,18.9,30.04,North,358,0.0,4.0,35,0.00,,,0.02,0.00,VWS V14.01,2013-11-24 03:33:00,
2013-11-23 22:34:00,44.6,18.7,30.05,North,2,0.0,9.0,35,0.00,,,0.02,0.00,VWS V14.01,2013-11-24 03:34:00,
2013-11-23 22:35:00,44.6,19.3,30.05,NNE,27,1.0,4.0,36,0.00,,,0.02,0.00,VWS V14.01,2013-11-24 03:35:00,
2013-11-23 22:36:00,44.6,18.7,30.05,North,6,0.0,5.0,35,0.00,,,0.02,0.00,VWS V14.01,2013-11-24 03:36:00,
2013-11-23 22:37:00,44.6,18.7,30.05,NNE,18,4.0,4.0,35,0.00,,,0.02,0.00,VWS V14.01,2013-11-24 03:37:00,
2013-11-23 22:38:00,44.8,19.5,30.05,NNE,21,3.0,5.0,36,0.00,,,0.02,0.00,VWS V14.01,2013-11-24 03:38:00,
2013-11-23 22:39:00,44.5,19.2,30.05,North,10,0.0,7.0,36,0.00,,,0.02,0.00,VWS V14.01,2013-11-24 03:39:00,
2013-11-23 22:40:00,44.5,19.2,30.05,North,358,0.0,4.0,36,0.00,,,0.02,0.00,VWS V14.01,2013-11-24 03:40:00,
2013-11-23 22:41:00,44.5,19.2,30.05,North,358,0.0,0.0,36,0.00,,,0.02,0.00,VWS V14.01,2013-11-24 03:41:00,
2013-11-23 22:42:00,44.3,18.4,30.05,North,358,0.0,0.0,35,0.00,,,0.02,0.00,VWS V14.01,2013-11-24 03:42:00,
2013-11-23 22:43:00,44.6,18.7,30.05,North,358,0.0,5.0,35,0.00,,,0.02,0.00,VWS V14.01,2013-11-24 03:43:00,
2013-11-23 22:44:00,44.3,19.0,30.05,North,3,0.0,4.0,36,0.00,,,0.02,0.00,VWS V14.01,2013-11-24 03:44:00,
2013-11-23 22:45:00,44.2,19.0,30.06,North,358,0.0,4.0,36,0.00,,,0.02,0.00,VWS V14.01,2013-11-24 03:45:00,
2013-11-23 22:46:00,44.2,19.0,30.06,North,0,5.0,9.0,36,0.00,,,0.02,0.00,VWS V14.01,2013-11-24 03:46:00,
2013-11-23 22:47:00,44.2,19.0,30.06,NE,44,2.0,6.0,36,0.00,,,0.02,0.00,VWS V14.01,2013-11-24 03:47:00,
2013-11-23 22:48:00,44.5,19.2,30.05,North,358,0.0,0.0,36,0.00,,,0.02,0.00,VWS V14.01,2013-11-24 03:48:00,
2013-11-23 22:49:00,44.1,19.5,30.06,North,0,1.0,1.0,37,0.00,,,0.02,0.00,VWS V14.01,2013-11-24 03:49:00,
2013-11-23 22:50:00,44.1,19.5,30.06,North,358,3.0,6.0,37,0.00,,,0.02,0.00,VWS V14.01,2013-11-24 03:50:00,
2013-11-23 22:51:00,44.1,19.5,30.06,North,351,0.0,6.0,37,0.00,,,0.02,0.00,VWS V14.01,2013-11-24 03:51:00,
2013-11-23 22:52:00,44.1,19.5,30.06,North,0,6.0,12.0,37,0.00,,,0.02,0.00,VWS V14.01,2013-11-24 03:52:00,
2013-11-23 22:53:00,44.2,19.0,30.06,NNE,18,9.0,9.0,36,0.00,,,0.02,0.00,VWS V14.01,2013-11-24 03:53:00,
2013-11-23 22:54:00,43.9,19.3,30.06,North,1,12.0,12.0,37,0.00,,,0.02,0.00,VWS V14.01,2013-11-24 03:54:00,
2013-11-23 22:57:00,43.9,19.3,30.06,North,4,7.0,7.0,37,0.00,,,0.02,0.00,VWS V14.01,2013-11-24 03:57:00,
2013-11-23 22:58:00,44.1,19.5,30.06,North,350,1.0,6.0,37,0.00,,,0.02,0.00,VWS V14.01,2013-11-24 03:58:00,
2013-11-23 23:01:00,43.9,19.3,30.06,North,3,4.0,7.0,37,0.00,,,0.02,0.00,VWS V14.01,2013-11-24 04:01:00,
2013-11-23 23:02:00,43.9,19.3,30.06,North,0,0.0,6.0,37,0.00,,,0.02,0.00,VWS V14.01,2013-11-24 04:02:00,
2013-11-23 23:03:00,43.9,19.3,30.06,North,356,0.0,11.0,37,0.00,,,0.02,0.00,VWS V14.01,2013-11-24 04:03:00,
2013-11-23 23:04:00,43.9,20.0,30.06,ENE,69,0.0,8.0,38,0.00,,,0.02,0.00,VWS V14.01,2013-11-24 04:04:00,
2013-11-23 23:05:00,43.8,19.9,30.06,North,350,0.0,5.0,38,0.00,,,0.02,0.00,VWS V14.01,2013-11-24 04:05:00,
2013-11-23 23:07:00,43.8,19.2,30.06,North,358,3.0,7.0,37,0.00,,,0.02,0.00,VWS V14.01,2013-11-24 04:07:00,
2013-11-23 23:08:00,43.9,19.3,30.06,North,8,0.0,7.0,37,0.00,,,0.02,0.00,VWS V14.01,2013-11-24 04:08:00,
2013-11-23 23:09:00,43.8,19.9,30.06,North,0,0.0,11.0,38,0.00,,,0.02,0.00,VWS V14.01,2013-11-24 04:09:00,
2013-11-23 23:10:00,43.8,19.9,30.06,North,358,4.0,6.0,38,0.00,,,0.02,0.00,VWS V14.01,2013-11-24 04:10:00,
2013-11-23 23:11:00,43.8,19.9,30.06,North,358,4.0,4.0,38,0.00,,,0.02,0.00,VWS V14.01,2013-11-24 04:11:00,
2013-11-23 23:13:00,43.8,19.9,30.06,NNW,328,5.0,6.0,38,0.00,,,0.02,0.00,VWS V14.01,2013-11-24 04:13:00,
2013-11-23 23:14:00,43.6,19.7,30.06,North,11,7.0,10.0,38,0.00,,,0.02,0.00,VWS V14.01,2013-11-24 04:14:00,
2013-11-23 23:15:00,43.6,20.3,30.06,NE,39,4.0,11.0,39,0.00,,,0.02,0.00,VWS V14.01,2013-11-24 04:15:00,
2013-11-23 23:17:00,43.5,20.2,30.06,NNE,20,0.0,14.0,39,0.00,,,0.02,0.00,VWS V14.01,2013-11-24 04:17:00,
2013-11-23 23:18:00,43.8,19.9,30.06,North,358,4.0,4.0,38,0.00,,,0.02,0.00,VWS V14.01,2013-11-24 04:18:00,
2013-11-23 23:22:00,43.5,20.2,30.06,North,355,3.0,10.0,39,0.00,,,0.02,0.00,VWS V14.01,2013-11-24 04:22:00,
2013-11-23 23:23:00,43.5,20.2,30.06,North,349,3.0,10.0,39,0.00,,,0.02,0.00,VWS V14.01,2013-11-24 04:23:00,
2013-11-23 23:24:00,43.3,20.0,30.06,North,6,5.0,5.0,39,0.00,,,0.02,0.00,VWS V14.01,2013-11-24 04:24:00,
2013-11-23 23:25:00,43.3,20.0,30.06,North,5,3.0,6.0,39,0.00,,,0.02,0.00,VWS V14.01,2013-11-24 04:25:00,
2013-11-23 23:26:00,43.3,20.0,30.06,NNW,333,2.0,5.0,39,0.00,,,0.02,0.00,VWS V14.01,2013-11-24 04:26:00,
2013-11-23 23:27:00,43.3,20.0,30.06,North,349,6.0,13.0,39,0.00,,,0.02,0.00,VWS V14.01,2013-11-24 04:27:00,
2013-11-23 23:28:00,43.5,20.2,30.06,North,3,4.0,7.0,39,0.00,,,0.02,0.00,VWS V14.01,2013-11-24 04:28:00,
2013-11-23 23:30:00,43.3,20.0,30.07,NNW,347,4.0,4.0,39,0.00,,,0.02,0.00,VWS V14.01,2013-11-24 04:30:00,
2013-11-23 23:31:00,43.2,19.9,30.07,North,10,3.0,4.0,39,0.00,,,0.02,0.00,VWS V14.01,2013-11-24 04:31:00,
2013-11-23 23:32:00,43.2,19.9,30.07,North,4,3.0,6.0,39,0.00,,,0.02,0.00,VWS V14.01,2013-11-24 04:32:00,
2013-11-23 23:33:00,43.3,20.0,30.06,NNW,345,3.0,5.0,39,0.00,,,0.02,0.00,VWS V14.01,2013-11-24 04:33:00,
2013-11-23 23:34:00,43.1,19.8,30.07,North,358,0.0,0.0,39,0.00,,,0.02,0.00,VWS V14.01,2013-11-24 04:34:00,
2013-11-23 23:35:00,43.1,19.8,30.07,North,2,0.0,0.0,39,0.00,,,0.02,0.00,VWS V14.01,2013-11-24 04:35:00,
2013-11-23 23:37:00,43.1,20.4,30.07,North,0,2.0,5.0,40,0.00,,,0.02,0.00,VWS V14.01,2013-11-24 04:37:00,
2013-11-23 23:38:00,43.2,19.9,30.07,North,3,1.0,4.0,39,0.00,,,0.02,0.00,VWS V14.01,2013-11-24 04:38:00,
2013-11-23 23:40:00,42.9,20.3,30.07,North,356,0.0,2.0,40,0.00,,,0.02,0.00,VWS V14.01,2013-11-24 04:40:00,
2013-11-23 23:41:00,42.8,20.2,30.07,North,10,0.0,0.0,40,0.00,,,0.02,0.00,VWS V14.01,2013-11-24 04:41:00,
2013-11-23 23:42:00,42.8,20.2,30.07,North,10,0.0,2.0,40,0.00,,,0.02,0.00,VWS V14.01,2013-11-24 04:42:00,
2013-11-23 23:43:00,43.1,20.4,30.07,North,2,3.0,3.0,40,0.00,,,0.02,0.00,VWS V14.01,2013-11-24 04:43:00,
2013-11-23 23:44:00,42.6,20.0,30.07,North,1,0.0,7.0,40,0.00,,,0.02,0.00,VWS V14.01,2013-11-24 04:44:00,
2013-11-23 23:45:00,42.6,20.0,30.07,North,1,0.0,0.0,40,0.00,,,0.02,0.00,VWS V14.01,2013-11-24 04:45:00,
2013-11-23 23:47:00,42.5,20.5,30.07,NE,48,4.0,4.0,41,0.00,,,0.02,0.00,VWS V14.01,2013-11-24 04:47:00,
2013-11-23 23:48:00,42.8,20.2,30.07,North,10,0.0,0.0,40,0.00,,,0.02,0.00,VWS V14.01,2013-11-24 04:48:00,
2013-11-23 23:51:00,42.3,20.3,30.07,NNW,340,1.0,7.0,41,0.00,,,0.02,0.00,VWS V14.01,2013-11-24 04:51:00,
2013-11-23 23:52:00,42.3,20.3,30.07,NNW,342,0.0,1.0,41,0.00,,,0.02,0.00,VWS V14.01,2013-11-24 04:52:00,
2013-11-23 23:53:00,42.6,20.6,30.07,North,1,0.0,0.0,41,0.00,,,0.02,0.00,VWS V14.01,2013-11-24 04:53:00,
2013-11-23 23:54:00,42.2,20.2,30.07,NNW,342,0.0,0.0,41,0.00,,,0.02,0.00,VWS V14.01,2013-11-24 04:54:00,
2013-11-23 23:55:00,42.2,20.2,30.07,NNW,342,0.0,0.0,41,0.00,,,0.02,0.00,VWS V14.01,2013-11-24 04:55:00,
2013-11-23 23:56:00,42.2,20.8,30.07,NNW,342,2.0,3.0,42,0.00,,,0.02,0.00,VWS V14.01,2013-11-24 04:56:00,
2013-11-23 23:58:00,42.3,20.3,30.07,NNW,340,5.0,7.0,41,0.00,,,0.02,0.00,VWS V14.01,2013-11-24 04:58:00,
2013-11-23 23:59:00,42.1,20.7,30.07,North,2,0.0,2.0,42,0.00,,,0.02,0.00,VWS V14.01,2013-11-24 04:59:00,